PWSweather.com
Personal Weather Stations
Station Observations
KCAKERNV93238
Kernville Downtown, Kernville, CA 93238

Kernville DowntownKernville, CA 93238

Lat: 35.754209, Lon: -118.42456

Elevation: 2664

Station Type: Ambient Weather 2902A

www.natureali.org

High Low Average
Temperature 59.2°F15.1°C 46.4°F8.0°C 50.8°F10.4°C
Dew Point 54.0°F12.2°C 38.3°F3.5°C 47.6°F8.7°C
Winds 6.0 mph 9.7 kmh Calm Calm 1.0 mph SSE1.6 kmh SSE
Wind Gusts 8.1 mph13.0 kmh -- 2.0 mph3.2 kmh
Humidity 97% 66% 89%
Pressure 29.96 in1014.6 mb 29.81 in1009.5 mb -
Precipitation 1.20 in30.5 mm - -
Hour Temp Dew Point Humidity Winds Wind Gusts Pressure Precip Precip Rate Daily Precip Total
12:00 AM 46.2°F7.9°C 40.4°F4.7°C 80% Calm Calm -- 29.89 in1012.2 mb 0.00 in0.0 mm 0.00 in0.0 mm 0.00 in0.0 mm
12:01 AM 46.0°F7.8°C 40.5°F4.7°C 81% 0.7 mph NE1.1 kmh NE 1.1 mph1.8 kmh 29.89 in1012.2 mb 0.00 in0.0 mm 0.00 in0.0 mm 0.00 in0.0 mm
12:02 AM 46.2°F7.9°C 40.1°F4.5°C 79% Calm Calm -- 29.89 in1012.2 mb 0.00 in0.0 mm 0.00 in0.0 mm 0.00 in0.0 mm
12:03 AM 46.2°F7.9°C 40.1°F4.5°C 79% 2.2 mph NE3.5 kmh NE 2.2 mph3.5 kmh 29.89 in1012.2 mb 0.00 in0.0 mm 0.00 in0.0 mm 0.00 in0.0 mm
12:04 AM 46.2°F7.9°C 39.7°F4.3°C 78% 0.4 mph NE0.6 kmh NE 1.1 mph1.8 kmh 29.89 in1012.2 mb 0.00 in0.0 mm 0.00 in0.0 mm 0.00 in0.0 mm
12:05 AM 46.4°F8.0°C 39.9°F4.4°C 78% Calm Calm -- 29.89 in1012.2 mb 0.00 in0.0 mm 0.00 in0.0 mm 0.00 in0.0 mm
12:06 AM 46.6°F8.1°C 40.1°F4.5°C 78% Calm Calm -- 29.89 in1012.2 mb 0.00 in0.0 mm 0.00 in0.0 mm 0.00 in0.0 mm
12:07 AM 46.6°F8.1°C 40.4°F4.7°C 79% 0.7 mph NE1.1 kmh NE 1.1 mph1.8 kmh 29.90 in1012.5 mb 0.00 in0.0 mm 0.00 in0.0 mm 0.00 in0.0 mm
12:08 AM 46.6°F8.1°C 40.8°F4.9°C 80% 0.4 mph NE0.6 kmh NE 1.1 mph1.8 kmh 29.90 in1012.5 mb 0.00 in0.0 mm 0.00 in0.0 mm 0.00 in0.0 mm
12:09 AM 46.4°F8.0°C 40.6°F4.8°C 80% Calm Calm -- 29.89 in1012.2 mb 0.00 in0.0 mm 0.00 in0.0 mm 0.00 in0.0 mm
12:10 AM 46.4°F8.0°C 40.9°F4.9°C 81% 0.7 mph NE1.1 kmh NE 1.1 mph1.8 kmh 29.89 in1012.2 mb 0.00 in0.0 mm 0.00 in0.0 mm 0.00 in0.0 mm
12:11 AM 46.2°F7.9°C 41.0°F5.0°C 82% 0.7 mph NE1.1 kmh NE 1.1 mph1.8 kmh 29.89 in1012.2 mb 0.00 in0.0 mm 0.00 in0.0 mm 0.00 in0.0 mm
12:12 AM 46.2°F7.9°C 41.0°F5.0°C 82% 1.1 mph NE1.8 kmh NE 1.1 mph1.8 kmh 29.89 in1012.2 mb 0.00 in0.0 mm 0.00 in0.0 mm 0.00 in0.0 mm
12:14 AM 45.9°F7.7°C 40.7°F4.8°C 82% Calm Calm -- 29.89 in1012.2 mb 0.00 in0.0 mm 0.00 in0.0 mm 0.00 in0.0 mm
12:15 AM 45.9°F7.7°C 40.7°F4.8°C 82% Calm Calm -- 29.89 in1012.2 mb 0.00 in0.0 mm 0.00 in0.0 mm 0.00 in0.0 mm
12:17 AM 45.7°F7.6°C 40.2°F4.6°C 81% Calm Calm -- 29.89 in1012.2 mb 0.00 in0.0 mm 0.00 in0.0 mm 0.00 in0.0 mm
12:18 AM 45.7°F7.6°C 40.2°F4.6°C 81% Calm Calm -- 29.89 in1012.2 mb 0.00 in0.0 mm 0.00 in0.0 mm 0.00 in0.0 mm
12:20 AM 45.7°F7.6°C 40.2°F4.6°C 81% Calm Calm -- 29.89 in1012.2 mb 0.00 in0.0 mm 0.00 in0.0 mm 0.00 in0.0 mm
12:21 AM 45.7°F7.6°C 40.2°F4.6°C 81% Calm Calm -- 29.89 in1012.2 mb 0.00 in0.0 mm 0.00 in0.0 mm 0.00 in0.0 mm
12:22 AM 45.7°F7.6°C 40.2°F4.6°C 81% 0.9 mph NE1.4 kmh NE 1.1 mph1.8 kmh 29.89 in1012.2 mb 0.00 in0.0 mm 0.00 in0.0 mm 0.00 in0.0 mm
12:23 AM 45.9°F7.7°C 40.1°F4.5°C 80% Calm Calm -- 29.89 in1012.2 mb 0.00 in0.0 mm 0.00 in0.0 mm 0.00 in0.0 mm
12:24 AM 46.0°F7.8°C 40.2°F4.6°C 80% 0.7 mph NE1.1 kmh NE 1.1 mph1.8 kmh 29.89 in1012.2 mb 0.00 in0.0 mm 0.00 in0.0 mm 0.00 in0.0 mm
12:25 AM 46.0°F7.8°C 39.9°F4.4°C 79% 1.1 mph NE1.8 kmh NE 1.1 mph1.8 kmh 29.89 in1012.2 mb 0.00 in0.0 mm 0.00 in0.0 mm 0.00 in0.0 mm
12:26 AM 46.2°F7.9°C 40.1°F4.5°C 79% 0.2 mph NE0.3 kmh NE 1.1 mph1.8 kmh 29.89 in1012.2 mb 0.00 in0.0 mm 0.00 in0.0 mm 0.00 in0.0 mm
12:27 AM 46.4°F8.0°C 39.9°F4.4°C 78% Calm Calm -- 29.89 in1012.2 mb 0.00 in0.0 mm 0.00 in0.0 mm 0.00 in0.0 mm
12:28 AM 46.6°F8.1°C 40.1°F4.5°C 78% Calm Calm -- 29.89 in1012.2 mb 0.00 in0.0 mm 0.00 in0.0 mm 0.00 in0.0 mm
12:29 AM 46.8°F8.2°C 40.0°F4.4°C 77% 0.7 mph NE1.1 kmh NE 1.1 mph1.8 kmh 29.89 in1012.2 mb 0.00 in0.0 mm 0.00 in0.0 mm 0.00 in0.0 mm
12:30 AM 46.9°F8.3°C 40.1°F4.5°C 77% Calm Calm -- 29.89 in1012.2 mb 0.00 in0.0 mm 0.00 in0.0 mm 0.00 in0.0 mm
12:31 AM 47.1°F8.4°C 40.3°F4.6°C 77% Calm Calm -- 29.89 in1012.2 mb 0.00 in0.0 mm 0.00 in0.0 mm 0.00 in0.0 mm
12:32 AM 47.1°F8.4°C 39.9°F4.4°C 76% 1.1 mph NE1.8 kmh NE 1.1 mph1.8 kmh 29.89 in1012.2 mb 0.00 in0.0 mm 0.00 in0.0 mm 0.00 in0.0 mm
12:33 AM 47.3°F8.5°C 40.1°F4.5°C 76% 1.3 mph NE2.1 kmh NE 2.2 mph3.5 kmh 29.88 in1011.9 mb 0.00 in0.0 mm 0.00 in0.0 mm 0.00 in0.0 mm
12:35 AM 47.7°F8.7°C 40.2°F4.6°C 75% 0.7 mph NE1.1 kmh NE 1.1 mph1.8 kmh 29.88 in1011.9 mb 0.00 in0.0 mm 0.00 in0.0 mm 0.00 in0.0 mm
12:37 AM 47.7°F8.7°C 40.2°F4.6°C 75% Calm Calm -- 29.88 in1011.9 mb 0.00 in0.0 mm 0.00 in0.0 mm 0.00 in0.0 mm
12:38 AM 47.7°F8.7°C 40.2°F4.6°C 75% 0.9 mph NE1.4 kmh NE 1.1 mph1.8 kmh 29.88 in1011.9 mb 0.00 in0.0 mm 0.00 in0.0 mm 0.00 in0.0 mm
12:39 AM 47.7°F8.7°C 40.2°F4.6°C 75% 0.9 mph NE1.4 kmh NE 1.1 mph1.8 kmh 29.88 in1011.9 mb 0.00 in0.0 mm 0.00 in0.0 mm 0.00 in0.0 mm
12:42 AM 47.8°F8.8°C 40.3°F4.6°C 75% Calm Calm -- 29.89 in1012.2 mb 0.00 in0.0 mm 0.00 in0.0 mm 0.00 in0.0 mm
12:43 AM 47.8°F8.8°C 40.3°F4.6°C 75% 0.2 mph NE0.3 kmh NE 1.1 mph1.8 kmh 29.88 in1011.9 mb 0.00 in0.0 mm 0.00 in0.0 mm 0.00 in0.0 mm
12:44 AM 47.8°F8.8°C 40.3°F4.6°C 75% 1.1 mph NE1.8 kmh NE 1.1 mph1.8 kmh 29.88 in1011.9 mb 0.00 in0.0 mm 0.00 in0.0 mm 0.00 in0.0 mm
12:45 AM 47.8°F8.8°C 40.3°F4.6°C 75% 0.7 mph NE1.1 kmh NE 1.1 mph1.8 kmh 29.89 in1012.2 mb 0.00 in0.0 mm 0.00 in0.0 mm 0.00 in0.0 mm
12:46 AM 47.8°F8.8°C 40.3°F4.6°C 75% 0.9 mph NE1.4 kmh NE 1.1 mph1.8 kmh 29.88 in1011.9 mb 0.00 in0.0 mm 0.00 in0.0 mm 0.00 in0.0 mm
12:48 AM 47.8°F8.8°C 40.6°F4.8°C 76% 1.8 mph NE2.9 kmh NE 2.2 mph3.5 kmh 29.88 in1011.9 mb 0.00 in0.0 mm 0.00 in0.0 mm 0.00 in0.0 mm
12:50 AM 47.7°F8.7°C 40.5°F4.7°C 76% 1.1 mph NE1.8 kmh NE 1.1 mph1.8 kmh 29.88 in1011.9 mb 0.00 in0.0 mm 0.00 in0.0 mm 0.00 in0.0 mm
12:51 AM 47.7°F8.7°C 40.5°F4.7°C 76% 2.2 mph NNE3.5 kmh NNE 2.2 mph3.5 kmh 29.89 in1012.2 mb 0.00 in0.0 mm 0.00 in0.0 mm 0.00 in0.0 mm
12:52 AM 47.7°F8.7°C 40.5°F4.7°C 76% 1.1 mph NE1.8 kmh NE 1.1 mph1.8 kmh 29.88 in1011.9 mb 0.00 in0.0 mm 0.00 in0.0 mm 0.00 in0.0 mm
12:53 AM 47.5°F8.6°C 40.3°F4.6°C 76% 0.9 mph NE1.4 kmh NE 1.1 mph1.8 kmh 29.88 in1011.9 mb 0.00 in0.0 mm 0.00 in0.0 mm 0.00 in0.0 mm
12:55 AM 47.5°F8.6°C 40.3°F4.6°C 76% 0.2 mph NE0.3 kmh NE 1.1 mph1.8 kmh 29.89 in1012.2 mb 0.00 in0.0 mm 0.00 in0.0 mm 0.00 in0.0 mm
12:56 AM 47.5°F8.6°C 40.3°F4.6°C 76% Calm Calm -- 29.89 in1012.2 mb 0.00 in0.0 mm 0.00 in0.0 mm 0.00 in0.0 mm
12:57 AM 47.5°F8.6°C 40.0°F4.4°C 75% 0.2 mph NE0.3 kmh NE 1.1 mph1.8 kmh 29.88 in1011.9 mb 0.00 in0.0 mm 0.00 in0.0 mm 0.00 in0.0 mm
12:58 AM 47.7°F8.7°C 40.5°F4.7°C 76% Calm Calm -- 29.89 in1012.2 mb 0.00 in0.0 mm 0.00 in0.0 mm 0.00 in0.0 mm
12:59 AM 47.7°F8.7°C 40.2°F4.6°C 75% Calm Calm -- 29.88 in1011.9 mb 0.00 in0.0 mm 0.00 in0.0 mm 0.00 in0.0 mm
01:00 AM 47.7°F8.7°C 40.2°F4.6°C 75% Calm Calm -- 29.88 in1011.9 mb 0.00 in0.0 mm 0.00 in0.0 mm 0.00 in0.0 mm
01:01 AM 47.7°F8.7°C 39.8°F4.3°C 74% Calm Calm -- 29.88 in1011.9 mb 0.00 in0.0 mm 0.00 in0.0 mm 0.00 in0.0 mm
01:02 AM 47.7°F8.7°C 39.5°F4.2°C 73% 0.4 mph NE0.6 kmh NE 1.1 mph1.8 kmh 29.89 in1012.2 mb 0.00 in0.0 mm 0.00 in0.0 mm 0.00 in0.0 mm
01:03 AM 47.7°F8.7°C 39.1°F3.9°C 72% Calm Calm -- 29.89 in1012.2 mb 0.00 in0.0 mm 0.00 in0.0 mm 0.00 in0.0 mm
01:04 AM 47.8°F8.8°C 38.9°F3.8°C 71% Calm Calm -- 29.88 in1011.9 mb 0.00 in0.0 mm 0.00 in0.0 mm 0.00 in0.0 mm
01:05 AM 48.0°F8.9°C 38.7°F3.7°C 70% Calm Calm -- 29.88 in1011.9 mb 0.00 in0.0 mm 0.00 in0.0 mm 0.00 in0.0 mm
01:07 AM 48.4°F9.1°C 38.3°F3.5°C 68% Calm Calm -- 29.88 in1011.9 mb 0.00 in0.0 mm 0.00 in0.0 mm 0.00 in0.0 mm
01:09 AM 49.3°F9.6°C 39.2°F4.0°C 68% Calm Calm -- 29.88 in1011.9 mb 0.00 in0.0 mm 0.00 in0.0 mm 0.00 in0.0 mm
01:11 AM 49.5°F9.7°C 38.6°F3.7°C 66% 0.2 mph E0.3 kmh E 1.1 mph1.8 kmh 29.88 in1011.9 mb 0.00 in0.0 mm 0.00 in0.0 mm 0.00 in0.0 mm
01:12 AM 49.5°F9.7°C 39.0°F3.9°C 67% Calm Calm -- 29.88 in1011.9 mb 0.00 in0.0 mm 0.00 in0.0 mm 0.00 in0.0 mm
01:14 AM 49.6°F9.8°C 38.7°F3.7°C 66% Calm Calm -- 29.88 in1011.9 mb 0.00 in0.0 mm 0.00 in0.0 mm 0.00 in0.0 mm
01:15 AM 49.8°F9.9°C 38.9°F3.8°C 66% Calm Calm -- 29.88 in1011.9 mb 0.00 in0.0 mm 0.00 in0.0 mm 0.00 in0.0 mm
01:16 AM 49.8°F9.9°C 40.0°F4.4°C 69% 1.3 mph E2.1 kmh E 2.2 mph3.5 kmh 29.89 in1012.2 mb 0.00 in0.0 mm 0.00 in0.0 mm 0.00 in0.0 mm
01:17 AM 49.8°F9.9°C 39.7°F4.3°C 68% 0.9 mph E1.4 kmh E 1.1 mph1.8 kmh 29.88 in1011.9 mb 0.00 in0.0 mm 0.00 in0.0 mm 0.00 in0.0 mm
01:18 AM 49.6°F9.8°C 39.1°F3.9°C 67% 2.0 mph E3.2 kmh E 2.2 mph3.5 kmh 29.88 in1011.9 mb 0.00 in0.0 mm 0.00 in0.0 mm 0.00 in0.0 mm
01:19 AM 49.6°F9.8°C 39.1°F3.9°C 67% 0.7 mph E1.1 kmh E 1.1 mph1.8 kmh 29.88 in1011.9 mb 0.00 in0.0 mm 0.00 in0.0 mm 0.00 in0.0 mm
01:20 AM 49.6°F9.8°C 39.1°F3.9°C 67% 0.4 mph E0.6 kmh E 1.1 mph1.8 kmh 29.88 in1011.9 mb 0.00 in0.0 mm 0.00 in0.0 mm 0.00 in0.0 mm
01:21 AM 49.6°F9.8°C 40.9°F4.9°C 72% 1.3 mph E2.1 kmh E 2.2 mph3.5 kmh 29.88 in1011.9 mb 0.00 in0.0 mm 0.00 in0.0 mm 0.00 in0.0 mm
01:22 AM 49.6°F9.8°C 40.9°F4.9°C 72% Calm Calm -- 29.88 in1011.9 mb 0.00 in0.0 mm 0.00 in0.0 mm 0.00 in0.0 mm
01:23 AM 49.6°F9.8°C 40.2°F4.6°C 70% Calm Calm -- 29.88 in1011.9 mb 0.00 in0.0 mm 0.00 in0.0 mm 0.00 in0.0 mm
01:24 AM 49.5°F9.7°C 40.9°F4.9°C 72% 0.9 mph E1.4 kmh E 1.1 mph1.8 kmh 29.88 in1011.9 mb 0.00 in0.0 mm 0.00 in0.0 mm 0.00 in0.0 mm
01:25 AM 49.5°F9.7°C 40.5°F4.7°C 71% 1.1 mph E1.8 kmh E 1.1 mph1.8 kmh 29.88 in1011.9 mb 0.00 in0.0 mm 0.00 in0.0 mm 0.00 in0.0 mm
01:26 AM 49.5°F9.7°C 40.5°F4.7°C 71% 1.1 mph E1.8 kmh E 1.1 mph1.8 kmh 29.88 in1011.9 mb 0.00 in0.0 mm 0.00 in0.0 mm 0.00 in0.0 mm
01:27 AM 49.6°F9.8°C 40.9°F4.9°C 72% Calm Calm -- 29.88 in1011.9 mb 0.00 in0.0 mm 0.00 in0.0 mm 0.00 in0.0 mm
01:28 AM 49.6°F9.8°C 40.9°F4.9°C 72% Calm Calm -- 29.88 in1011.9 mb 0.00 in0.0 mm 0.00 in0.0 mm 0.00 in0.0 mm
01:29 AM 49.6°F9.8°C 40.9°F4.9°C 72% 0.7 mph E1.1 kmh E 1.1 mph1.8 kmh 29.87 in1011.5 mb 0.00 in0.0 mm 0.00 in0.0 mm 0.00 in0.0 mm
01:30 AM 49.6°F9.8°C 40.6°F4.8°C 71% 0.2 mph E0.3 kmh E 1.1 mph1.8 kmh 29.88 in1011.9 mb 0.00 in0.0 mm 0.00 in0.0 mm 0.00 in0.0 mm
01:31 AM 49.6°F9.8°C 41.3°F5.2°C 73% 1.1 mph E1.8 kmh E 1.1 mph1.8 kmh 29.87 in1011.5 mb 0.00 in0.0 mm 0.00 in0.0 mm 0.00 in0.0 mm
01:33 AM 49.8°F9.9°C 40.0°F4.4°C 69% 2.5 mph W4.0 kmh W 3.4 mph5.5 kmh 29.88 in1011.9 mb 0.00 in0.0 mm 0.00 in0.0 mm 0.00 in0.0 mm
01:34 AM 50.0°F10.0°C 40.6°F4.8°C 70% 2.2 mph NW3.5 kmh NW 2.2 mph3.5 kmh 29.88 in1011.9 mb 0.00 in0.0 mm 0.00 in0.0 mm 0.00 in0.0 mm
01:35 AM 50.4°F10.2°C 40.6°F4.8°C 69% 1.8 mph WSW2.9 kmh WSW 2.2 mph3.5 kmh 29.87 in1011.5 mb 0.00 in0.0 mm 0.00 in0.0 mm 0.00 in0.0 mm
01:36 AM 50.4°F10.2°C 40.6°F4.8°C 69% 2.0 mph W3.2 kmh W 2.2 mph3.5 kmh 29.87 in1011.5 mb 0.00 in0.0 mm 0.00 in0.0 mm 0.00 in0.0 mm
01:37 AM 50.4°F10.2°C 41.4°F5.2°C 71% 2.0 mph WNW3.2 kmh WNW 2.2 mph3.5 kmh 29.87 in1011.5 mb 0.00 in0.0 mm 0.00 in0.0 mm 0.00 in0.0 mm
01:39 AM 50.4°F10.2°C 42.4°F5.8°C 74% 1.6 mph NW2.6 kmh NW 2.2 mph3.5 kmh 29.87 in1011.5 mb 0.00 in0.0 mm 0.00 in0.0 mm 0.00 in0.0 mm
01:41 AM 50.0°F10.0°C 42.0°F5.6°C 74% 2.2 mph NNW3.5 kmh NNW 2.2 mph3.5 kmh 29.86 in1011.2 mb 0.00 in0.0 mm 0.00 in0.0 mm 0.00 in0.0 mm
01:42 AM 49.8°F9.9°C 41.9°F5.5°C 74% 1.3 mph NNW2.1 kmh NNW 2.2 mph3.5 kmh 29.86 in1011.2 mb 0.00 in0.0 mm 0.00 in0.0 mm 0.00 in0.0 mm
01:43 AM 49.8°F9.9°C 42.2°F5.7°C 75% 1.6 mph NNW2.6 kmh NNW 2.2 mph3.5 kmh 29.86 in1011.2 mb 0.00 in0.0 mm 0.00 in0.0 mm 0.00 in0.0 mm
01:44 AM 49.8°F9.9°C 42.5°F5.8°C 76% 2.9 mph NW4.7 kmh NW 3.4 mph5.5 kmh 29.86 in1011.2 mb 0.00 in0.0 mm 0.00 in0.0 mm 0.00 in0.0 mm
01:45 AM 49.6°F9.8°C 42.3°F5.7°C 76% 1.1 mph NNW1.8 kmh NNW 1.1 mph1.8 kmh 29.87 in1011.5 mb 0.00 in0.0 mm 0.00 in0.0 mm 0.00 in0.0 mm
01:46 AM 49.5°F9.7°C 42.6°F5.9°C 77% 1.3 mph NNW2.1 kmh NNW 2.2 mph3.5 kmh 29.86 in1011.2 mb 0.00 in0.0 mm 0.00 in0.0 mm 0.00 in0.0 mm
01:48 AM 49.3°F9.6°C 41.7°F5.4°C 75% 1.1 mph NNW1.8 kmh NNW 1.1 mph1.8 kmh 29.86 in1011.2 mb 0.00 in0.0 mm 0.00 in0.0 mm 0.00 in0.0 mm
01:49 AM 49.3°F9.6°C 42.7°F5.9°C 78% 0.2 mph NNW0.3 kmh NNW 1.1 mph1.8 kmh 29.86 in1011.2 mb 0.00 in0.0 mm 0.00 in0.0 mm 0.00 in0.0 mm
01:50 AM 49.3°F9.6°C 41.7°F5.4°C 75% Calm Calm -- 29.86 in1011.2 mb 0.00 in0.0 mm 0.00 in0.0 mm 0.00 in0.0 mm
01:51 AM 49.3°F9.6°C 40.7°F4.8°C 72% 3.1 mph N5.0 kmh N 3.4 mph5.5 kmh 29.86 in1011.2 mb 0.00 in0.0 mm 0.00 in0.0 mm 0.00 in0.0 mm
01:52 AM 49.3°F9.6°C 40.3°F4.6°C 71% 1.1 mph NE1.8 kmh NE 2.2 mph3.5 kmh 29.86 in1011.2 mb 0.00 in0.0 mm 0.00 in0.0 mm 0.00 in0.0 mm
01:53 AM 49.6°F9.8°C 40.6°F4.8°C 71% 2.9 mph NNW4.7 kmh NNW 3.4 mph5.5 kmh 29.86 in1011.2 mb 0.00 in0.0 mm 0.00 in0.0 mm 0.00 in0.0 mm
01:54 AM 50.0°F10.0°C 40.6°F4.8°C 70% 3.1 mph NNW5.0 kmh NNW 3.4 mph5.5 kmh 29.85 in1010.8 mb 0.00 in0.0 mm 0.00 in0.0 mm 0.00 in0.0 mm
01:55 AM 50.2°F10.1°C 40.4°F4.7°C 69% 1.3 mph ENE2.1 kmh ENE 2.2 mph3.5 kmh 29.86 in1011.2 mb 0.00 in0.0 mm 0.00 in0.0 mm 0.00 in0.0 mm
01:56 AM 50.4°F10.2°C 41.4°F5.2°C 71% 1.3 mph NE2.1 kmh NE 2.2 mph3.5 kmh 29.86 in1011.2 mb 0.00 in0.0 mm 0.00 in0.0 mm 0.00 in0.0 mm
01:57 AM 50.5°F10.3°C 40.7°F4.8°C 69% 0.7 mph NE1.1 kmh NE 1.1 mph1.8 kmh 29.86 in1011.2 mb 0.00 in0.0 mm 0.00 in0.0 mm 0.00 in0.0 mm
01:58 AM 50.5°F10.3°C 41.1°F5.1°C 70% 2.0 mph N3.2 kmh N 3.4 mph5.5 kmh 29.86 in1011.2 mb 0.00 in0.0 mm 0.00 in0.0 mm 0.00 in0.0 mm
01:59 AM 50.5°F10.3°C 40.3°F4.6°C 68% 1.8 mph NNE2.9 kmh NNE 2.2 mph3.5 kmh 29.86 in1011.2 mb 0.00 in0.0 mm 0.00 in0.0 mm 0.00 in0.0 mm
02:00 AM 50.5°F10.3°C 40.7°F4.8°C 69% 1.1 mph NNE1.8 kmh NNE 1.1 mph1.8 kmh 29.86 in1011.2 mb 0.00 in0.0 mm 0.00 in0.0 mm 0.00 in0.0 mm
02:02 AM 50.7°F10.4°C 40.5°F4.7°C 68% 2.5 mph N4.0 kmh N 3.4 mph5.5 kmh 29.85 in1010.8 mb 0.00 in0.0 mm 0.00 in0.0 mm 0.00 in0.0 mm
02:03 AM 50.7°F10.4°C 40.5°F4.7°C 68% 2.5 mph NNE4.0 kmh NNE 3.4 mph5.5 kmh 29.86 in1011.2 mb 0.00 in0.0 mm 0.00 in0.0 mm 0.00 in0.0 mm
02:04 AM 50.7°F10.4°C 41.3°F5.2°C 70% 1.8 mph NE2.9 kmh NE 2.2 mph3.5 kmh 29.85 in1010.8 mb 0.00 in0.0 mm 0.00 in0.0 mm 0.00 in0.0 mm
02:05 AM 50.9°F10.5°C 41.5°F5.3°C 70% 0.9 mph NE1.4 kmh NE 2.2 mph3.5 kmh 29.86 in1011.2 mb 0.00 in0.0 mm 0.00 in0.0 mm 0.00 in0.0 mm
02:06 AM 50.7°F10.4°C 41.3°F5.2°C 70% Calm Calm -- 29.86 in1011.2 mb 0.00 in0.0 mm 0.00 in0.0 mm 0.00 in0.0 mm
02:07 AM 50.7°F10.4°C 41.3°F5.2°C 70% 0.9 mph NE1.4 kmh NE 1.1 mph1.8 kmh 29.86 in1011.2 mb 0.00 in0.0 mm 0.00 in0.0 mm 0.00 in0.0 mm
02:08 AM 50.5°F10.3°C 41.5°F5.3°C 71% Calm Calm -- 29.86 in1011.2 mb 0.00 in0.0 mm 0.00 in0.0 mm 0.00 in0.0 mm
02:11 AM 50.5°F10.3°C 41.5°F5.3°C 71% 2.2 mph N3.5 kmh N 3.4 mph5.5 kmh 29.85 in1010.8 mb 0.00 in0.0 mm 0.00 in0.0 mm 0.00 in0.0 mm
02:12 AM 50.5°F10.3°C 40.3°F4.6°C 68% 2.9 mph NW4.7 kmh NW 3.4 mph5.5 kmh 29.85 in1010.8 mb 0.00 in0.0 mm 0.00 in0.0 mm 0.00 in0.0 mm
02:14 AM 50.9°F10.5°C 41.1°F5.1°C 69% Calm Calm -- 29.85 in1010.8 mb 0.00 in0.0 mm 0.00 in0.0 mm 0.00 in0.0 mm
02:16 AM 50.9°F10.5°C 41.1°F5.1°C 69% 1.6 mph N2.6 kmh N 2.2 mph3.5 kmh 29.86 in1011.2 mb 0.00 in0.0 mm 0.00 in0.0 mm 0.00 in0.0 mm
02:17 AM 50.9°F10.5°C 41.5°F5.3°C 70% Calm Calm -- 29.86 in1011.2 mb 0.00 in0.0 mm 0.00 in0.0 mm 0.00 in0.0 mm
02:18 AM 50.9°F10.5°C 41.1°F5.1°C 69% 1.8 mph NW2.9 kmh NW 2.2 mph3.5 kmh 29.85 in1010.8 mb 0.00 in0.0 mm 0.00 in0.0 mm 0.00 in0.0 mm
02:19 AM 50.7°F10.4°C 40.9°F4.9°C 69% 1.1 mph WSW1.8 kmh WSW 2.2 mph3.5 kmh 29.86 in1011.2 mb 0.00 in0.0 mm 0.00 in0.0 mm 0.00 in0.0 mm
02:20 AM 50.7°F10.4°C 41.3°F5.2°C 70% 0.7 mph WSW1.1 kmh WSW 1.1 mph1.8 kmh 29.86 in1011.2 mb 0.00 in0.0 mm 0.00 in0.0 mm 0.00 in0.0 mm
02:21 AM 50.7°F10.4°C 41.6°F5.3°C 71% 0.7 mph WSW1.1 kmh WSW 1.1 mph1.8 kmh 29.86 in1011.2 mb 0.00 in0.0 mm 0.00 in0.0 mm 0.00 in0.0 mm
02:22 AM 50.7°F10.4°C 41.3°F5.2°C 70% 0.9 mph WSW1.4 kmh WSW 1.1 mph1.8 kmh 29.86 in1011.2 mb 0.00 in0.0 mm 0.00 in0.0 mm 0.00 in0.0 mm
02:23 AM 50.7°F10.4°C 41.6°F5.3°C 71% 2.2 mph NNW3.5 kmh NNW 3.4 mph5.5 kmh 29.86 in1011.2 mb 0.00 in0.0 mm 0.00 in0.0 mm 0.00 in0.0 mm
02:25 AM 50.5°F10.3°C 41.8°F5.4°C 72% 1.3 mph NNE2.1 kmh NNE 2.2 mph3.5 kmh 29.86 in1011.2 mb 0.00 in0.0 mm 0.00 in0.0 mm 0.00 in0.0 mm
02:26 AM 50.5°F10.3°C 41.8°F5.4°C 72% 2.0 mph NNE3.2 kmh NNE 2.2 mph3.5 kmh 29.86 in1011.2 mb 0.00 in0.0 mm 0.00 in0.0 mm 0.00 in0.0 mm
02:27 AM 50.5°F10.3°C 42.2°F5.7°C 73% 1.6 mph NNE2.6 kmh NNE 2.2 mph3.5 kmh 29.86 in1011.2 mb 0.00 in0.0 mm 0.00 in0.0 mm 0.00 in0.0 mm
02:28 AM 50.5°F10.3°C 41.8°F5.4°C 72% 2.2 mph N3.5 kmh N 3.4 mph5.5 kmh 29.86 in1011.2 mb 0.00 in0.0 mm 0.00 in0.0 mm 0.00 in0.0 mm
02:29 AM 50.5°F10.3°C 41.5°F5.3°C 71% 1.3 mph N2.1 kmh N 2.2 mph3.5 kmh 29.86 in1011.2 mb 0.00 in0.0 mm 0.00 in0.0 mm 0.00 in0.0 mm
02:30 AM 50.7°F10.4°C 40.9°F4.9°C 69% 1.6 mph N2.6 kmh N 2.2 mph3.5 kmh 29.86 in1011.2 mb 0.00 in0.0 mm 0.00 in0.0 mm 0.00 in0.0 mm
02:31 AM 50.7°F10.4°C 41.6°F5.3°C 71% 1.3 mph N2.1 kmh N 2.2 mph3.5 kmh 29.86 in1011.2 mb 0.00 in0.0 mm 0.00 in0.0 mm 0.00 in0.0 mm
02:32 AM 50.7°F10.4°C 42.0°F5.6°C 72% 0.7 mph NNE1.1 kmh NNE 1.1 mph1.8 kmh 29.87 in1011.5 mb 0.00 in0.0 mm 0.00 in0.0 mm 0.00 in0.0 mm
02:33 AM 50.7°F10.4°C 42.0°F5.6°C 72% Calm Calm -- 29.87 in1011.5 mb 0.00 in0.0 mm 0.00 in0.0 mm 0.00 in0.0 mm
02:34 AM 50.7°F10.4°C 42.0°F5.6°C 72% Calm Calm -- 29.87 in1011.5 mb 0.00 in0.0 mm 0.00 in0.0 mm 0.00 in0.0 mm
02:35 AM 50.5°F10.3°C 41.8°F5.4°C 72% Calm Calm -- 29.87 in1011.5 mb 0.00 in0.0 mm 0.00 in0.0 mm 0.00 in0.0 mm
02:36 AM 50.5°F10.3°C 42.5°F5.8°C 74% Calm Calm -- 29.88 in1011.9 mb 0.00 in0.0 mm 0.00 in0.0 mm 0.00 in0.0 mm
02:37 AM 50.5°F10.3°C 42.9°F6.1°C 75% Calm Calm -- 29.87 in1011.5 mb 0.00 in0.0 mm 0.00 in0.0 mm 0.00 in0.0 mm
02:38 AM 50.4°F10.2°C 42.1°F5.6°C 73% 0.2 mph NNE0.3 kmh NNE 1.1 mph1.8 kmh 29.88 in1011.9 mb 0.00 in0.0 mm 0.00 in0.0 mm 0.00 in0.0 mm
02:39 AM 50.2°F10.1°C 42.6°F5.9°C 75% Calm Calm -- 29.87 in1011.5 mb 0.00 in0.0 mm 0.00 in0.0 mm 0.00 in0.0 mm
02:40 AM 50.2°F10.1°C 42.6°F5.9°C 75% Calm Calm -- 29.88 in1011.9 mb 0.00 in0.0 mm 0.00 in0.0 mm 0.00 in0.0 mm
02:41 AM 50.2°F10.1°C 41.9°F5.5°C 73% 0.7 mph NNE1.1 kmh NNE 1.1 mph1.8 kmh 29.88 in1011.9 mb 0.00 in0.0 mm 0.00 in0.0 mm 0.00 in0.0 mm
02:44 AM 50.0°F10.0°C 42.7°F5.9°C 76% Calm Calm -- 29.88 in1011.9 mb 0.07 in1.8 mm 1.40 in35.6 mm 0.01 in0.3 mm
02:45 AM 50.0°F10.0°C 42.7°F5.9°C 76% 1.8 mph NNE2.9 kmh NNE 2.2 mph3.5 kmh 29.87 in1011.5 mb 0.07 in1.8 mm 0.00 in0.0 mm 0.01 in0.3 mm
02:46 AM 50.0°F10.0°C 43.1°F6.2°C 77% 1.3 mph N2.1 kmh N 2.2 mph3.5 kmh 29.88 in1011.9 mb 0.07 in1.8 mm 0.00 in0.0 mm 0.01 in0.3 mm
02:47 AM 49.8°F9.9°C 43.2°F6.2°C 78% 2.5 mph NNW4.0 kmh NNW 3.4 mph5.5 kmh 29.88 in1011.9 mb 0.07 in1.8 mm 0.00 in0.0 mm 0.01 in0.3 mm
02:48 AM 49.6°F9.8°C 43.7°F6.5°C 80% 0.7 mph NNE1.1 kmh NNE 1.1 mph1.8 kmh 29.87 in1011.5 mb 0.07 in1.8 mm 0.00 in0.0 mm 0.01 in0.3 mm
02:49 AM 49.5°F9.7°C 44.2°F6.8°C 82% 2.5 mph W4.0 kmh W 3.4 mph5.5 kmh 29.88 in1011.9 mb 0.07 in1.8 mm 0.00 in0.0 mm 0.01 in0.3 mm
02:50 AM 49.3°F9.6°C 44.7°F7.1°C 84% 2.5 mph W4.0 kmh W 3.4 mph5.5 kmh 29.88 in1011.9 mb 0.12 in3.0 mm 3.00 in76.2 mm 0.02 in0.5 mm
02:52 AM 48.7°F9.3°C 44.4°F6.9°C 85% 1.1 mph W1.8 kmh W 1.1 mph1.8 kmh 29.87 in1011.5 mb 0.12 in3.0 mm 0.00 in0.0 mm 0.02 in0.5 mm
02:53 AM 48.4°F9.1°C 43.5°F6.4°C 83% 1.6 mph WSW2.6 kmh WSW 2.2 mph3.5 kmh 29.88 in1011.9 mb 0.05 in1.3 mm 0.00 in0.0 mm 0.02 in0.5 mm
02:55 AM 48.6°F9.2°C 42.4°F5.8°C 79% 4.0 mph SW6.4 kmh SW 4.5 mph7.2 kmh 29.88 in1011.9 mb 0.12 in3.0 mm 2.10 in53.3 mm 0.03 in0.8 mm
02:56 AM 48.7°F9.3°C 42.8°F6.0°C 80% 2.2 mph SW3.5 kmh SW 3.4 mph5.5 kmh 29.87 in1011.5 mb 0.12 in3.0 mm 0.00 in0.0 mm 0.03 in0.8 mm
02:57 AM 48.9°F9.4°C 43.3°F6.3°C 81% 3.8 mph WSW6.1 kmh WSW 5.8 mph9.3 kmh 29.88 in1011.9 mb 0.12 in3.0 mm 0.00 in0.0 mm 0.03 in0.8 mm
02:58 AM 48.9°F9.4°C 43.3°F6.3°C 81% 2.5 mph SW4.0 kmh SW 3.4 mph5.5 kmh 29.88 in1011.9 mb 0.17 in4.3 mm 3.00 in76.2 mm 0.04 in1.0 mm
02:59 AM 48.9°F9.4°C 43.3°F6.3°C 81% 2.2 mph WSW3.5 kmh WSW 3.4 mph5.5 kmh 29.89 in1012.2 mb 0.12 in3.0 mm 0.00 in0.0 mm 0.04 in1.0 mm
03:01 AM 48.7°F9.3°C 43.8°F6.6°C 83% Calm Calm -- 29.88 in1011.9 mb 0.19 in4.8 mm 0.07 in1.8 mm 0.05 in1.3 mm
03:02 AM 48.7°F9.3°C 44.1°F6.7°C 84% 0.2 mph NE0.3 kmh NE 1.1 mph1.8 kmh 29.89 in1012.2 mb 0.19 in4.8 mm 0.00 in0.0 mm 0.05 in1.3 mm
03:03 AM 48.7°F9.3°C 44.4°F6.9°C 85% 1.1 mph ENE1.8 kmh ENE 1.1 mph1.8 kmh 29.88 in1011.9 mb 0.24 in6.1 mm 3.00 in76.2 mm 0.06 in1.5 mm
03:04 AM 48.6°F9.2°C 44.6°F7.0°C 86% 1.8 mph ENE2.9 kmh ENE 2.2 mph3.5 kmh 29.89 in1012.2 mb 0.24 in6.1 mm 0.00 in0.0 mm 0.06 in1.5 mm
03:05 AM 48.4°F9.1°C 45.0°F7.2°C 88% 1.1 mph E1.8 kmh E 1.1 mph1.8 kmh 29.89 in1012.2 mb 0.24 in6.1 mm 0.00 in0.0 mm 0.07 in1.8 mm
03:06 AM 48.0°F8.9°C 44.6°F7.0°C 88% Calm Calm -- 29.88 in1011.9 mb 0.24 in6.1 mm 0.00 in0.0 mm 0.07 in1.8 mm
03:07 AM 47.8°F8.8°C 44.4°F6.9°C 88% Calm Calm -- 29.88 in1011.9 mb 0.24 in6.1 mm 0.00 in0.0 mm 0.08 in2.0 mm
03:08 AM 47.7°F8.7°C 44.3°F6.8°C 88% Calm Calm -- 29.89 in1012.2 mb 0.24 in6.1 mm 0.00 in0.0 mm 0.08 in2.0 mm
03:09 AM 47.7°F8.7°C 44.6°F7.0°C 89% Calm Calm -- 29.89 in1012.2 mb 0.31 in7.9 mm 4.20 in106.7 mm 0.09 in2.3 mm
03:11 AM 47.7°F8.7°C 44.9°F7.2°C 90% Calm Calm -- 29.89 in1012.2 mb 0.35 in8.9 mm 1.20 in30.5 mm 0.10 in2.5 mm
03:12 AM 47.5°F8.6°C 44.7°F7.1°C 90% 0.2 mph E0.3 kmh E 1.1 mph1.8 kmh 29.89 in1012.2 mb 0.35 in8.9 mm 0.00 in0.0 mm 0.11 in2.8 mm
03:13 AM 47.5°F8.6°C 45.0°F7.2°C 91% 0.2 mph E0.3 kmh E 1.1 mph1.8 kmh 29.89 in1012.2 mb 0.31 in7.9 mm 0.00 in0.0 mm 0.11 in2.8 mm
03:14 AM 47.3°F8.5°C 44.5°F6.9°C 90% Calm Calm -- 29.89 in1012.2 mb 0.31 in7.9 mm 0.00 in0.0 mm 0.11 in2.8 mm
03:15 AM 47.3°F8.5°C 44.5°F6.9°C 90% Calm Calm -- 29.89 in1012.2 mb 0.28 in7.1 mm 0.00 in0.0 mm 0.12 in3.0 mm
03:16 AM 47.3°F8.5°C 44.5°F6.9°C 90% Calm Calm -- 29.89 in1012.2 mb 0.28 in7.1 mm 0.00 in0.0 mm 0.12 in3.0 mm
03:18 AM 47.3°F8.5°C 44.5°F6.9°C 90% 1.3 mph E2.1 kmh E 2.2 mph3.5 kmh 29.89 in1012.2 mb 0.24 in6.1 mm 0.00 in0.0 mm 0.12 in3.0 mm
03:19 AM 47.3°F8.5°C 44.5°F6.9°C 90% 1.1 mph SE1.8 kmh SE 1.1 mph1.8 kmh 29.89 in1012.2 mb 0.12 in3.0 mm 0.00 in0.0 mm 0.12 in3.0 mm
03:20 AM 47.3°F8.5°C 44.5°F6.9°C 90% 2.2 mph NE3.5 kmh NE 2.2 mph3.5 kmh 29.90 in1012.5 mb 0.12 in3.0 mm 0.00 in0.0 mm 0.12 in3.0 mm
03:21 AM 47.3°F8.5°C 44.5°F6.9°C 90% 4.0 mph NW6.4 kmh NW 4.5 mph7.2 kmh 29.90 in1012.5 mb 0.19 in4.8 mm 4.20 in106.7 mm 0.13 in3.3 mm
03:23 AM 47.5°F8.6°C 44.4°F6.9°C 89% 3.4 mph NNW5.5 kmh NNW 4.5 mph7.2 kmh 29.89 in1012.2 mb 0.12 in3.0 mm 0.00 in0.0 mm 0.13 in3.3 mm
03:24 AM 47.5°F8.6°C 44.4°F6.9°C 89% 4.0 mph NW6.4 kmh NW 4.5 mph7.2 kmh 29.89 in1012.2 mb 0.12 in3.0 mm 0.00 in0.0 mm 0.13 in3.3 mm
03:25 AM 47.5°F8.6°C 44.1°F6.7°C 88% 3.6 mph NW5.8 kmh NW 4.5 mph7.2 kmh 29.89 in1012.2 mb 0.12 in3.0 mm 0.00 in0.0 mm 0.13 in3.3 mm
03:26 AM 47.7°F8.7°C 44.6°F7.0°C 89% 2.9 mph NNW4.7 kmh NNW 3.4 mph5.5 kmh 29.89 in1012.2 mb 0.14 in3.6 mm 1.20 in30.5 mm 0.14 in3.6 mm
03:27 AM 47.7°F8.7°C 44.6°F7.0°C 89% 2.7 mph NNW4.3 kmh NNW 3.4 mph5.5 kmh 29.89 in1012.2 mb 0.14 in3.6 mm 0.00 in0.0 mm 0.14 in3.6 mm
03:28 AM 47.7°F8.7°C 44.9°F7.2°C 90% 1.8 mph N2.9 kmh N 2.2 mph3.5 kmh 29.89 in1012.2 mb 0.14 in3.6 mm 0.00 in0.0 mm 0.14 in3.6 mm
03:29 AM 47.5°F8.6°C 44.7°F7.1°C 90% 0.2 mph N0.3 kmh N 1.1 mph1.8 kmh 29.88 in1011.9 mb 0.14 in3.6 mm 0.00 in0.0 mm 0.14 in3.6 mm
03:30 AM 47.5°F8.6°C 45.0°F7.2°C 91% 0.4 mph N0.6 kmh N 1.1 mph1.8 kmh 29.88 in1011.9 mb 0.14 in3.6 mm 0.00 in0.0 mm 0.14 in3.6 mm
03:31 AM 47.5°F8.6°C 45.0°F7.2°C 91% 0.9 mph NNE1.4 kmh NNE 2.2 mph3.5 kmh 29.89 in1012.2 mb 0.12 in3.0 mm 0.00 in0.0 mm 0.15 in3.8 mm
03:32 AM 47.3°F8.5°C 44.8°F7.1°C 91% 1.3 mph NE2.1 kmh NE 2.2 mph3.5 kmh 29.89 in1012.2 mb 0.12 in3.0 mm 0.00 in0.0 mm 0.15 in3.8 mm
03:33 AM 47.3°F8.5°C 45.1°F7.3°C 92% 1.8 mph NE2.9 kmh NE 2.2 mph3.5 kmh 29.88 in1011.9 mb 0.12 in3.0 mm 0.00 in0.0 mm 0.15 in3.8 mm
03:34 AM 47.3°F8.5°C 45.1°F7.3°C 92% 0.9 mph E1.4 kmh E 1.1 mph1.8 kmh 29.88 in1011.9 mb 0.12 in3.0 mm 0.00 in0.0 mm 0.15 in3.8 mm
03:35 AM 47.1°F8.4°C 44.9°F7.2°C 92% 1.6 mph W2.6 kmh W 2.2 mph3.5 kmh 29.88 in1011.9 mb 0.12 in3.0 mm 0.00 in0.0 mm 0.16 in4.1 mm
03:36 AM 47.1°F8.4°C 44.9°F7.2°C 92% 2.5 mph NNW4.0 kmh NNW 3.4 mph5.5 kmh 29.88 in1011.9 mb 0.12 in3.0 mm 0.00 in0.0 mm 0.16 in4.1 mm
03:38 AM 47.1°F8.4°C 44.6°F7.0°C 91% 1.8 mph WNW2.9 kmh WNW 2.2 mph3.5 kmh 29.88 in1011.9 mb 0.12 in3.0 mm 0.00 in0.0 mm 0.16 in4.1 mm
03:39 AM 47.3°F8.5°C 44.8°F7.1°C 91% 1.3 mph NW2.1 kmh NW 2.2 mph3.5 kmh 29.88 in1011.9 mb 0.17 in4.3 mm 3.00 in76.2 mm 0.17 in4.3 mm
03:40 AM 47.3°F8.5°C 45.1°F7.3°C 92% 0.9 mph NW1.4 kmh NW 1.1 mph1.8 kmh 29.87 in1011.5 mb 0.17 in4.3 mm 0.00 in0.0 mm 0.17 in4.3 mm
03:42 AM 47.3°F8.5°C 45.1°F7.3°C 92% 1.3 mph WNW2.1 kmh WNW 2.2 mph3.5 kmh 29.87 in1011.5 mb 0.12 in3.0 mm 0.00 in0.0 mm 0.17 in4.3 mm
03:43 AM 46.9°F8.3°C 44.7°F7.1°C 92% 1.6 mph WSW2.6 kmh WSW 2.2 mph3.5 kmh 29.87 in1011.5 mb 0.19 in4.8 mm 4.20 in106.7 mm 0.18 in4.6 mm
03:45 AM 46.9°F8.3°C 44.7°F7.1°C 92% 0.7 mph SW1.1 kmh SW 1.1 mph1.8 kmh 29.88 in1011.9 mb 0.17 in4.3 mm 0.00 in0.0 mm 0.19 in4.8 mm
03:46 AM 46.9°F8.3°C 44.7°F7.1°C 92% 0.7 mph SW1.1 kmh SW 1.1 mph1.8 kmh 29.88 in1011.9 mb 0.17 in4.3 mm 0.00 in0.0 mm 0.19 in4.8 mm
03:47 AM 46.9°F8.3°C 44.7°F7.1°C 92% 1.8 mph WSW2.9 kmh WSW 2.2 mph3.5 kmh 29.88 in1011.9 mb 0.17 in4.3 mm 0.00 in0.0 mm 0.19 in4.8 mm
03:48 AM 46.9°F8.3°C 44.7°F7.1°C 92% Calm Calm -- 29.89 in1012.2 mb 0.17 in4.3 mm 0.00 in0.0 mm 0.19 in4.8 mm
03:49 AM 46.9°F8.3°C 45.0°F7.2°C 93% Calm Calm -- 29.88 in1011.9 mb 0.19 in4.8 mm 1.20 in30.5 mm 0.20 in5.1 mm
03:50 AM 47.1°F8.4°C 45.2°F7.3°C 93% Calm Calm -- 29.88 in1011.9 mb 0.19 in4.8 mm 0.00 in0.0 mm 0.20 in5.1 mm
03:51 AM 47.1°F8.4°C 45.2°F7.3°C 93% Calm Calm -- 29.87 in1011.5 mb 0.12 in3.0 mm 0.00 in0.0 mm 0.20 in5.1 mm
03:52 AM 46.9°F8.3°C 45.0°F7.2°C 93% 0.9 mph W1.4 kmh W 1.1 mph1.8 kmh 29.88 in1011.9 mb 0.17 in4.3 mm 3.00 in76.2 mm 0.21 in5.3 mm
03:53 AM 46.9°F8.3°C 44.7°F7.1°C 92% Calm Calm -- 29.87 in1011.5 mb 0.17 in4.3 mm 0.00 in0.0 mm 0.21 in5.3 mm
03:54 AM 46.9°F8.3°C 45.0°F7.2°C 93% 0.9 mph WNW1.4 kmh WNW 1.1 mph1.8 kmh 29.88 in1011.9 mb 0.17 in4.3 mm 0.00 in0.0 mm 0.21 in5.3 mm
03:56 AM 46.9°F8.3°C 45.0°F7.2°C 93% 0.9 mph ENE1.4 kmh ENE 1.1 mph1.8 kmh 29.88 in1011.9 mb 0.19 in4.8 mm 0.60 in15.2 mm 0.22 in5.6 mm
03:57 AM 46.9°F8.3°C 45.0°F7.2°C 93% Calm Calm -- 29.88 in1011.9 mb 0.19 in4.8 mm 0.00 in0.0 mm 0.22 in5.6 mm
03:59 AM 46.9°F8.3°C 45.3°F7.4°C 94% Calm Calm -- 29.87 in1011.5 mb 0.17 in4.3 mm 0.00 in0.0 mm 0.23 in5.8 mm
04:00 AM 46.8°F8.2°C 45.2°F7.3°C 94% Calm Calm -- 29.88 in1011.9 mb 0.17 in4.3 mm 0.00 in0.0 mm 0.23 in5.8 mm
04:02 AM 46.8°F8.2°C 45.2°F7.3°C 94% 2.0 mph NE3.2 kmh NE 2.2 mph3.5 kmh 29.87 in1011.5 mb 0.19 in4.8 mm 0.60 in15.2 mm 0.24 in6.1 mm
04:03 AM 46.8°F8.2°C 45.2°F7.3°C 94% 1.3 mph ENE2.1 kmh ENE 2.2 mph3.5 kmh 29.86 in1011.2 mb 0.19 in4.8 mm 0.00 in0.0 mm 0.24 in6.1 mm
04:05 AM 46.8°F8.2°C 44.9°F7.2°C 93% 1.8 mph WNW2.9 kmh WNW 2.2 mph3.5 kmh 29.87 in1011.5 mb 0.19 in4.8 mm 0.00 in0.0 mm 0.25 in6.4 mm
04:06 AM 46.8°F8.2°C 45.2°F7.3°C 94% 0.7 mph WNW1.1 kmh WNW 1.1 mph1.8 kmh 29.87 in1011.5 mb 0.19 in4.8 mm 0.00 in0.0 mm 0.25 in6.4 mm
04:07 AM 46.9°F8.3°C 45.3°F7.4°C 94% Calm Calm -- 29.87 in1011.5 mb 0.14 in3.6 mm 0.00 in0.0 mm 0.25 in6.4 mm
04:08 AM 46.9°F8.3°C 45.3°F7.4°C 94% 0.7 mph WNW1.1 kmh WNW 1.1 mph1.8 kmh 29.87 in1011.5 mb 0.19 in4.8 mm 3.00 in76.2 mm 0.26 in6.6 mm
04:09 AM 46.9°F8.3°C 45.3°F7.4°C 94% 0.2 mph NW0.3 kmh NW 1.1 mph1.8 kmh 29.87 in1011.5 mb 0.19 in4.8 mm 0.00 in0.0 mm 0.26 in6.6 mm
04:10 AM 46.9°F8.3°C 45.3°F7.4°C 94% 0.2 mph NW0.3 kmh NW 1.1 mph1.8 kmh 29.87 in1011.5 mb 0.19 in4.8 mm 0.00 in0.0 mm 0.26 in6.6 mm
04:11 AM 46.8°F8.2°C 45.2°F7.3°C 94% Calm Calm -- 29.88 in1011.9 mb 0.19 in4.8 mm 0.00 in0.0 mm 0.27 in6.9 mm
04:12 AM 46.8°F8.2°C 45.2°F7.3°C 94% Calm Calm -- 29.87 in1011.5 mb 0.19 in4.8 mm 0.00 in0.0 mm 0.27 in6.9 mm
04:13 AM 46.8°F8.2°C 45.2°F7.3°C 94% 0.2 mph NW0.3 kmh NW 1.1 mph1.8 kmh 29.87 in1011.5 mb 0.24 in6.1 mm 3.00 in76.2 mm 0.28 in7.1 mm
04:14 AM 46.8°F8.2°C 45.2°F7.3°C 94% 0.7 mph NW1.1 kmh NW 1.1 mph1.8 kmh 29.87 in1011.5 mb 0.24 in6.1 mm 0.00 in0.0 mm 0.28 in7.1 mm
04:15 AM 46.8°F8.2°C 45.2°F7.3°C 94% 0.4 mph NW0.6 kmh NW 1.1 mph1.8 kmh 29.87 in1011.5 mb 0.17 in4.3 mm 0.00 in0.0 mm 0.28 in7.1 mm
04:16 AM 46.8°F8.2°C 45.2°F7.3°C 94% 0.7 mph NW1.1 kmh NW 1.1 mph1.8 kmh 29.88 in1011.9 mb 0.24 in6.1 mm 4.20 in106.7 mm 0.29 in7.4 mm
04:17 AM 46.8°F8.2°C 45.2°F7.3°C 94% 2.0 mph NW3.2 kmh NW 2.2 mph3.5 kmh 29.88 in1011.9 mb 0.24 in6.1 mm 0.00 in0.0 mm 0.29 in7.4 mm
04:18 AM 46.8°F8.2°C 44.9°F7.2°C 93% 0.4 mph NW0.6 kmh NW 1.1 mph1.8 kmh 29.87 in1011.5 mb 0.19 in4.8 mm 0.00 in0.0 mm 0.29 in7.4 mm
04:19 AM 46.8°F8.2°C 44.9°F7.2°C 93% 2.2 mph NW3.5 kmh NW 2.2 mph3.5 kmh 29.87 in1011.5 mb 0.24 in6.1 mm 3.00 in76.2 mm 0.30 in7.6 mm
04:20 AM 46.8°F8.2°C 44.9°F7.2°C 93% 1.3 mph WNW2.1 kmh WNW 2.2 mph3.5 kmh 29.87 in1011.5 mb 0.24 in6.1 mm 0.00 in0.0 mm 0.30 in7.6 mm
04:21 AM 46.8°F8.2°C 45.2°F7.3°C 94% 0.9 mph WNW1.4 kmh WNW 1.1 mph1.8 kmh 29.88 in1011.9 mb 0.17 in4.3 mm 0.00 in0.0 mm 0.30 in7.6 mm
04:22 AM 46.8°F8.2°C 45.2°F7.3°C 94% 1.1 mph NW1.8 kmh NW 1.1 mph1.8 kmh 29.87 in1011.5 mb 0.17 in4.3 mm 0.00 in0.0 mm 0.30 in7.6 mm
04:23 AM 46.8°F8.2°C 45.2°F7.3°C 94% 1.3 mph WNW2.1 kmh WNW 2.2 mph3.5 kmh 29.87 in1011.5 mb 0.19 in4.8 mm 1.20 in30.5 mm 0.31 in7.9 mm
04:25 AM 46.8°F8.2°C 45.2°F7.3°C 94% 2.2 mph WSW3.5 kmh WSW 3.4 mph5.5 kmh 29.88 in1011.9 mb 0.19 in4.8 mm 0.00 in0.0 mm 0.31 in7.9 mm
04:26 AM 46.8°F8.2°C 45.2°F7.3°C 94% 2.2 mph WSW3.5 kmh WSW 2.2 mph3.5 kmh 29.87 in1011.5 mb 0.17 in4.3 mm 0.00 in0.0 mm 0.32 in8.1 mm
04:27 AM 46.6°F8.1°C 45.0°F7.2°C 94% 0.7 mph NW1.1 kmh NW 1.1 mph1.8 kmh 29.88 in1011.9 mb 0.17 in4.3 mm 0.00 in0.0 mm 0.32 in8.1 mm
04:28 AM 46.8°F8.2°C 45.2°F7.3°C 94% 0.7 mph NW1.1 kmh NW 1.1 mph1.8 kmh 29.88 in1011.9 mb 0.17 in4.3 mm 0.00 in0.0 mm 0.32 in8.1 mm
04:29 AM 46.8°F8.2°C 45.2°F7.3°C 94% 0.9 mph NW1.4 kmh NW 1.1 mph1.8 kmh 29.87 in1011.5 mb 0.24 in6.1 mm 4.20 in106.7 mm 0.33 in8.4 mm
04:30 AM 46.8°F8.2°C 45.2°F7.3°C 94% 1.3 mph NW2.1 kmh NW 2.2 mph3.5 kmh 29.86 in1011.2 mb 0.19 in4.8 mm 0.00 in0.0 mm 0.33 in8.4 mm
04:31 AM 46.8°F8.2°C 45.2°F7.3°C 94% 2.2 mph N3.5 kmh N 2.2 mph3.5 kmh 29.87 in1011.5 mb 0.19 in4.8 mm 0.00 in0.0 mm 0.33 in8.4 mm
04:32 AM 46.8°F8.2°C 45.2°F7.3°C 94% 2.7 mph N4.3 kmh N 3.4 mph5.5 kmh 29.87 in1011.5 mb 0.19 in4.8 mm 0.00 in0.0 mm 0.33 in8.4 mm
04:33 AM 46.9°F8.3°C 45.3°F7.4°C 94% 2.5 mph N4.0 kmh N 3.4 mph5.5 kmh 29.87 in1011.5 mb 0.17 in4.3 mm 0.00 in0.0 mm 0.34 in8.6 mm
04:34 AM 46.9°F8.3°C 45.3°F7.4°C 94% 2.2 mph N3.5 kmh N 2.2 mph3.5 kmh 29.86 in1011.2 mb 0.17 in4.3 mm 0.00 in0.0 mm 0.34 in8.6 mm
04:35 AM 46.9°F8.3°C 45.3°F7.4°C 94% 2.2 mph N3.5 kmh N 2.2 mph3.5 kmh 29.86 in1011.2 mb 0.12 in3.0 mm 0.00 in0.0 mm 0.34 in8.6 mm
04:36 AM 46.9°F8.3°C 45.3°F7.4°C 94% 1.6 mph NNW2.6 kmh NNW 2.2 mph3.5 kmh 29.87 in1011.5 mb 0.19 in4.8 mm 4.20 in106.7 mm 0.35 in8.9 mm
04:37 AM 46.9°F8.3°C 45.3°F7.4°C 94% 1.8 mph N2.9 kmh N 2.2 mph3.5 kmh 29.87 in1011.5 mb 0.19 in4.8 mm 0.00 in0.0 mm 0.35 in8.9 mm
04:38 AM 46.8°F8.2°C 45.2°F7.3°C 94% 1.1 mph NNE1.8 kmh NNE 1.1 mph1.8 kmh 29.86 in1011.2 mb 0.19 in4.8 mm 0.00 in0.0 mm 0.35 in8.9 mm
04:39 AM 46.8°F8.2°C 45.2°F7.3°C 94% 1.8 mph NNE2.9 kmh NNE 2.2 mph3.5 kmh 29.87 in1011.5 mb 0.17 in4.3 mm 0.00 in0.0 mm 0.36 in9.1 mm
04:40 AM 46.8°F8.2°C 45.2°F7.3°C 94% 2.2 mph NNE3.5 kmh NNE 2.2 mph3.5 kmh 29.86 in1011.2 mb 0.17 in4.3 mm 0.00 in0.0 mm 0.36 in9.1 mm
04:41 AM 46.9°F8.3°C 45.3°F7.4°C 94% 0.2 mph NE0.3 kmh NE 1.1 mph1.8 kmh 29.87 in1011.5 mb 0.17 in4.3 mm 0.00 in0.0 mm 0.36 in9.1 mm
04:42 AM 46.8°F8.2°C 45.4°F7.4°C 95% 0.2 mph NE0.3 kmh NE 1.1 mph1.8 kmh 29.86 in1011.2 mb 0.24 in6.1 mm 4.20 in106.7 mm 0.37 in9.4 mm
04:43 AM 46.8°F8.2°C 45.4°F7.4°C 95% 0.9 mph NE1.4 kmh NE 1.1 mph1.8 kmh 29.87 in1011.5 mb 0.19 in4.8 mm 0.00 in0.0 mm 0.37 in9.4 mm
04:44 AM 46.8°F8.2°C 45.4°F7.4°C 95% Calm Calm -- 29.87 in1011.5 mb 0.19 in4.8 mm 0.00 in0.0 mm 0.37 in9.4 mm
04:45 AM 46.8°F8.2°C 45.4°F7.4°C 95% 0.9 mph NE1.4 kmh NE 1.1 mph1.8 kmh 29.87 in1011.5 mb 0.19 in4.8 mm 0.00 in0.0 mm 0.37 in9.4 mm
04:46 AM 46.8°F8.2°C 45.2°F7.3°C 94% 0.7 mph NE1.1 kmh NE 1.1 mph1.8 kmh 29.87 in1011.5 mb 0.19 in4.8 mm 0.00 in0.0 mm 0.38 in9.7 mm
04:47 AM 46.8°F8.2°C 45.2°F7.3°C 94% 0.2 mph NE0.3 kmh NE 1.1 mph1.8 kmh 29.86 in1011.2 mb 0.19 in4.8 mm 0.00 in0.0 mm 0.38 in9.7 mm
04:48 AM 46.8°F8.2°C 45.2°F7.3°C 94% 0.7 mph ENE1.1 kmh ENE 1.1 mph1.8 kmh 29.86 in1011.2 mb 0.19 in4.8 mm 0.00 in0.0 mm 0.38 in9.7 mm
04:49 AM 46.8°F8.2°C 45.4°F7.4°C 95% 1.1 mph ENE1.8 kmh ENE 1.1 mph1.8 kmh 29.86 in1011.2 mb 0.19 in4.8 mm 0.00 in0.0 mm 0.39 in9.9 mm
04:50 AM 46.8°F8.2°C 45.4°F7.4°C 95% Calm Calm -- 29.86 in1011.2 mb 0.19 in4.8 mm 0.00 in0.0 mm 0.39 in9.9 mm
04:51 AM 46.6°F8.1°C 45.2°F7.3°C 95% Calm Calm -- 29.86 in1011.2 mb 0.12 in3.0 mm 0.00 in0.0 mm 0.39 in9.9 mm
04:52 AM 46.6°F8.1°C 45.2°F7.3°C 95% Calm Calm -- 29.86 in1011.2 mb 0.12 in3.0 mm 0.00 in0.0 mm 0.39 in9.9 mm
04:54 AM 46.6°F8.1°C 45.2°F7.3°C 95% Calm Calm -- 29.86 in1011.2 mb 0.19 in4.8 mm 2.10 in53.3 mm 0.40 in10.2 mm
04:55 AM 46.6°F8.1°C 45.2°F7.3°C 95% 0.2 mph ENE0.3 kmh ENE 1.1 mph1.8 kmh 29.86 in1011.2 mb 0.17 in4.3 mm 0.00 in0.0 mm 0.41 in10.4 mm
04:56 AM 46.4°F8.0°C 45.0°F7.2°C 95% Calm Calm -- 29.86 in1011.2 mb 0.17 in4.3 mm 0.00 in0.0 mm 0.41 in10.4 mm
04:57 AM 46.4°F8.0°C 45.0°F7.2°C 95% 2.2 mph NE3.5 kmh NE 2.2 mph3.5 kmh 29.86 in1011.2 mb 0.17 in4.3 mm 0.00 in0.0 mm 0.41 in10.4 mm
04:58 AM 46.4°F8.0°C 45.0°F7.2°C 95% 2.2 mph NE3.5 kmh NE 2.2 mph3.5 kmh 29.86 in1011.2 mb 0.17 in4.3 mm 0.00 in0.0 mm 0.41 in10.4 mm
04:59 AM 46.4°F8.0°C 45.0°F7.2°C 95% 1.3 mph NE2.1 kmh NE 2.2 mph3.5 kmh 29.85 in1010.8 mb 0.19 in4.8 mm 1.20 in30.5 mm 0.42 in10.7 mm
05:00 AM 46.4°F8.0°C 45.0°F7.2°C 95% 1.3 mph NE2.1 kmh NE 2.2 mph3.5 kmh 29.85 in1010.8 mb 0.19 in4.8 mm 0.00 in0.0 mm 0.42 in10.7 mm
05:01 AM 46.4°F8.0°C 45.0°F7.2°C 95% 1.8 mph NE2.9 kmh NE 2.2 mph3.5 kmh 29.85 in1010.8 mb 0.19 in4.8 mm 0.00 in0.0 mm 0.42 in10.7 mm
05:02 AM 46.6°F8.1°C 45.2°F7.3°C 95% 1.3 mph NNE2.1 kmh NNE 2.2 mph3.5 kmh 29.85 in1010.8 mb 0.19 in4.8 mm 0.00 in0.0 mm 0.42 in10.7 mm
05:03 AM 46.8°F8.2°C 45.4°F7.4°C 95% 1.1 mph NNE1.8 kmh NNE 1.1 mph1.8 kmh 29.85 in1010.8 mb 0.17 in4.3 mm 0.00 in0.0 mm 0.43 in10.9 mm
05:04 AM 46.8°F8.2°C 45.4°F7.4°C 95% 1.6 mph NNE2.6 kmh NNE 2.2 mph3.5 kmh 29.84 in1010.5 mb 0.17 in4.3 mm 0.00 in0.0 mm 0.43 in10.9 mm
05:06 AM 46.8°F8.2°C 45.4°F7.4°C 95% Calm Calm -- 29.84 in1010.5 mb 0.12 in3.0 mm 0.00 in0.0 mm 0.43 in10.9 mm
05:07 AM 46.8°F8.2°C 45.4°F7.4°C 95% 1.8 mph NNE2.9 kmh NNE 2.2 mph3.5 kmh 29.85 in1010.8 mb 0.12 in3.0 mm 0.00 in0.0 mm 0.43 in10.9 mm
05:08 AM 46.8°F8.2°C 45.4°F7.4°C 95% 1.8 mph NNE2.9 kmh NNE 2.2 mph3.5 kmh 29.83 in1010.2 mb 0.12 in3.0 mm 0.00 in0.0 mm 0.43 in10.9 mm
05:09 AM 46.8°F8.2°C 45.4°F7.4°C 95% 2.2 mph N3.5 kmh N 2.2 mph3.5 kmh 29.85 in1010.8 mb 0.12 in3.0 mm 0.00 in0.0 mm 0.43 in10.9 mm
05:10 AM 46.8°F8.2°C 45.4°F7.4°C 95% 2.2 mph N3.5 kmh N 2.2 mph3.5 kmh 29.84 in1010.5 mb 0.05 in1.3 mm 0.00 in0.0 mm 0.43 in10.9 mm
05:11 AM 46.8°F8.2°C 45.4°F7.4°C 95% 2.2 mph N3.5 kmh N 2.2 mph3.5 kmh 29.84 in1010.5 mb 0.05 in1.3 mm 0.00 in0.0 mm 0.43 in10.9 mm
05:12 AM 46.8°F8.2°C 45.4°F7.4°C 95% 2.2 mph N3.5 kmh N 2.2 mph3.5 kmh 29.84 in1010.5 mb 0.05 in1.3 mm 0.00 in0.0 mm 0.43 in10.9 mm
05:14 AM 46.8°F8.2°C 45.4°F7.4°C 95% 2.2 mph N3.5 kmh N 2.2 mph3.5 kmh 29.84 in1010.5 mb 0.00 in0.0 mm 0.00 in0.0 mm 0.43 in10.9 mm
05:15 AM 46.8°F8.2°C 45.4°F7.4°C 95% 2.2 mph N3.5 kmh N 2.2 mph3.5 kmh 29.84 in1010.5 mb 0.00 in0.0 mm 0.00 in0.0 mm 0.43 in10.9 mm
05:16 AM 46.6°F8.1°C 45.2°F7.3°C 95% 1.1 mph WNW1.8 kmh WNW 1.1 mph1.8 kmh 29.84 in1010.5 mb 0.07 in1.8 mm 4.20 in106.7 mm 0.44 in11.2 mm
05:17 AM 46.6°F8.1°C 45.2°F7.3°C 95% 0.4 mph NW0.6 kmh NW 1.1 mph1.8 kmh 29.83 in1010.2 mb 0.07 in1.8 mm 0.00 in0.0 mm 0.44 in11.2 mm
05:18 AM 46.6°F8.1°C 45.2°F7.3°C 95% 0.2 mph NNE0.3 kmh NNE 1.1 mph1.8 kmh 29.84 in1010.5 mb 0.07 in1.8 mm 0.00 in0.0 mm 0.44 in11.2 mm
05:19 AM 46.6°F8.1°C 45.2°F7.3°C 95% 0.7 mph NE1.1 kmh NE 1.1 mph1.8 kmh 29.83 in1010.2 mb 0.07 in1.8 mm 0.00 in0.0 mm 0.44 in11.2 mm
05:20 AM 46.6°F8.1°C 45.2°F7.3°C 95% 0.7 mph NE1.1 kmh NE 1.1 mph1.8 kmh 29.84 in1010.5 mb 0.07 in1.8 mm 0.00 in0.0 mm 0.44 in11.2 mm
05:21 AM 46.6°F8.1°C 45.2°F7.3°C 95% 0.7 mph NE1.1 kmh NE 1.1 mph1.8 kmh 29.84 in1010.5 mb 0.07 in1.8 mm 0.00 in0.0 mm 0.44 in11.2 mm
05:22 AM 46.6°F8.1°C 45.2°F7.3°C 95% 0.7 mph NE1.1 kmh NE 1.1 mph1.8 kmh 29.83 in1010.2 mb 0.07 in1.8 mm 0.00 in0.0 mm 0.44 in11.2 mm
05:23 AM 46.6°F8.1°C 45.2°F7.3°C 95% 0.7 mph NE1.1 kmh NE 1.1 mph1.8 kmh 29.84 in1010.5 mb 0.07 in1.8 mm 0.00 in0.0 mm 0.44 in11.2 mm
05:24 AM 46.8°F8.2°C 45.2°F7.3°C 94% 0.7 mph ENE1.1 kmh ENE 1.1 mph1.8 kmh 29.84 in1010.5 mb 0.07 in1.8 mm 0.00 in0.0 mm 0.44 in11.2 mm
05:26 AM 46.8°F8.2°C 45.2°F7.3°C 94% 0.7 mph ENE1.1 kmh ENE 1.1 mph1.8 kmh 29.84 in1010.5 mb 0.00 in0.0 mm 0.00 in0.0 mm 0.44 in11.2 mm
05:27 AM 46.8°F8.2°C 45.2°F7.3°C 94% 0.7 mph ENE1.1 kmh ENE 1.1 mph1.8 kmh 29.83 in1010.2 mb 0.00 in0.0 mm 0.00 in0.0 mm 0.44 in11.2 mm
05:28 AM 46.8°F8.2°C 45.2°F7.3°C 94% 0.7 mph ENE1.1 kmh ENE 1.1 mph1.8 kmh 29.83 in1010.2 mb 0.00 in0.0 mm 0.00 in0.0 mm 0.44 in11.2 mm
05:32 AM 47.1°F8.4°C 45.5°F7.5°C 94% 1.8 mph N2.9 kmh N 2.2 mph3.5 kmh 29.85 in1010.8 mb 0.05 in1.3 mm 0.75 in19.1 mm 0.45 in11.4 mm
05:33 AM 47.1°F8.4°C 45.5°F7.5°C 94% 1.8 mph N2.9 kmh N 2.2 mph3.5 kmh 29.84 in1010.5 mb 0.05 in1.3 mm 0.00 in0.0 mm 0.45 in11.4 mm
05:34 AM 47.1°F8.4°C 45.5°F7.5°C 94% 1.8 mph N2.9 kmh N 2.2 mph3.5 kmh 29.84 in1010.5 mb 0.05 in1.3 mm 0.00 in0.0 mm 0.45 in11.4 mm
05:35 AM 47.1°F8.4°C 45.2°F7.3°C 93% 1.6 mph N2.6 kmh N 3.4 mph5.5 kmh 29.85 in1010.8 mb 0.05 in1.3 mm 0.00 in0.0 mm 0.45 in11.4 mm
05:37 AM 47.1°F8.4°C 44.9°F7.2°C 92% 2.0 mph N3.2 kmh N 3.4 mph5.5 kmh 29.85 in1010.8 mb 0.12 in3.0 mm 2.10 in53.3 mm 0.46 in11.7 mm
05:38 AM 47.1°F8.4°C 45.2°F7.3°C 93% 0.2 mph N0.3 kmh N 1.1 mph1.8 kmh 29.85 in1010.8 mb 0.17 in4.3 mm 3.00 in76.2 mm 0.47 in11.9 mm
05:39 AM 47.3°F8.5°C 45.4°F7.4°C 93% 0.7 mph N1.1 kmh N 1.1 mph1.8 kmh 29.85 in1010.8 mb 0.12 in3.0 mm 0.00 in0.0 mm 0.47 in11.9 mm
05:42 AM 47.3°F8.5°C 45.4°F7.4°C 93% 2.7 mph W4.3 kmh W 3.4 mph5.5 kmh 29.85 in1010.8 mb 0.19 in4.8 mm 1.40 in35.6 mm 0.48 in12.2 mm
05:43 AM 47.3°F8.5°C 45.4°F7.4°C 93% 2.0 mph NW3.2 kmh NW 2.2 mph3.5 kmh 29.86 in1011.2 mb 0.19 in4.8 mm 0.00 in0.0 mm 0.48 in12.2 mm
05:44 AM 47.3°F8.5°C 45.4°F7.4°C 93% 1.6 mph NW2.6 kmh NW 2.2 mph3.5 kmh 29.86 in1011.2 mb 0.19 in4.8 mm 0.00 in0.0 mm 0.48 in12.2 mm
05:45 AM 47.3°F8.5°C 45.4°F7.4°C 93% 2.2 mph WSW3.5 kmh WSW 3.4 mph5.5 kmh 29.86 in1011.2 mb 0.24 in6.1 mm 3.00 in76.2 mm 0.49 in12.4 mm
05:46 AM 47.3°F8.5°C 45.7°F7.6°C 94% 1.1 mph WSW1.8 kmh WSW 1.1 mph1.8 kmh 29.86 in1011.2 mb 0.17 in4.3 mm 0.00 in0.0 mm 0.49 in12.4 mm
05:47 AM 47.3°F8.5°C 45.7°F7.6°C 94% 2.7 mph NNW4.3 kmh NNW 3.4 mph5.5 kmh 29.86 in1011.2 mb 0.19 in4.8 mm 1.20 in30.5 mm 0.50 in12.7 mm
05:48 AM 47.3°F8.5°C 45.7°F7.6°C 94% 1.8 mph N2.9 kmh N 2.2 mph3.5 kmh 29.86 in1011.2 mb 0.19 in4.8 mm 0.00 in0.0 mm 0.50 in12.7 mm
05:49 AM 47.3°F8.5°C 45.7°F7.6°C 94% 0.9 mph NNE1.4 kmh NNE 1.1 mph1.8 kmh 29.86 in1011.2 mb 0.19 in4.8 mm 0.00 in0.0 mm 0.50 in12.7 mm
05:50 AM 47.1°F8.4°C 45.5°F7.5°C 94% 0.4 mph NE0.6 kmh NE 1.1 mph1.8 kmh 29.86 in1011.2 mb 0.19 in4.8 mm 0.00 in0.0 mm 0.51 in13.0 mm
05:51 AM 47.1°F8.4°C 45.7°F7.6°C 95% 0.7 mph NE1.1 kmh NE 1.1 mph1.8 kmh 29.86 in1011.2 mb 0.19 in4.8 mm 0.00 in0.0 mm 0.51 in13.0 mm
05:52 AM 47.1°F8.4°C 45.5°F7.5°C 94% 1.1 mph NE1.8 kmh NE 1.1 mph1.8 kmh 29.86 in1011.2 mb 0.24 in6.1 mm 3.00 in76.2 mm 0.52 in13.2 mm
05:53 AM 47.1°F8.4°C 45.5°F7.5°C 94% 2.2 mph SW3.5 kmh SW 2.2 mph3.5 kmh 29.86 in1011.2 mb 0.24 in6.1 mm 0.00 in0.0 mm 0.52 in13.2 mm
05:54 AM 47.1°F8.4°C 45.5°F7.5°C 94% 0.7 mph E1.1 kmh E 1.1 mph1.8 kmh 29.86 in1011.2 mb 0.24 in6.1 mm 0.00 in0.0 mm 0.52 in13.2 mm
05:55 AM 47.1°F8.4°C 45.7°F7.6°C 95% 1.3 mph ENE2.1 kmh ENE 2.2 mph3.5 kmh 29.86 in1011.2 mb 0.26 in6.6 mm 1.20 in30.5 mm 0.53 in13.5 mm
05:56 AM 47.1°F8.4°C 45.7°F7.6°C 95% 1.1 mph NE1.8 kmh NE 1.1 mph1.8 kmh 29.86 in1011.2 mb 0.26 in6.6 mm 0.00 in0.0 mm 0.53 in13.5 mm
05:57 AM 47.1°F8.4°C 45.7°F7.6°C 95% Calm Calm -- 29.86 in1011.2 mb 0.31 in7.9 mm 3.00 in76.2 mm 0.54 in13.7 mm
05:58 AM 47.1°F8.4°C 45.7°F7.6°C 95% 0.7 mph NE1.1 kmh NE 1.1 mph1.8 kmh 29.87 in1011.5 mb 0.24 in6.1 mm 0.00 in0.0 mm 0.54 in13.7 mm
05:59 AM 47.1°F8.4°C 45.7°F7.6°C 95% 0.2 mph SE0.3 kmh SE 1.1 mph1.8 kmh 29.86 in1011.2 mb 0.24 in6.1 mm 0.00 in0.0 mm 0.55 in14.0 mm
06:00 AM 47.1°F8.4°C 45.7°F7.6°C 95% Calm Calm -- 29.86 in1011.2 mb 0.28 in7.1 mm 0.04 in1.0 mm 0.56 in14.2 mm
06:02 AM 46.9°F8.3°C 45.5°F7.5°C 95% Calm Calm -- 29.86 in1011.2 mb 0.24 in6.1 mm 0.00 in0.0 mm 0.56 in14.2 mm
06:03 AM 47.1°F8.4°C 45.7°F7.6°C 95% Calm Calm -- 29.85 in1010.8 mb 0.31 in7.9 mm 4.20 in106.7 mm 0.57 in14.5 mm
06:04 AM 47.1°F8.4°C 45.7°F7.6°C 95% 1.3 mph E2.1 kmh E 2.2 mph3.5 kmh 29.85 in1010.8 mb 0.31 in7.9 mm 0.00 in0.0 mm 0.57 in14.5 mm
06:05 AM 47.1°F8.4°C 45.7°F7.6°C 95% 2.7 mph NNE4.3 kmh NNE 3.4 mph5.5 kmh 29.85 in1010.8 mb 0.24 in6.1 mm 0.00 in0.0 mm 0.57 in14.5 mm
06:06 AM 47.1°F8.4°C 45.7°F7.6°C 95% 2.9 mph WSW4.7 kmh WSW 5.8 mph9.3 kmh 29.86 in1011.2 mb 0.24 in6.1 mm 0.00 in0.0 mm 0.57 in14.5 mm
06:08 AM 47.1°F8.4°C 45.5°F7.5°C 94% 2.2 mph NNW3.5 kmh NNW 3.4 mph5.5 kmh 29.85 in1010.8 mb 0.24 in6.1 mm 0.00 in0.0 mm 0.58 in14.7 mm
06:09 AM 47.1°F8.4°C 45.5°F7.5°C 94% 1.3 mph SSE2.1 kmh SSE 2.2 mph3.5 kmh 29.85 in1010.8 mb 0.17 in4.3 mm 0.00 in0.0 mm 0.58 in14.7 mm
06:10 AM 47.1°F8.4°C 45.7°F7.6°C 95% 1.1 mph SE1.8 kmh SE 2.2 mph3.5 kmh 29.86 in1011.2 mb 0.12 in3.0 mm 0.00 in0.0 mm 0.58 in14.7 mm
06:11 AM 47.1°F8.4°C 45.7°F7.6°C 95% 1.1 mph E1.8 kmh E 1.1 mph1.8 kmh 29.86 in1011.2 mb 0.19 in4.8 mm 4.20 in106.7 mm 0.59 in15.0 mm
06:12 AM 47.1°F8.4°C 45.7°F7.6°C 95% 1.8 mph NNE2.9 kmh NNE 2.2 mph3.5 kmh 29.86 in1011.2 mb 0.19 in4.8 mm 0.00 in0.0 mm 0.59 in15.0 mm
06:13 AM 47.1°F8.4°C 45.7°F7.6°C 95% 2.5 mph NNE4.0 kmh NNE 3.4 mph5.5 kmh 29.86 in1011.2 mb 0.12 in3.0 mm 0.00 in0.0 mm 0.59 in15.0 mm
06:14 AM 47.1°F8.4°C 45.7°F7.6°C 95% 1.1 mph NNE1.8 kmh NNE 1.1 mph1.8 kmh 29.86 in1011.2 mb 0.12 in3.0 mm 0.00 in0.0 mm 0.59 in15.0 mm
06:15 AM 47.3°F8.5°C 45.9°F7.7°C 95% 0.9 mph NNE1.4 kmh NNE 1.1 mph1.8 kmh 29.86 in1011.2 mb 0.17 in4.3 mm 3.00 in76.2 mm 0.60 in15.2 mm
06:16 AM 47.3°F8.5°C 45.9°F7.7°C 95% 1.1 mph NE1.8 kmh NE 1.1 mph1.8 kmh 29.86 in1011.2 mb 0.17 in4.3 mm 0.00 in0.0 mm 0.60 in15.2 mm
06:17 AM 47.1°F8.4°C 45.7°F7.6°C 95% 1.1 mph NE1.8 kmh NE 1.1 mph1.8 kmh 29.86 in1011.2 mb 0.17 in4.3 mm 0.00 in0.0 mm 0.60 in15.2 mm
06:18 AM 47.1°F8.4°C 45.5°F7.5°C 94% 0.2 mph NE0.3 kmh NE 1.1 mph1.8 kmh 29.86 in1011.2 mb 0.12 in3.0 mm 0.00 in0.0 mm 0.60 in15.2 mm
06:19 AM 47.1°F8.4°C 45.7°F7.6°C 95% 0.9 mph NE1.4 kmh NE 1.1 mph1.8 kmh 29.86 in1011.2 mb 0.19 in4.8 mm 4.20 in106.7 mm 0.61 in15.5 mm
06:20 AM 47.1°F8.4°C 45.7°F7.6°C 95% 0.7 mph NE1.1 kmh NE 1.1 mph1.8 kmh 29.86 in1011.2 mb 0.19 in4.8 mm 0.00 in0.0 mm 0.61 in15.5 mm
06:21 AM 47.1°F8.4°C 45.7°F7.6°C 95% 0.2 mph NE0.3 kmh NE 1.1 mph1.8 kmh 29.86 in1011.2 mb 0.17 in4.3 mm 0.00 in0.0 mm 0.62 in15.7 mm
06:22 AM 46.9°F8.3°C 45.5°F7.5°C 95% 1.1 mph NE1.8 kmh NE 1.1 mph1.8 kmh 29.86 in1011.2 mb 0.17 in4.3 mm 0.00 in0.0 mm 0.62 in15.7 mm
06:23 AM 46.9°F8.3°C 45.5°F7.5°C 95% 2.5 mph NE4.0 kmh NE 3.4 mph5.5 kmh 29.86 in1011.2 mb 0.17 in4.3 mm 0.00 in0.0 mm 0.62 in15.7 mm
06:24 AM 46.9°F8.3°C 45.5°F7.5°C 95% 2.5 mph N4.0 kmh N 3.4 mph5.5 kmh 29.86 in1011.2 mb 0.24 in6.1 mm 4.20 in106.7 mm 0.63 in16.0 mm
06:25 AM 46.9°F8.3°C 45.5°F7.5°C 95% 2.9 mph NNW4.7 kmh NNW 4.5 mph7.2 kmh 29.85 in1010.8 mb 0.19 in4.8 mm 0.00 in0.0 mm 0.63 in16.0 mm
06:26 AM 46.9°F8.3°C 45.5°F7.5°C 95% 3.8 mph NW6.1 kmh NW 4.5 mph7.2 kmh 29.85 in1010.8 mb 0.19 in4.8 mm 0.00 in0.0 mm 0.63 in16.0 mm
06:27 AM 46.9°F8.3°C 45.5°F7.5°C 95% 3.1 mph NNW5.0 kmh NNW 3.4 mph5.5 kmh 29.86 in1011.2 mb 0.19 in4.8 mm 0.00 in0.0 mm 0.63 in16.0 mm
06:28 AM 46.9°F8.3°C 45.5°F7.5°C 95% 3.4 mph NNW5.5 kmh NNW 3.4 mph5.5 kmh 29.86 in1011.2 mb 0.26 in6.6 mm 4.20 in106.7 mm 0.64 in16.3 mm
06:29 AM 47.1°F8.4°C 45.7°F7.6°C 95% 4.5 mph NW7.2 kmh NW 4.5 mph7.2 kmh 29.86 in1011.2 mb 0.19 in4.8 mm 0.00 in0.0 mm 0.64 in16.3 mm
06:30 AM 47.1°F8.4°C 45.5°F7.5°C 94% 5.4 mph NW8.7 kmh NW 6.9 mph11.1 kmh 29.86 in1011.2 mb 0.19 in4.8 mm 0.00 in0.0 mm 0.64 in16.3 mm
06:31 AM 47.1°F8.4°C 45.5°F7.5°C 94% 5.4 mph NW8.7 kmh NW 5.8 mph9.3 kmh 29.87 in1011.5 mb 0.14 in3.6 mm 0.00 in0.0 mm 0.64 in16.3 mm
06:32 AM 47.1°F8.4°C 45.5°F7.5°C 94% 4.5 mph NW7.2 kmh NW 4.5 mph7.2 kmh 29.86 in1011.2 mb 0.19 in4.8 mm 3.00 in76.2 mm 0.65 in16.5 mm
06:36 AM 47.5°F8.6°C 45.9°F7.7°C 94% 3.4 mph N5.5 kmh N 4.5 mph7.2 kmh 29.86 in1011.2 mb 0.19 in4.8 mm 0.00 in0.0 mm 0.66 in16.8 mm
06:37 AM 47.3°F8.5°C 45.7°F7.6°C 94% 1.8 mph NNE2.9 kmh NNE 2.2 mph3.5 kmh 29.87 in1011.5 mb 0.24 in6.1 mm 3.00 in76.2 mm 0.67 in17.0 mm
06:38 AM 47.3°F8.5°C 45.7°F7.6°C 94% 2.0 mph NNE3.2 kmh NNE 2.2 mph3.5 kmh 29.87 in1011.5 mb 0.24 in6.1 mm 0.00 in0.0 mm 0.68 in17.3 mm
06:39 AM 47.3°F8.5°C 45.9°F7.7°C 95% 1.3 mph NE2.1 kmh NE 2.2 mph3.5 kmh 29.86 in1011.2 mb 0.24 in6.1 mm 0.00 in0.0 mm 0.68 in17.3 mm
06:42 AM 47.1°F8.4°C 45.7°F7.6°C 95% 2.9 mph N4.7 kmh N 3.4 mph5.5 kmh 29.86 in1011.2 mb 0.24 in6.1 mm 0.00 in0.0 mm 0.69 in17.5 mm
06:43 AM 47.1°F8.4°C 45.7°F7.6°C 95% 2.0 mph N3.2 kmh N 2.2 mph3.5 kmh 29.87 in1011.5 mb 0.24 in6.1 mm 0.00 in0.0 mm 0.70 in17.8 mm
06:44 AM 47.1°F8.4°C 45.7°F7.6°C 95% 3.1 mph N5.0 kmh N 4.5 mph7.2 kmh 29.87 in1011.5 mb 0.24 in6.1 mm 0.00 in0.0 mm 0.70 in17.8 mm
06:46 AM 47.3°F8.5°C 45.9°F7.7°C 95% 2.5 mph N4.0 kmh N 3.4 mph5.5 kmh 29.87 in1011.5 mb 0.28 in7.1 mm 1.20 in30.5 mm 0.71 in18.0 mm
06:47 AM 47.1°F8.4°C 45.7°F7.6°C 95% 1.8 mph NE2.9 kmh NE 2.2 mph3.5 kmh 29.87 in1011.5 mb 0.24 in6.1 mm 0.00 in0.0 mm 0.72 in18.3 mm
06:48 AM 47.1°F8.4°C 45.7°F7.6°C 95% 1.8 mph NNE2.9 kmh NNE 2.2 mph3.5 kmh 29.86 in1011.2 mb 0.24 in6.1 mm 0.00 in0.0 mm 0.72 in18.3 mm
06:49 AM 47.1°F8.4°C 45.7°F7.6°C 95% 1.1 mph ENE1.8 kmh ENE 1.1 mph1.8 kmh 29.86 in1011.2 mb 0.24 in6.1 mm 0.00 in0.0 mm 0.72 in18.3 mm
06:50 AM 47.1°F8.4°C 45.7°F7.6°C 95% 2.0 mph WNW3.2 kmh WNW 2.2 mph3.5 kmh 29.86 in1011.2 mb 0.24 in6.1 mm 0.00 in0.0 mm 0.73 in18.5 mm
06:52 AM 47.1°F8.4°C 45.7°F7.6°C 95% 2.5 mph N4.0 kmh N 3.4 mph5.5 kmh 29.86 in1011.2 mb 0.24 in6.1 mm 0.00 in0.0 mm 0.73 in18.5 mm
06:53 AM 47.1°F8.4°C 45.7°F7.6°C 95% 0.9 mph NNE1.4 kmh NNE 2.2 mph3.5 kmh 29.86 in1011.2 mb 0.17 in4.3 mm 0.00 in0.0 mm 0.73 in18.5 mm
06:54 AM 47.1°F8.4°C 45.7°F7.6°C 95% 0.7 mph NNE1.1 kmh NNE 1.1 mph1.8 kmh 29.86 in1011.2 mb 0.24 in6.1 mm 4.20 in106.7 mm 0.74 in18.8 mm
06:55 AM 47.1°F8.4°C 45.7°F7.6°C 95% 0.7 mph NE1.1 kmh NE 1.1 mph1.8 kmh 29.85 in1010.8 mb 0.19 in4.8 mm 0.00 in0.0 mm 0.74 in18.8 mm
06:57 AM 47.3°F8.5°C 45.7°F7.6°C 94% 2.2 mph W3.5 kmh W 3.4 mph5.5 kmh 29.86 in1011.2 mb 0.26 in6.6 mm 2.10 in53.3 mm 0.75 in19.1 mm
06:58 AM 47.3°F8.5°C 45.7°F7.6°C 94% 0.7 mph NE1.1 kmh NE 1.1 mph1.8 kmh 29.86 in1011.2 mb 0.19 in4.8 mm 0.00 in0.0 mm 0.75 in19.1 mm
06:59 AM 47.5°F8.6°C 45.3°F7.4°C 92% 2.9 mph WNW4.7 kmh WNW 5.8 mph9.3 kmh 29.85 in1010.8 mb 0.14 in3.6 mm 0.00 in0.0 mm 0.75 in19.1 mm
07:01 AM 47.5°F8.6°C 44.7°F7.1°C 90% 4.7 mph NW7.6 kmh NW 5.8 mph9.3 kmh 29.85 in1010.8 mb 0.14 in3.6 mm 0.00 in0.0 mm 0.75 in19.1 mm
07:02 AM 47.5°F8.6°C 44.7°F7.1°C 90% 4.7 mph NW7.6 kmh NW 5.8 mph9.3 kmh 29.85 in1010.8 mb 0.14 in3.6 mm 0.00 in0.0 mm 0.75 in19.1 mm
07:04 AM 47.5°F8.6°C 44.7°F7.1°C 90% 4.7 mph NW7.6 kmh NW 5.8 mph9.3 kmh 29.85 in1010.8 mb 0.07 in1.8 mm 0.00 in0.0 mm 0.75 in19.1 mm
07:07 AM 47.8°F8.8°C 45.3°F7.4°C 91% 1.3 mph ENE2.1 kmh ENE 2.2 mph3.5 kmh 29.86 in1011.2 mb 0.00 in0.0 mm 0.00 in0.0 mm 0.75 in19.1 mm
07:08 AM 48.4°F9.1°C 46.2°F7.9°C 92% 1.1 mph NE1.8 kmh NE 1.1 mph1.8 kmh 29.86 in1011.2 mb 0.05 in1.3 mm 3.00 in76.2 mm 0.76 in19.3 mm
07:09 AM 47.8°F8.8°C 45.6°F7.6°C 92% 2.0 mph NE3.2 kmh NE 2.2 mph3.5 kmh 29.86 in1011.2 mb 0.05 in1.3 mm 0.00 in0.0 mm 0.76 in19.3 mm
07:10 AM 47.7°F8.7°C 45.8°F7.7°C 93% 1.3 mph NE2.1 kmh NE 2.2 mph3.5 kmh 29.86 in1011.2 mb 0.12 in3.0 mm 4.20 in106.7 mm 0.77 in19.6 mm
07:11 AM 47.7°F8.7°C 45.8°F7.7°C 93% 1.3 mph NE2.1 kmh NE 2.2 mph3.5 kmh 29.86 in1011.2 mb 0.12 in3.0 mm 0.00 in0.0 mm 0.77 in19.6 mm
07:12 AM 47.7°F8.7°C 45.8°F7.7°C 93% 2.9 mph N4.7 kmh N 3.4 mph5.5 kmh 29.86 in1011.2 mb 0.12 in3.0 mm 0.00 in0.0 mm 0.77 in19.6 mm
07:13 AM 47.7°F8.7°C 45.5°F7.5°C 92% 2.2 mph NNE3.5 kmh NNE 2.2 mph3.5 kmh 29.86 in1011.2 mb 0.17 in4.3 mm 3.00 in76.2 mm 0.78 in19.8 mm
07:14 AM 47.7°F8.7°C 45.5°F7.5°C 92% 2.9 mph ENE4.7 kmh ENE 4.5 mph7.2 kmh 29.85 in1010.8 mb 0.17 in4.3 mm 0.00 in0.0 mm 0.78 in19.8 mm
07:15 AM 47.5°F8.6°C 45.0°F7.2°C 91% 2.0 mph NE3.2 kmh NE 2.2 mph3.5 kmh 29.85 in1010.8 mb 0.17 in4.3 mm 0.00 in0.0 mm 0.78 in19.8 mm
07:16 AM 47.5°F8.6°C 45.0°F7.2°C 91% 0.9 mph NNE1.4 kmh NNE 1.1 mph1.8 kmh 29.85 in1010.8 mb 0.17 in4.3 mm 0.00 in0.0 mm 0.78 in19.8 mm
07:17 AM 47.7°F8.7°C 45.2°F7.3°C 91% 1.8 mph NE2.9 kmh NE 2.2 mph3.5 kmh 29.85 in1010.8 mb 0.17 in4.3 mm 0.00 in0.0 mm 0.78 in19.8 mm
07:18 AM 47.7°F8.7°C 45.2°F7.3°C 91% 4.9 mph NW7.9 kmh NW 5.8 mph9.3 kmh 29.86 in1011.2 mb 0.19 in4.8 mm 1.20 in30.5 mm 0.79 in20.1 mm
07:20 AM 47.7°F8.7°C 44.9°F7.2°C 90% 2.5 mph 4.0 kmh 3.4 mph5.5 kmh 29.86 in1011.2 mb 0.12 in3.0 mm 0.00 in0.0 mm 0.79 in20.1 mm
07:21 AM 47.7°F8.7°C 45.2°F7.3°C 91% 1.8 mph NNE2.9 kmh NNE 2.2 mph3.5 kmh 29.86 in1011.2 mb 0.12 in3.0 mm 0.00 in0.0 mm 0.79 in20.1 mm
07:23 AM 47.7°F8.7°C 45.2°F7.3°C 91% 1.3 mph NNE2.1 kmh NNE 2.2 mph3.5 kmh 29.86 in1011.2 mb 0.12 in3.0 mm 0.00 in0.0 mm 0.80 in20.3 mm
07:24 AM 47.5°F8.6°C 45.3°F7.4°C 92% 2.2 mph NNE3.5 kmh NNE 2.2 mph3.5 kmh 29.86 in1011.2 mb 0.19 in4.8 mm 4.20 in106.7 mm 0.81 in20.6 mm
07:25 AM 47.5°F8.6°C 45.3°F7.4°C 92% 2.2 mph N3.5 kmh N 2.2 mph3.5 kmh 29.87 in1011.5 mb 0.19 in4.8 mm 0.00 in0.0 mm 0.81 in20.6 mm
07:26 AM 47.5°F8.6°C 45.3°F7.4°C 92% 2.2 mph NNE3.5 kmh NNE 2.2 mph3.5 kmh 29.87 in1011.5 mb 0.19 in4.8 mm 0.00 in0.0 mm 0.81 in20.6 mm
07:28 AM 47.5°F8.6°C 45.6°F7.6°C 93% 1.3 mph NE2.1 kmh NE 2.2 mph3.5 kmh 29.87 in1011.5 mb 0.12 in3.0 mm 0.00 in0.0 mm 0.81 in20.6 mm
07:29 AM 47.3°F8.5°C 45.4°F7.4°C 93% 1.1 mph NE1.8 kmh NE 1.1 mph1.8 kmh 29.86 in1011.2 mb 0.17 in4.3 mm 3.00 in76.2 mm 0.82 in20.8 mm
07:30 AM 47.3°F8.5°C 45.4°F7.4°C 93% 1.1 mph NE1.8 kmh NE 1.1 mph1.8 kmh 29.86 in1011.2 mb 0.17 in4.3 mm 0.00 in0.0 mm 0.82 in20.8 mm
07:31 AM 47.3°F8.5°C 45.7°F7.6°C 94% 1.6 mph NNE2.6 kmh NNE 2.2 mph3.5 kmh 29.87 in1011.5 mb 0.24 in6.1 mm 4.20 in106.7 mm 0.83 in21.1 mm
07:32 AM 47.1°F8.4°C 45.5°F7.5°C 94% 2.7 mph NNE4.3 kmh NNE 3.4 mph5.5 kmh 29.87 in1011.5 mb 0.19 in4.8 mm 0.00 in0.0 mm 0.83 in21.1 mm
07:33 AM 47.1°F8.4°C 45.5°F7.5°C 94% 2.7 mph NNE4.3 kmh NNE 3.4 mph5.5 kmh 29.86 in1011.2 mb 0.19 in4.8 mm 0.00 in0.0 mm 0.83 in21.1 mm
07:34 AM 47.1°F8.4°C 45.5°F7.5°C 94% 2.7 mph NNE4.3 kmh NNE 3.4 mph5.5 kmh 29.87 in1011.5 mb 0.12 in3.0 mm 0.00 in0.0 mm 0.83 in21.1 mm
07:35 AM 47.1°F8.4°C 45.5°F7.5°C 94% 2.7 mph NNE4.3 kmh NNE 3.4 mph5.5 kmh 29.86 in1011.2 mb 0.12 in3.0 mm 0.00 in0.0 mm 0.83 in21.1 mm
07:38 AM 47.1°F8.4°C 45.5°F7.5°C 94% 2.7 mph NNE4.3 kmh NNE 3.4 mph5.5 kmh 29.87 in1011.5 mb 0.12 in3.0 mm 0.00 in0.0 mm 0.83 in21.1 mm
07:39 AM 47.1°F8.4°C 45.5°F7.5°C 94% 2.7 mph NNE4.3 kmh NNE 3.4 mph5.5 kmh 29.86 in1011.2 mb 0.07 in1.8 mm 0.00 in0.0 mm 0.83 in21.1 mm
07:40 AM 47.1°F8.4°C 45.5°F7.5°C 94% 2.7 mph NNE4.3 kmh NNE 3.4 mph5.5 kmh 29.86 in1011.2 mb 0.07 in1.8 mm 0.00 in0.0 mm 0.83 in21.1 mm
07:41 AM 47.1°F8.4°C 45.5°F7.5°C 94% 2.7 mph NNE4.3 kmh NNE 3.4 mph5.5 kmh 29.86 in1011.2 mb 0.00 in0.0 mm 0.00 in0.0 mm 0.83 in21.1 mm
07:42 AM 47.1°F8.4°C 45.5°F7.5°C 94% 2.7 mph NNE4.3 kmh NNE 3.4 mph5.5 kmh 29.86 in1011.2 mb 0.00 in0.0 mm 0.00 in0.0 mm 0.83 in21.1 mm
07:43 AM 47.1°F8.4°C 45.5°F7.5°C 94% 2.7 mph NNE4.3 kmh NNE 3.4 mph5.5 kmh 29.86 in1011.2 mb 0.00 in0.0 mm 0.00 in0.0 mm 0.83 in21.1 mm
07:44 AM 47.1°F8.4°C 45.5°F7.5°C 94% 1.1 mph N1.8 kmh N 1.1 mph1.8 kmh 29.86 in1011.2 mb 0.00 in0.0 mm 0.00 in0.0 mm 0.83 in21.1 mm
07:45 AM 46.9°F8.3°C 45.3°F7.4°C 94% 1.1 mph N1.8 kmh N 1.1 mph1.8 kmh 29.86 in1011.2 mb 0.00 in0.0 mm 0.00 in0.0 mm 0.83 in21.1 mm
07:46 AM 46.9°F8.3°C 45.3°F7.4°C 94% 1.1 mph N1.8 kmh N 1.1 mph1.8 kmh 29.87 in1011.5 mb 0.00 in0.0 mm 0.00 in0.0 mm 0.83 in21.1 mm
07:47 AM 46.9°F8.3°C 45.3°F7.4°C 94% 0.7 mph N1.1 kmh N 1.1 mph1.8 kmh 29.87 in1011.5 mb 0.00 in0.0 mm 0.00 in0.0 mm 0.83 in21.1 mm
07:49 AM 47.1°F8.4°C 45.2°F7.3°C 93% 2.2 mph NNE3.5 kmh NNE 2.2 mph3.5 kmh 29.86 in1011.2 mb 0.00 in0.0 mm 0.00 in0.0 mm 0.83 in21.1 mm
07:51 AM 47.5°F8.6°C 45.6°F7.6°C 93% 2.7 mph N4.3 kmh N 3.4 mph5.5 kmh 29.86 in1011.2 mb 0.00 in0.0 mm 0.00 in0.0 mm 0.83 in21.1 mm
07:52 AM 47.5°F8.6°C 45.6°F7.6°C 93% 2.5 mph NNE4.0 kmh NNE 3.4 mph5.5 kmh 29.86 in1011.2 mb 0.00 in0.0 mm 0.00 in0.0 mm 0.83 in21.1 mm
07:54 AM 47.5°F8.6°C 45.6°F7.6°C 93% 1.1 mph NE1.8 kmh NE 1.1 mph1.8 kmh 29.86 in1011.2 mb 0.00 in0.0 mm 0.00 in0.0 mm 0.83 in21.1 mm
07:55 AM 47.5°F8.6°C 45.6°F7.6°C 93% 2.2 mph NNE3.5 kmh NNE 2.2 mph3.5 kmh 29.86 in1011.2 mb 0.00 in0.0 mm 0.00 in0.0 mm 0.83 in21.1 mm
07:56 AM 47.5°F8.6°C 45.6°F7.6°C 93% 0.9 mph NE1.4 kmh NE 1.1 mph1.8 kmh 29.86 in1011.2 mb 0.00 in0.0 mm 0.00 in0.0 mm 0.83 in21.1 mm
07:57 AM 47.5°F8.6°C 45.9°F7.7°C 94% 2.2 mph NNE3.5 kmh NNE 2.2 mph3.5 kmh 29.86 in1011.2 mb 0.00 in0.0 mm 0.00 in0.0 mm 0.83 in21.1 mm
07:58 AM 47.5°F8.6°C 45.9°F7.7°C 94% 1.8 mph NE2.9 kmh NE 2.2 mph3.5 kmh 29.86 in1011.2 mb 0.00 in0.0 mm 0.00 in0.0 mm 0.83 in21.1 mm
07:59 AM 47.7°F8.7°C 45.8°F7.7°C 93% 2.9 mph N4.7 kmh N 3.4 mph5.5 kmh 29.86 in1011.2 mb 0.00 in0.0 mm 0.00 in0.0 mm 0.83 in21.1 mm
08:00 AM 47.7°F8.7°C 45.8°F7.7°C 93% 2.5 mph N4.0 kmh N 3.4 mph5.5 kmh 29.86 in1011.2 mb 0.00 in0.0 mm 0.00 in0.0 mm 0.83 in21.1 mm
08:01 AM 47.7°F8.7°C 45.8°F7.7°C 93% 0.9 mph NNE1.4 kmh NNE 1.1 mph1.8 kmh 29.86 in1011.2 mb 0.00 in0.0 mm 0.00 in0.0 mm 0.83 in21.1 mm
08:02 AM 47.7°F8.7°C 45.8°F7.7°C 93% 1.3 mph NE2.1 kmh NE 2.2 mph3.5 kmh 29.86 in1011.2 mb 0.00 in0.0 mm 0.00 in0.0 mm 0.83 in21.1 mm
08:03 AM 47.7°F8.7°C 45.5°F7.5°C 92% 0.9 mph NE1.4 kmh NE 1.1 mph1.8 kmh 29.86 in1011.2 mb 0.00 in0.0 mm 0.00 in0.0 mm 0.83 in21.1 mm
08:04 AM 47.7°F8.7°C 45.5°F7.5°C 92% 1.1 mph NE1.8 kmh NE 1.1 mph1.8 kmh 29.86 in1011.2 mb 0.00 in0.0 mm 0.00 in0.0 mm 0.83 in21.1 mm
08:05 AM 47.5°F8.6°C 45.6°F7.6°C 93% 2.2 mph NNE3.5 kmh NNE 2.2 mph3.5 kmh 29.86 in1011.2 mb 0.00 in0.0 mm 0.00 in0.0 mm 0.83 in21.1 mm
08:06 AM 47.5°F8.6°C 45.3°F7.4°C 92% 1.1 mph NNE1.8 kmh NNE 1.1 mph1.8 kmh 29.85 in1010.8 mb 0.00 in0.0 mm 0.00 in0.0 mm 0.83 in21.1 mm
08:07 AM 47.5°F8.6°C 45.3°F7.4°C 92% 1.1 mph ENE1.8 kmh ENE 1.1 mph1.8 kmh 29.86 in1011.2 mb 0.00 in0.0 mm 0.00 in0.0 mm 0.83 in21.1 mm
08:08 AM 47.5°F8.6°C 45.3°F7.4°C 92% 0.7 mph ENE1.1 kmh ENE 1.1 mph1.8 kmh 29.86 in1011.2 mb 0.00 in0.0 mm 0.00 in0.0 mm 0.83 in21.1 mm
08:10 AM 47.5°F8.6°C 44.7°F7.1°C 90% 2.5 mph N4.0 kmh N 3.4 mph5.5 kmh 29.86 in1011.2 mb 0.00 in0.0 mm 0.00 in0.0 mm 0.83 in21.1 mm
08:11 AM 47.5°F8.6°C 44.4°F6.9°C 89% 2.7 mph N4.3 kmh N 3.4 mph5.5 kmh 29.86 in1011.2 mb 0.00 in0.0 mm 0.00 in0.0 mm 0.83 in21.1 mm
08:12 AM 47.7°F8.7°C 44.9°F7.2°C 90% 1.1 mph NNE1.8 kmh NNE 1.1 mph1.8 kmh 29.86 in1011.2 mb 0.00 in0.0 mm 0.00 in0.0 mm 0.83 in21.1 mm
08:14 AM 47.7°F8.7°C 44.9°F7.2°C 90% 1.8 mph NE2.9 kmh NE 2.2 mph3.5 kmh 29.86 in1011.2 mb 0.00 in0.0 mm 0.00 in0.0 mm 0.83 in21.1 mm
08:15 AM 47.7°F8.7°C 44.9°F7.2°C 90% 0.2 mph NE0.3 kmh NE 1.1 mph1.8 kmh 29.85 in1010.8 mb 0.00 in0.0 mm 0.00 in0.0 mm 0.83 in21.1 mm
08:16 AM 47.7°F8.7°C 44.9°F7.2°C 90% 1.3 mph NE2.1 kmh NE 2.2 mph3.5 kmh 29.85 in1010.8 mb 0.00 in0.0 mm 0.00 in0.0 mm 0.83 in21.1 mm
08:17 AM 47.7°F8.7°C 44.6°F7.0°C 89% 2.0 mph NE3.2 kmh NE 2.2 mph3.5 kmh 29.86 in1011.2 mb 0.00 in0.0 mm 0.00 in0.0 mm 0.83 in21.1 mm
08:18 AM 47.7°F8.7°C 44.3°F6.8°C 88% Calm Calm -- 29.86 in1011.2 mb 0.00 in0.0 mm 0.00 in0.0 mm 0.83 in21.1 mm
08:19 AM 47.7°F8.7°C 44.0°F6.7°C 87% Calm Calm -- 29.86 in1011.2 mb 0.00 in0.0 mm 0.00 in0.0 mm 0.83 in21.1 mm
08:21 AM 47.7°F8.7°C 44.6°F7.0°C 89% 0.2 mph NE0.3 kmh NE 1.1 mph1.8 kmh 29.86 in1011.2 mb 0.00 in0.0 mm 0.00 in0.0 mm 0.83 in21.1 mm
08:22 AM 47.7°F8.7°C 44.6°F7.0°C 89% 1.8 mph NE2.9 kmh NE 2.2 mph3.5 kmh 29.86 in1011.2 mb 0.00 in0.0 mm 0.00 in0.0 mm 0.83 in21.1 mm
08:23 AM 47.7°F8.7°C 44.9°F7.2°C 90% 0.7 mph NE1.1 kmh NE 1.1 mph1.8 kmh 29.86 in1011.2 mb 0.00 in0.0 mm 0.00 in0.0 mm 0.83 in21.1 mm
08:24 AM 47.7°F8.7°C 44.9°F7.2°C 90% 0.7 mph NE1.1 kmh NE 1.1 mph1.8 kmh 29.86 in1011.2 mb 0.00 in0.0 mm 0.00 in0.0 mm 0.83 in21.1 mm
08:25 AM 47.5°F8.6°C 44.4°F6.9°C 89% 2.0 mph NNE3.2 kmh NNE 2.2 mph3.5 kmh 29.86 in1011.2 mb 0.00 in0.0 mm 0.00 in0.0 mm 0.83 in21.1 mm
08:26 AM 47.5°F8.6°C 44.4°F6.9°C 89% Calm Calm -- 29.86 in1011.2 mb 0.00 in0.0 mm 0.00 in0.0 mm 0.83 in21.1 mm
08:28 AM 47.5°F8.6°C 44.7°F7.1°C 90% Calm Calm -- 29.85 in1010.8 mb 0.00 in0.0 mm 0.00 in0.0 mm 0.83 in21.1 mm
08:29 AM 47.5°F8.6°C 44.4°F6.9°C 89% 2.0 mph N3.2 kmh N 2.2 mph3.5 kmh 29.86 in1011.2 mb 0.00 in0.0 mm 0.00 in0.0 mm 0.83 in21.1 mm
08:30 AM 47.5°F8.6°C 44.4°F6.9°C 89% 1.1 mph N1.8 kmh N 1.1 mph1.8 kmh 29.86 in1011.2 mb 0.00 in0.0 mm 0.00 in0.0 mm 0.83 in21.1 mm
08:31 AM 47.5°F8.6°C 44.7°F7.1°C 90% 1.8 mph NNW2.9 kmh NNW 2.2 mph3.5 kmh 29.86 in1011.2 mb 0.00 in0.0 mm 0.00 in0.0 mm 0.83 in21.1 mm
08:32 AM 47.7°F8.7°C 44.6°F7.0°C 89% 2.2 mph NW3.5 kmh NW 2.2 mph3.5 kmh 29.86 in1011.2 mb 0.00 in0.0 mm 0.00 in0.0 mm 0.83 in21.1 mm
08:33 AM 47.7°F8.7°C 44.9°F7.2°C 90% 1.3 mph N2.1 kmh N 2.2 mph3.5 kmh 29.86 in1011.2 mb 0.00 in0.0 mm 0.00 in0.0 mm 0.83 in21.1 mm
08:34 AM 47.8°F8.8°C 45.0°F7.2°C 90% 1.1 mph N1.8 kmh N 1.1 mph1.8 kmh 29.86 in1011.2 mb 0.00 in0.0 mm 0.00 in0.0 mm 0.83 in21.1 mm
08:35 AM 47.8°F8.8°C 45.0°F7.2°C 90% Calm Calm -- 29.86 in1011.2 mb 0.00 in0.0 mm 0.00 in0.0 mm 0.83 in21.1 mm
08:36 AM 47.8°F8.8°C 45.0°F7.2°C 90% 0.9 mph N1.4 kmh N 1.1 mph1.8 kmh 29.86 in1011.2 mb 0.00 in0.0 mm 0.00 in0.0 mm 0.83 in21.1 mm
08:37 AM 47.8°F8.8°C 45.0°F7.2°C 90% 1.3 mph N2.1 kmh N 2.2 mph3.5 kmh 29.86 in1011.2 mb 0.00 in0.0 mm 0.00 in0.0 mm 0.83 in21.1 mm
08:38 AM 47.8°F8.8°C 44.7°F7.1°C 89% 0.2 mph ENE0.3 kmh ENE 1.1 mph1.8 kmh 29.86 in1011.2 mb 0.00 in0.0 mm 0.00 in0.0 mm 0.83 in21.1 mm
08:40 AM 47.8°F8.8°C 44.7°F7.1°C 89% 1.6 mph NNE2.6 kmh NNE 2.2 mph3.5 kmh 29.86 in1011.2 mb 0.00 in0.0 mm 0.00 in0.0 mm 0.83 in21.1 mm
08:41 AM 48.0°F8.9°C 44.3°F6.8°C 87% 1.1 mph NNE1.8 kmh NNE 1.1 mph1.8 kmh 29.86 in1011.2 mb 0.00 in0.0 mm 0.00 in0.0 mm 0.83 in21.1 mm
08:42 AM 48.2°F9.0°C 44.5°F6.9°C 87% 0.9 mph NNE1.4 kmh NNE 1.1 mph1.8 kmh 29.86 in1011.2 mb 0.00 in0.0 mm 0.00 in0.0 mm 0.83 in21.1 mm
08:43 AM 48.2°F9.0°C 44.5°F6.9°C 87% 2.2 mph NNE3.5 kmh NNE 2.2 mph3.5 kmh 29.86 in1011.2 mb 0.00 in0.0 mm 0.00 in0.0 mm 0.83 in21.1 mm
08:45 AM 48.4°F9.1°C 44.7°F7.1°C 87% 2.0 mph N3.2 kmh N 3.4 mph5.5 kmh 29.86 in1011.2 mb 0.00 in0.0 mm 0.00 in0.0 mm 0.83 in21.1 mm
08:46 AM 48.4°F9.1°C 44.7°F7.1°C 87% 2.5 mph N4.0 kmh N 3.4 mph5.5 kmh 29.86 in1011.2 mb 0.00 in0.0 mm 0.00 in0.0 mm 0.83 in21.1 mm
08:47 AM 48.4°F9.1°C 44.7°F7.1°C 87% 3.1 mph N5.0 kmh N 3.4 mph5.5 kmh 29.86 in1011.2 mb 0.00 in0.0 mm 0.00 in0.0 mm 0.83 in21.1 mm
08:48 AM 48.4°F9.1°C 44.7°F7.1°C 87% 2.7 mph N4.3 kmh N 3.4 mph5.5 kmh 29.86 in1011.2 mb 0.00 in0.0 mm 0.00 in0.0 mm 0.83 in21.1 mm
08:49 AM 48.4°F9.1°C 44.1°F6.7°C 85% 3.6 mph WNW5.8 kmh WNW 4.5 mph7.2 kmh 29.86 in1011.2 mb 0.00 in0.0 mm 0.00 in0.0 mm 0.83 in21.1 mm
08:50 AM 48.4°F9.1°C 44.4°F6.9°C 86% 2.2 mph N3.5 kmh N 2.2 mph3.5 kmh 29.86 in1011.2 mb 0.00 in0.0 mm 0.00 in0.0 mm 0.83 in21.1 mm
08:52 AM 48.6°F9.2°C 44.6°F7.0°C 86% 1.8 mph N2.9 kmh N 2.2 mph3.5 kmh 29.86 in1011.2 mb 0.00 in0.0 mm 0.00 in0.0 mm 0.83 in21.1 mm
08:53 AM 48.6°F9.2°C 44.9°F7.2°C 87% 1.8 mph N2.9 kmh N 2.2 mph3.5 kmh 29.86 in1011.2 mb 0.00 in0.0 mm 0.00 in0.0 mm 0.83 in21.1 mm
08:54 AM 48.6°F9.2°C 44.3°F6.8°C 85% 1.1 mph NNW1.8 kmh NNW 1.1 mph1.8 kmh 29.86 in1011.2 mb 0.00 in0.0 mm 0.00 in0.0 mm 0.83 in21.1 mm
08:55 AM 48.6°F9.2°C 44.0°F6.7°C 84% 2.2 mph NNW3.5 kmh NNW 2.2 mph3.5 kmh 29.86 in1011.2 mb 0.00 in0.0 mm 0.00 in0.0 mm 0.83 in21.1 mm
08:56 AM 48.6°F9.2°C 44.3°F6.8°C 85% 2.2 mph N3.5 kmh N 3.4 mph5.5 kmh 29.86 in1011.2 mb 0.00 in0.0 mm 0.00 in0.0 mm 0.83 in21.1 mm
08:57 AM 48.6°F9.2°C 44.0°F6.7°C 84% 2.7 mph NW4.3 kmh NW 3.4 mph5.5 kmh 29.86 in1011.2 mb 0.00 in0.0 mm 0.00 in0.0 mm 0.83 in21.1 mm
08:58 AM 48.6°F9.2°C 44.3°F6.8°C 85% 1.8 mph NW2.9 kmh NW 2.2 mph3.5 kmh 29.86 in1011.2 mb 0.00 in0.0 mm 0.00 in0.0 mm 0.83 in21.1 mm
08:59 AM 48.6°F9.2°C 44.6°F7.0°C 86% 1.3 mph NW2.1 kmh NW 2.2 mph3.5 kmh 29.86 in1011.2 mb 0.00 in0.0 mm 0.00 in0.0 mm 0.83 in21.1 mm
09:00 AM 48.6°F9.2°C 44.3°F6.8°C 85% 1.1 mph WNW1.8 kmh WNW 1.1 mph1.8 kmh 29.86 in1011.2 mb 0.00 in0.0 mm 0.00 in0.0 mm 0.83 in21.1 mm
09:01 AM 48.6°F9.2°C 44.3°F6.8°C 85% 0.7 mph W1.1 kmh W 1.1 mph1.8 kmh 29.86 in1011.2 mb 0.00 in0.0 mm 0.00 in0.0 mm 0.83 in21.1 mm
09:02 AM 48.6°F9.2°C 44.3°F6.8°C 85% 1.8 mph W2.9 kmh W 2.2 mph3.5 kmh 29.86 in1011.2 mb 0.00 in0.0 mm 0.00 in0.0 mm 0.83 in21.1 mm
09:03 AM 48.7°F9.3°C 43.8°F6.6°C 83% 3.8 mph NNW6.1 kmh NNW 4.5 mph7.2 kmh 29.86 in1011.2 mb 0.00 in0.0 mm 0.00 in0.0 mm 0.83 in21.1 mm
09:04 AM 48.7°F9.3°C 43.5°F6.4°C 82% 1.6 mph NNW2.6 kmh NNW 2.2 mph3.5 kmh 29.86 in1011.2 mb 0.00 in0.0 mm 0.00 in0.0 mm 0.83 in21.1 mm
09:05 AM 48.7°F9.3°C 44.4°F6.9°C 85% 1.3 mph N2.1 kmh N 2.2 mph3.5 kmh 29.86 in1011.2 mb 0.00 in0.0 mm 0.00 in0.0 mm 0.83 in21.1 mm
09:06 AM 49.1°F9.5°C 44.5°F6.9°C 84% 1.8 mph N2.9 kmh N 3.4 mph5.5 kmh 29.86 in1011.2 mb 0.00 in0.0 mm 0.00 in0.0 mm 0.83 in21.1 mm
09:07 AM 49.3°F9.6°C 44.0°F6.7°C 82% 2.5 mph N4.0 kmh N 3.4 mph5.5 kmh 29.86 in1011.2 mb 0.00 in0.0 mm 0.00 in0.0 mm 0.83 in21.1 mm
09:09 AM 49.5°F9.7°C 44.2°F6.8°C 82% 2.0 mph NW3.2 kmh NW 2.2 mph3.5 kmh 29.86 in1011.2 mb 0.00 in0.0 mm 0.00 in0.0 mm 0.83 in21.1 mm
09:10 AM 49.3°F9.6°C 44.4°F6.9°C 83% 2.9 mph NW4.7 kmh NW 4.5 mph7.2 kmh 29.86 in1011.2 mb 0.00 in0.0 mm 0.00 in0.0 mm 0.83 in21.1 mm
09:12 AM 49.3°F9.6°C 45.3°F7.4°C 86% Calm Calm -- 29.86 in1011.2 mb 0.00 in0.0 mm 0.00 in0.0 mm 0.83 in21.1 mm
09:13 AM 49.3°F9.6°C 44.4°F6.9°C 83% 0.2 mph NE0.3 kmh NE 1.1 mph1.8 kmh 29.86 in1011.2 mb 0.00 in0.0 mm 0.00 in0.0 mm 0.83 in21.1 mm
09:14 AM 49.3°F9.6°C 44.4°F6.9°C 83% Calm Calm -- 29.86 in1011.2 mb 0.00 in0.0 mm 0.00 in0.0 mm 0.83 in21.1 mm
09:15 AM 49.3°F9.6°C 44.7°F7.1°C 84% 0.2 mph ENE0.3 kmh ENE 1.1 mph1.8 kmh 29.86 in1011.2 mb 0.00 in0.0 mm 0.00 in0.0 mm 0.83 in21.1 mm
09:16 AM 49.3°F9.6°C 45.0°F7.2°C 85% Calm Calm -- 29.86 in1011.2 mb 0.00 in0.0 mm 0.00 in0.0 mm 0.83 in21.1 mm
09:17 AM 49.3°F9.6°C 45.0°F7.2°C 85% 0.9 mph NE1.4 kmh NE 1.1 mph1.8 kmh 29.86 in1011.2 mb 0.00 in0.0 mm 0.00 in0.0 mm 0.83 in21.1 mm
09:18 AM 49.3°F9.6°C 45.0°F7.2°C 85% 0.4 mph NE0.6 kmh NE 1.1 mph1.8 kmh 29.86 in1011.2 mb 0.00 in0.0 mm 0.00 in0.0 mm 0.83 in21.1 mm
09:19 AM 49.3°F9.6°C 44.7°F7.1°C 84% 1.3 mph NE2.1 kmh NE 2.2 mph3.5 kmh 29.85 in1010.8 mb 0.00 in0.0 mm 0.00 in0.0 mm 0.83 in21.1 mm
09:20 AM 49.3°F9.6°C 44.7°F7.1°C 84% 1.3 mph NE2.1 kmh NE 2.2 mph3.5 kmh 29.86 in1011.2 mb 0.00 in0.0 mm 0.00 in0.0 mm 0.83 in21.1 mm
09:21 AM 49.1°F9.5°C 44.2°F6.8°C 83% 1.1 mph NE1.8 kmh NE 1.1 mph1.8 kmh 29.86 in1011.2 mb 0.00 in0.0 mm 0.00 in0.0 mm 0.83 in21.1 mm
09:22 AM 49.1°F9.5°C 44.5°F6.9°C 84% 1.3 mph NE2.1 kmh NE 2.2 mph3.5 kmh 29.85 in1010.8 mb 0.00 in0.0 mm 0.00 in0.0 mm 0.83 in21.1 mm
09:23 AM 49.1°F9.5°C 44.5°F6.9°C 84% Calm Calm -- 29.86 in1011.2 mb 0.00 in0.0 mm 0.00 in0.0 mm 0.83 in21.1 mm
09:24 AM 49.1°F9.5°C 45.1°F7.3°C 86% Calm Calm -- 29.85 in1010.8 mb 0.00 in0.0 mm 0.00 in0.0 mm 0.83 in21.1 mm
09:25 AM 49.3°F9.6°C 45.0°F7.2°C 85% 0.2 mph NE0.3 kmh NE 1.1 mph1.8 kmh 29.85 in1010.8 mb 0.05 in1.3 mm 3.00 in76.2 mm 0.84 in21.3 mm
09:26 AM 49.3°F9.6°C 45.0°F7.2°C 85% 0.2 mph NE0.3 kmh NE 1.1 mph1.8 kmh 29.84 in1010.5 mb 0.05 in1.3 mm 0.00 in0.0 mm 0.84 in21.3 mm
09:27 AM 49.1°F9.5°C 44.5°F6.9°C 84% Calm Calm -- 29.85 in1010.8 mb 0.05 in1.3 mm 0.00 in0.0 mm 0.84 in21.3 mm
09:28 AM 49.1°F9.5°C 44.5°F6.9°C 84% Calm Calm -- 29.85 in1010.8 mb 0.12 in3.0 mm 4.20 in106.7 mm 0.85 in21.6 mm
09:29 AM 49.1°F9.5°C 44.8°F7.1°C 85% Calm Calm -- 29.85 in1010.8 mb 0.12 in3.0 mm 0.00 in0.0 mm 0.85 in21.6 mm
09:31 AM 49.1°F9.5°C 44.8°F7.1°C 85% 1.6 mph NNE2.6 kmh NNE 2.2 mph3.5 kmh 29.85 in1010.8 mb 0.12 in3.0 mm 0.00 in0.0 mm 0.85 in21.6 mm
09:33 AM 48.9°F9.4°C 44.6°F7.0°C 85% Calm Calm -- 29.85 in1010.8 mb 0.12 in3.0 mm 0.00 in0.0 mm 0.85 in21.6 mm
09:34 AM 48.9°F9.4°C 44.9°F7.2°C 86% Calm Calm -- 29.85 in1010.8 mb 0.12 in3.0 mm 0.00 in0.0 mm 0.85 in21.6 mm
09:36 AM 48.9°F9.4°C 45.5°F7.5°C 88% Calm Calm -- 29.84 in1010.5 mb 0.07 in1.8 mm 0.00 in0.0 mm 0.85 in21.6 mm
09:37 AM 49.1°F9.5°C 45.7°F7.6°C 88% 0.9 mph NNE1.4 kmh NNE 1.1 mph1.8 kmh 29.84 in1010.5 mb 0.07 in1.8 mm 0.00 in0.0 mm 0.85 in21.6 mm
09:38 AM 48.9°F9.4°C 45.5°F7.5°C 88% 1.1 mph NNE1.8 kmh NNE 1.1 mph1.8 kmh 29.84 in1010.5 mb 0.00 in0.0 mm 0.00 in0.0 mm 0.85 in21.6 mm
09:39 AM 48.9°F9.4°C 45.2°F7.3°C 87% 0.7 mph NNE1.1 kmh NNE 1.1 mph1.8 kmh 29.84 in1010.5 mb 0.00 in0.0 mm 0.00 in0.0 mm 0.85 in21.6 mm
09:40 AM 48.9°F9.4°C 45.8°F7.7°C 89% Calm Calm -- 29.85 in1010.8 mb 0.00 in0.0 mm 0.00 in0.0 mm 0.85 in21.6 mm
09:41 AM 48.9°F9.4°C 45.8°F7.7°C 89% Calm Calm -- 29.85 in1010.8 mb 0.00 in0.0 mm 0.00 in0.0 mm 0.85 in21.6 mm
09:42 AM 48.9°F9.4°C 45.5°F7.5°C 88% 1.8 mph N2.9 kmh N 2.2 mph3.5 kmh 29.85 in1010.8 mb 0.00 in0.0 mm 0.00 in0.0 mm 0.85 in21.6 mm
09:43 AM 48.9°F9.4°C 45.5°F7.5°C 88% 0.4 mph N0.6 kmh N 1.1 mph1.8 kmh 29.86 in1011.2 mb 0.00 in0.0 mm 0.00 in0.0 mm 0.85 in21.6 mm
09:44 AM 48.9°F9.4°C 45.8°F7.7°C 89% 0.2 mph N0.3 kmh N 1.1 mph1.8 kmh 29.86 in1011.2 mb 0.00 in0.0 mm 0.00 in0.0 mm 0.85 in21.6 mm
09:45 AM 48.9°F9.4°C 45.8°F7.7°C 89% Calm Calm -- 29.85 in1010.8 mb 0.00 in0.0 mm 0.00 in0.0 mm 0.85 in21.6 mm
09:46 AM 49.1°F9.5°C 46.0°F7.8°C 89% 0.2 mph NNE0.3 kmh NNE 1.1 mph1.8 kmh 29.85 in1010.8 mb 0.00 in0.0 mm 0.00 in0.0 mm 0.85 in21.6 mm
09:47 AM 49.3°F9.6°C 45.9°F7.7°C 88% 0.7 mph NNE1.1 kmh NNE 1.1 mph1.8 kmh 29.86 in1011.2 mb 0.00 in0.0 mm 0.00 in0.0 mm 0.85 in21.6 mm
09:48 AM 49.3°F9.6°C 45.9°F7.7°C 88% Calm Calm -- 29.86 in1011.2 mb 0.00 in0.0 mm 0.00 in0.0 mm 0.85 in21.6 mm
09:49 AM 49.5°F9.7°C 46.4°F8.0°C 89% Calm Calm -- 29.85 in1010.8 mb 0.00 in0.0 mm 0.00 in0.0 mm 0.85 in21.6 mm
09:50 AM 49.5°F9.7°C 46.4°F8.0°C 89% Calm Calm -- 29.85 in1010.8 mb 0.00 in0.0 mm 0.00 in0.0 mm 0.85 in21.6 mm
09:51 AM 49.5°F9.7°C 45.8°F7.7°C 87% Calm Calm -- 29.85 in1010.8 mb 0.00 in0.0 mm 0.00 in0.0 mm 0.85 in21.6 mm
09:52 AM 49.5°F9.7°C 46.4°F8.0°C 89% 1.8 mph NNE2.9 kmh NNE 2.2 mph3.5 kmh 29.85 in1010.8 mb 0.00 in0.0 mm 0.00 in0.0 mm 0.85 in21.6 mm
09:53 AM 49.3°F9.6°C 45.9°F7.7°C 88% 1.1 mph NNE1.8 kmh NNE 1.1 mph1.8 kmh 29.85 in1010.8 mb 0.00 in0.0 mm 0.00 in0.0 mm 0.85 in21.6 mm
09:54 AM 49.5°F9.7°C 46.4°F8.0°C 89% 0.9 mph NNE1.4 kmh NNE 1.1 mph1.8 kmh 29.84 in1010.5 mb 0.00 in0.0 mm 0.00 in0.0 mm 0.85 in21.6 mm
09:55 AM 49.5°F9.7°C 45.8°F7.7°C 87% 2.0 mph NNE3.2 kmh NNE 2.2 mph3.5 kmh 29.85 in1010.8 mb 0.00 in0.0 mm 0.00 in0.0 mm 0.85 in21.6 mm
09:56 AM 49.5°F9.7°C 45.8°F7.7°C 87% 1.3 mph NNE2.1 kmh NNE 2.2 mph3.5 kmh 29.85 in1010.8 mb 0.00 in0.0 mm 0.00 in0.0 mm 0.85 in21.6 mm
09:57 AM 49.5°F9.7°C 45.8°F7.7°C 87% 0.2 mph NNE0.3 kmh NNE 1.1 mph1.8 kmh 29.85 in1010.8 mb 0.00 in0.0 mm 0.00 in0.0 mm 0.85 in21.6 mm
09:58 AM 49.5°F9.7°C 45.8°F7.7°C 87% 0.7 mph NNE1.1 kmh NNE 1.1 mph1.8 kmh 29.85 in1010.8 mb 0.00 in0.0 mm 0.00 in0.0 mm 0.85 in21.6 mm
09:59 AM 49.5°F9.7°C 45.8°F7.7°C 87% Calm Calm -- 29.85 in1010.8 mb 0.00 in0.0 mm 0.00 in0.0 mm 0.85 in21.6 mm
10:00 AM 49.5°F9.7°C 45.5°F7.5°C 86% Calm Calm -- 29.85 in1010.8 mb 0.00 in0.0 mm 0.00 in0.0 mm 0.85 in21.6 mm
10:01 AM 49.5°F9.7°C 46.1°F7.8°C 88% Calm Calm -- 29.85 in1010.8 mb 0.00 in0.0 mm 0.00 in0.0 mm 0.85 in21.6 mm
10:02 AM 49.6°F9.8°C 45.9°F7.7°C 87% 1.1 mph NNE1.8 kmh NNE 1.1 mph1.8 kmh 29.85 in1010.8 mb 0.00 in0.0 mm 0.00 in0.0 mm 0.85 in21.6 mm
10:03 AM 49.6°F9.8°C 45.0°F7.2°C 84% 1.1 mph NNE1.8 kmh NNE 1.1 mph1.8 kmh 29.85 in1010.8 mb 0.00 in0.0 mm 0.00 in0.0 mm 0.85 in21.6 mm
10:04 AM 49.6°F9.8°C 45.6°F7.6°C 86% 1.3 mph NNE2.1 kmh NNE 2.2 mph3.5 kmh 29.85 in1010.8 mb 0.00 in0.0 mm 0.00 in0.0 mm 0.85 in21.6 mm
10:06 AM 49.8°F9.9°C 45.5°F7.5°C 85% 1.6 mph NNE2.6 kmh NNE 2.2 mph3.5 kmh 29.86 in1011.2 mb 0.00 in0.0 mm 0.00 in0.0 mm 0.85 in21.6 mm
10:07 AM 49.8°F9.9°C 46.1°F7.8°C 87% 3.1 mph NW5.0 kmh NW 4.5 mph7.2 kmh 29.86 in1011.2 mb 0.00 in0.0 mm 0.00 in0.0 mm 0.85 in21.6 mm
10:08 AM 49.8°F9.9°C 45.8°F7.7°C 86% 2.5 mph NW4.0 kmh NW 3.4 mph5.5 kmh 29.85 in1010.8 mb 0.00 in0.0 mm 0.00 in0.0 mm 0.85 in21.6 mm
10:09 AM 49.8°F9.9°C 46.1°F7.8°C 87% 1.6 mph NNW2.6 kmh NNW 2.2 mph3.5 kmh 29.85 in1010.8 mb 0.00 in0.0 mm 0.00 in0.0 mm 0.85 in21.6 mm
10:10 AM 49.6°F9.8°C 45.9°F7.7°C 87% 2.5 mph NNW4.0 kmh NNW 3.4 mph5.5 kmh 29.85 in1010.8 mb 0.00 in0.0 mm 0.00 in0.0 mm 0.85 in21.6 mm
10:11 AM 49.8°F9.9°C 46.1°F7.8°C 87% 2.2 mph NNW3.5 kmh NNW 2.2 mph3.5 kmh 29.86 in1011.2 mb 0.00 in0.0 mm 0.00 in0.0 mm 0.85 in21.6 mm
10:12 AM 49.8°F9.9°C 46.1°F7.8°C 87% 0.9 mph N1.4 kmh N 1.1 mph1.8 kmh 29.86 in1011.2 mb 0.00 in0.0 mm 0.00 in0.0 mm 0.85 in21.6 mm
10:13 AM 49.8°F9.9°C 46.1°F7.8°C 87% Calm Calm -- 29.86 in1011.2 mb 0.00 in0.0 mm 0.00 in0.0 mm 0.85 in21.6 mm
10:14 AM 49.8°F9.9°C 46.4°F8.0°C 88% Calm Calm -- 29.86 in1011.2 mb 0.00 in0.0 mm 0.00 in0.0 mm 0.85 in21.6 mm
10:16 AM 50.0°F10.0°C 46.6°F8.1°C 88% 0.2 mph NE0.3 kmh NE 1.1 mph1.8 kmh 29.86 in1011.2 mb 0.00 in0.0 mm 0.00 in0.0 mm 0.85 in21.6 mm
10:17 AM 50.2°F10.1°C 46.5°F8.1°C 87% Calm Calm -- 29.86 in1011.2 mb 0.00 in0.0 mm 0.00 in0.0 mm 0.85 in21.6 mm
10:18 AM 50.2°F10.1°C 45.9°F7.7°C 85% 0.9 mph NE1.4 kmh NE 1.1 mph1.8 kmh 29.85 in1010.8 mb 0.00 in0.0 mm 0.00 in0.0 mm 0.85 in21.6 mm
10:19 AM 50.2°F10.1°C 46.2°F7.9°C 86% Calm Calm -- 29.85 in1010.8 mb 0.00 in0.0 mm 0.00 in0.0 mm 0.85 in21.6 mm
10:20 AM 50.2°F10.1°C 45.9°F7.7°C 85% 1.3 mph NE2.1 kmh NE 2.2 mph3.5 kmh 29.85 in1010.8 mb 0.00 in0.0 mm 0.00 in0.0 mm 0.85 in21.6 mm
10:21 AM 50.2°F10.1°C 46.2°F7.9°C 86% 2.7 mph NE4.3 kmh NE 3.4 mph5.5 kmh 29.85 in1010.8 mb 0.00 in0.0 mm 0.00 in0.0 mm 0.85 in21.6 mm
10:22 AM 50.0°F10.0°C 46.3°F7.9°C 87% 0.2 mph NE0.3 kmh NE 1.1 mph1.8 kmh 29.85 in1010.8 mb 0.00 in0.0 mm 0.00 in0.0 mm 0.85 in21.6 mm
10:23 AM 50.0°F10.0°C 46.0°F7.8°C 86% Calm Calm -- 29.86 in1011.2 mb 0.00 in0.0 mm 0.00 in0.0 mm 0.85 in21.6 mm
10:24 AM 50.0°F10.0°C 46.3°F7.9°C 87% Calm Calm -- 29.86 in1011.2 mb 0.00 in0.0 mm 0.00 in0.0 mm 0.85 in21.6 mm
10:25 AM 50.0°F10.0°C 46.0°F7.8°C 86% 1.6 mph NE2.6 kmh NE 2.2 mph3.5 kmh 29.85 in1010.8 mb 0.00 in0.0 mm 0.00 in0.0 mm 0.85 in21.6 mm
10:27 AM 50.0°F10.0°C 46.9°F8.3°C 89% 2.5 mph NE4.0 kmh NE 3.4 mph5.5 kmh 29.84 in1010.5 mb 0.05 in1.3 mm 1.50 in38.1 mm 0.86 in21.8 mm
10:29 AM 50.0°F10.0°C 46.3°F7.9°C 87% 2.7 mph NW4.3 kmh NW 3.4 mph5.5 kmh 29.85 in1010.8 mb 0.05 in1.3 mm 0.00 in0.0 mm 0.86 in21.8 mm
10:30 AM 49.8°F9.9°C 46.4°F8.0°C 88% 0.9 mph NW1.4 kmh NW 2.2 mph3.5 kmh 29.84 in1010.5 mb 0.05 in1.3 mm 0.00 in0.0 mm 0.86 in21.8 mm
10:31 AM 49.5°F9.7°C 46.4°F8.0°C 89% Calm Calm -- 29.85 in1010.8 mb 0.05 in1.3 mm 0.00 in0.0 mm 0.86 in21.8 mm
10:32 AM 49.5°F9.7°C 46.7°F8.2°C 90% 0.9 mph NW1.4 kmh NW 1.1 mph1.8 kmh 29.85 in1010.8 mb 0.05 in1.3 mm 0.00 in0.0 mm 0.86 in21.8 mm
10:34 AM 49.6°F9.8°C 47.1°F8.4°C 91% 1.3 mph NW2.1 kmh NW 2.2 mph3.5 kmh 29.85 in1010.8 mb 0.12 in3.0 mm 2.10 in53.3 mm 0.87 in22.1 mm
10:35 AM 49.6°F9.8°C 47.1°F8.4°C 91% 1.1 mph NW1.8 kmh NW 1.1 mph1.8 kmh 29.85 in1010.8 mb 0.07 in1.8 mm 0.00 in0.0 mm 0.87 in22.1 mm
10:36 AM 49.6°F9.8°C 46.8°F8.2°C 90% 3.1 mph NNW5.0 kmh NNW 3.4 mph5.5 kmh 29.85 in1010.8 mb 0.07 in1.8 mm 0.00 in0.0 mm 0.87 in22.1 mm
10:37 AM 49.5°F9.7°C 46.4°F8.0°C 89% 1.1 mph NNW1.8 kmh NNW 1.1 mph1.8 kmh 29.85 in1010.8 mb 0.07 in1.8 mm 0.00 in0.0 mm 0.87 in22.1 mm
10:38 AM 49.5°F9.7°C 46.7°F8.2°C 90% 1.1 mph N1.8 kmh N 1.1 mph1.8 kmh 29.86 in1011.2 mb 0.07 in1.8 mm 0.00 in0.0 mm 0.87 in22.1 mm
10:39 AM 49.5°F9.7°C 46.4°F8.0°C 89% 1.1 mph N1.8 kmh N 1.1 mph1.8 kmh 29.86 in1011.2 mb 0.07 in1.8 mm 0.00 in0.0 mm 0.87 in22.1 mm
10:40 AM 49.6°F9.8°C 46.5°F8.1°C 89% 0.7 mph N1.1 kmh N 1.1 mph1.8 kmh 29.85 in1010.8 mb 0.07 in1.8 mm 0.00 in0.0 mm 0.87 in22.1 mm
10:41 AM 49.6°F9.8°C 46.8°F8.2°C 90% Calm Calm -- 29.85 in1010.8 mb 0.07 in1.8 mm 0.00 in0.0 mm 0.87 in22.1 mm
10:43 AM 49.6°F9.8°C 46.5°F8.1°C 89% 0.7 mph N1.1 kmh N 1.1 mph1.8 kmh 29.85 in1010.8 mb 0.07 in1.8 mm 0.00 in0.0 mm 0.87 in22.1 mm
10:44 AM 49.5°F9.7°C 46.4°F8.0°C 89% 0.9 mph N1.4 kmh N 1.1 mph1.8 kmh 29.85 in1010.8 mb 0.00 in0.0 mm 0.00 in0.0 mm 0.87 in22.1 mm
10:45 AM 49.5°F9.7°C 46.4°F8.0°C 89% Calm Calm -- 29.85 in1010.8 mb 0.00 in0.0 mm 0.00 in0.0 mm 0.87 in22.1 mm
10:46 AM 49.5°F9.7°C 46.4°F8.0°C 89% 0.2 mph N0.3 kmh N 1.1 mph1.8 kmh 29.85 in1010.8 mb 0.07 in1.8 mm 4.20 in106.7 mm 0.88 in22.4 mm
10:47 AM 49.5°F9.7°C 46.4°F8.0°C 89% 0.7 mph N1.1 kmh N 1.1 mph1.8 kmh 29.85 in1010.8 mb 0.07 in1.8 mm 0.00 in0.0 mm 0.88 in22.4 mm
10:48 AM 49.5°F9.7°C 46.7°F8.2°C 90% 0.9 mph N1.4 kmh N 1.1 mph1.8 kmh 29.85 in1010.8 mb 0.07 in1.8 mm 0.00 in0.0 mm 0.88 in22.4 mm
10:49 AM 49.5°F9.7°C 46.7°F8.2°C 90% 0.9 mph N1.4 kmh N 1.1 mph1.8 kmh 29.84 in1010.5 mb 0.07 in1.8 mm 0.00 in0.0 mm 0.88 in22.4 mm
10:50 AM 49.5°F9.7°C 46.7°F8.2°C 90% Calm Calm -- 29.85 in1010.8 mb 0.07 in1.8 mm 0.00 in0.0 mm 0.88 in22.4 mm
10:51 AM 49.5°F9.7°C 46.7°F8.2°C 90% Calm Calm -- 29.85 in1010.8 mb 0.07 in1.8 mm 0.00 in0.0 mm 0.88 in22.4 mm
10:52 AM 49.5°F9.7°C 47.3°F8.5°C 92% Calm Calm -- 29.85 in1010.8 mb 0.07 in1.8 mm 0.00 in0.0 mm 0.88 in22.4 mm
10:53 AM 49.5°F9.7°C 47.3°F8.5°C 92% Calm Calm -- 29.85 in1010.8 mb 0.07 in1.8 mm 0.00 in0.0 mm 0.88 in22.4 mm
10:54 AM 49.6°F9.8°C 47.4°F8.6°C 92% Calm Calm -- 29.85 in1010.8 mb 0.07 in1.8 mm 0.00 in0.0 mm 0.88 in22.4 mm
10:55 AM 49.6°F9.8°C 47.7°F8.7°C 93% Calm Calm -- 29.85 in1010.8 mb 0.00 in0.0 mm 0.00 in0.0 mm 0.88 in22.4 mm
10:56 AM 49.6°F9.8°C 47.4°F8.6°C 92% 0.2 mph N0.3 kmh N 1.1 mph1.8 kmh 29.85 in1010.8 mb 0.00 in0.0 mm 0.00 in0.0 mm 0.88 in22.4 mm
10:57 AM 49.6°F9.8°C 47.7°F8.7°C 93% Calm Calm -- 29.85 in1010.8 mb 0.00 in0.0 mm 0.00 in0.0 mm 0.88 in22.4 mm
10:58 AM 49.6°F9.8°C 47.7°F8.7°C 93% Calm Calm -- 29.85 in1010.8 mb 0.05 in1.3 mm 3.00 in76.2 mm 0.89 in22.6 mm
10:59 AM 49.6°F9.8°C 47.4°F8.6°C 92% Calm Calm -- 29.85 in1010.8 mb 0.05 in1.3 mm 0.00 in0.0 mm 0.89 in22.6 mm
11:00 AM 49.6°F9.8°C 47.4°F8.6°C 92% 0.2 mph N0.3 kmh N 1.1 mph1.8 kmh 29.86 in1011.2 mb 0.05 in1.3 mm 0.00 in0.0 mm 0.89 in22.6 mm
11:01 AM 49.6°F9.8°C 47.1°F8.4°C 91% 0.9 mph N1.4 kmh N 1.1 mph1.8 kmh 29.85 in1010.8 mb 0.05 in1.3 mm 0.00 in0.0 mm 0.89 in22.6 mm
11:02 AM 49.6°F9.8°C 47.4°F8.6°C 92% Calm Calm -- 29.84 in1010.5 mb 0.05 in1.3 mm 0.00 in0.0 mm 0.89 in22.6 mm
11:03 AM 49.8°F9.9°C 47.3°F8.5°C 91% Calm Calm -- 29.85 in1010.8 mb 0.05 in1.3 mm 0.00 in0.0 mm 0.89 in22.6 mm
11:04 AM 49.8°F9.9°C 47.0°F8.3°C 90% Calm Calm -- 29.85 in1010.8 mb 0.05 in1.3 mm 0.00 in0.0 mm 0.89 in22.6 mm
11:05 AM 49.8°F9.9°C 46.7°F8.2°C 89% Calm Calm -- 29.85 in1010.8 mb 0.05 in1.3 mm 0.00 in0.0 mm 0.89 in22.6 mm
11:06 AM 50.2°F10.1°C 47.1°F8.4°C 89% 1.1 mph ENE1.8 kmh ENE 1.1 mph1.8 kmh 29.84 in1010.5 mb 0.05 in1.3 mm 0.00 in0.0 mm 0.89 in22.6 mm
11:07 AM 51.1°F10.6°C 48.6°F9.2°C 91% Calm Calm -- 29.84 in1010.5 mb 0.00 in0.0 mm 0.00 in0.0 mm 0.89 in22.6 mm
11:08 AM 51.8°F11.0°C 48.4°F9.1°C 88% 1.3 mph ENE2.1 kmh ENE 2.2 mph3.5 kmh 29.85 in1010.8 mb 0.00 in0.0 mm 0.00 in0.0 mm 0.89 in22.6 mm
11:09 AM 52.0°F11.1°C 48.9°F9.4°C 89% 2.0 mph NE3.2 kmh NE 2.2 mph3.5 kmh 29.84 in1010.5 mb 0.00 in0.0 mm 0.00 in0.0 mm 0.89 in22.6 mm
11:10 AM 52.0°F11.1°C 48.3°F9.1°C 87% 1.6 mph NE2.6 kmh NE 2.2 mph3.5 kmh 29.84 in1010.5 mb 0.00 in0.0 mm 0.00 in0.0 mm 0.89 in22.6 mm
11:12 AM 52.0°F11.1°C 48.9°F9.4°C 89% 2.0 mph N3.2 kmh N 2.2 mph3.5 kmh 29.83 in1010.2 mb 0.00 in0.0 mm 0.00 in0.0 mm 0.89 in22.6 mm
11:13 AM 52.0°F11.1°C 48.9°F9.4°C 89% 2.0 mph N3.2 kmh N 2.2 mph3.5 kmh 29.84 in1010.5 mb 0.00 in0.0 mm 0.00 in0.0 mm 0.89 in22.6 mm
11:14 AM 52.2°F11.2°C 48.4°F9.1°C 87% 3.4 mph NW5.5 kmh NW 4.5 mph7.2 kmh 29.83 in1010.2 mb 0.00 in0.0 mm 0.00 in0.0 mm 0.89 in22.6 mm
11:15 AM 52.2°F11.2°C 47.8°F8.8°C 85% 1.8 mph W2.9 kmh W 2.2 mph3.5 kmh 29.84 in1010.5 mb 0.00 in0.0 mm 0.00 in0.0 mm 0.89 in22.6 mm
11:16 AM 51.8°F11.0°C 47.7°F8.7°C 86% 3.1 mph W5.0 kmh W 4.5 mph7.2 kmh 29.84 in1010.5 mb 0.00 in0.0 mm 0.00 in0.0 mm 0.89 in22.6 mm
11:17 AM 51.8°F11.0°C 47.7°F8.7°C 86% 4.0 mph NW6.4 kmh NW 4.5 mph7.2 kmh 29.84 in1010.5 mb 0.00 in0.0 mm 0.00 in0.0 mm 0.89 in22.6 mm
11:18 AM 52.0°F11.1°C 47.6°F8.7°C 85% 3.4 mph NW5.5 kmh NW 4.5 mph7.2 kmh 29.83 in1010.2 mb 0.00 in0.0 mm 0.00 in0.0 mm 0.89 in22.6 mm
11:19 AM 52.2°F11.2°C 48.4°F9.1°C 87% 2.2 mph N3.5 kmh N 3.4 mph5.5 kmh 29.84 in1010.5 mb 0.00 in0.0 mm 0.00 in0.0 mm 0.89 in22.6 mm
11:20 AM 52.3°F11.3°C 48.5°F9.2°C 87% 0.7 mph NW1.1 kmh NW 1.1 mph1.8 kmh 29.85 in1010.8 mb 0.00 in0.0 mm 0.00 in0.0 mm 0.89 in22.6 mm
11:22 AM 52.7°F11.5°C 48.9°F9.4°C 87% 0.9 mph WNW1.4 kmh WNW 1.1 mph1.8 kmh 29.84 in1010.5 mb 0.00 in0.0 mm 0.00 in0.0 mm 0.89 in22.6 mm
11:23 AM 52.9°F11.6°C 48.8°F9.3°C 86% Calm Calm -- 29.85 in1010.8 mb 0.00 in0.0 mm 0.00 in0.0 mm 0.89 in22.6 mm
11:24 AM 52.9°F11.6°C 49.4°F9.7°C 88% 0.4 mph W0.6 kmh W 1.1 mph1.8 kmh 29.85 in1010.8 mb 0.00 in0.0 mm 0.00 in0.0 mm 0.89 in22.6 mm
11:25 AM 53.1°F11.7°C 48.4°F9.1°C 84% 2.9 mph SSW4.7 kmh SSW 3.4 mph5.5 kmh 29.84 in1010.5 mb 0.00 in0.0 mm 0.00 in0.0 mm 0.89 in22.6 mm
11:26 AM 53.1°F11.7°C 48.4°F9.1°C 84% 1.1 mph S1.8 kmh S 2.2 mph3.5 kmh 29.85 in1010.8 mb 0.00 in0.0 mm 0.00 in0.0 mm 0.89 in22.6 mm
11:27 AM 53.2°F11.8°C 48.2°F9.0°C 83% 1.8 mph SSE2.9 kmh SSE 2.2 mph3.5 kmh 29.85 in1010.8 mb 0.00 in0.0 mm 0.00 in0.0 mm 0.89 in22.6 mm
11:29 AM 53.4°F11.9°C 48.7°F9.3°C 84% Calm Calm -- 29.85 in1010.8 mb 0.00 in0.0 mm 0.00 in0.0 mm 0.89 in22.6 mm
11:30 AM 53.4°F11.9°C 49.3°F9.6°C 86% Calm Calm -- 29.85 in1010.8 mb 0.00 in0.0 mm 0.00 in0.0 mm 0.89 in22.6 mm
11:31 AM 53.6°F12.0°C 49.2°F9.6°C 85% 0.2 mph SE0.3 kmh SE 1.1 mph1.8 kmh 29.85 in1010.8 mb 0.00 in0.0 mm 0.00 in0.0 mm 0.89 in22.6 mm
11:32 AM 53.6°F12.0°C 49.2°F9.6°C 85% 0.2 mph ESE0.3 kmh ESE 1.1 mph1.8 kmh 29.85 in1010.8 mb 0.00 in0.0 mm 0.00 in0.0 mm 0.89 in22.6 mm
11:34 AM 53.6°F12.0°C 49.8°F9.9°C 87% 1.3 mph E2.1 kmh E 2.2 mph3.5 kmh 29.84 in1010.5 mb 0.00 in0.0 mm 0.00 in0.0 mm 0.89 in22.6 mm
11:35 AM 53.4°F11.9°C 49.9°F9.9°C 88% 0.9 mph E1.4 kmh E 1.1 mph1.8 kmh 29.84 in1010.5 mb 0.07 in1.8 mm 4.20 in106.7 mm 0.90 in22.9 mm
11:36 AM 53.1°F11.7°C 49.9°F9.9°C 89% 0.7 mph E1.1 kmh E 1.1 mph1.8 kmh 29.85 in1010.8 mb 0.07 in1.8 mm 0.00 in0.0 mm 0.90 in22.9 mm
11:37 AM 52.9°F11.6°C 50.0°F10.0°C 90% 0.4 mph E0.6 kmh E 1.1 mph1.8 kmh 29.85 in1010.8 mb 0.07 in1.8 mm 0.00 in0.0 mm 0.90 in22.9 mm
11:38 AM 52.9°F11.6°C 49.7°F9.8°C 89% 1.3 mph E2.1 kmh E 2.2 mph3.5 kmh 29.86 in1011.2 mb 0.07 in1.8 mm 0.00 in0.0 mm 0.90 in22.9 mm
11:39 AM 52.9°F11.6°C 50.0°F10.0°C 90% 0.9 mph E1.4 kmh E 1.1 mph1.8 kmh 29.85 in1010.8 mb 0.07 in1.8 mm 0.00 in0.0 mm 0.90 in22.9 mm
11:40 AM 52.7°F11.5°C 50.4°F10.2°C 92% 0.2 mph E0.3 kmh E 1.1 mph1.8 kmh 29.85 in1010.8 mb 0.07 in1.8 mm 0.00 in0.0 mm 0.90 in22.9 mm
11:41 AM 52.7°F11.5°C 50.1°F10.1°C 91% 0.4 mph E0.6 kmh E 1.1 mph1.8 kmh 29.85 in1010.8 mb 0.07 in1.8 mm 0.00 in0.0 mm 0.90 in22.9 mm
11:42 AM 53.1°F11.7°C 50.8°F10.4°C 92% 0.7 mph E1.1 kmh E 1.1 mph1.8 kmh 29.85 in1010.8 mb 0.07 in1.8 mm 0.00 in0.0 mm 0.90 in22.9 mm
11:43 AM 53.4°F11.9°C 51.1°F10.6°C 92% 0.2 mph E0.3 kmh E 1.1 mph1.8 kmh 29.84 in1010.5 mb 0.00 in0.0 mm 0.00 in0.0 mm 0.90 in22.9 mm
11:44 AM 53.8°F12.1°C 51.2°F10.7°C 91% 1.1 mph E1.8 kmh E 1.1 mph1.8 kmh 29.84 in1010.5 mb 0.00 in0.0 mm 0.00 in0.0 mm 0.90 in22.9 mm
11:45 AM 53.8°F12.1°C 51.5°F10.8°C 92% 0.2 mph E0.3 kmh E 1.1 mph1.8 kmh 29.85 in1010.8 mb 0.00 in0.0 mm 0.00 in0.0 mm 0.90 in22.9 mm
11:46 AM 53.8°F12.1°C 51.5°F10.8°C 92% 0.4 mph E0.6 kmh E 1.1 mph1.8 kmh 29.84 in1010.5 mb 0.00 in0.0 mm 0.00 in0.0 mm 0.90 in22.9 mm
11:47 AM 53.8°F12.1°C 51.5°F10.8°C 92% Calm Calm -- 29.85 in1010.8 mb 0.00 in0.0 mm 0.00 in0.0 mm 0.90 in22.9 mm
11:48 AM 54.0°F12.2°C 51.1°F10.6°C 90% 0.9 mph E1.4 kmh E 1.1 mph1.8 kmh 29.85 in1010.8 mb 0.00 in0.0 mm 0.00 in0.0 mm 0.90 in22.9 mm
11:49 AM 54.3°F12.4°C 52.3°F11.3°C 93% Calm Calm -- 29.85 in1010.8 mb 0.00 in0.0 mm 0.00 in0.0 mm 0.90 in22.9 mm
11:50 AM 54.9°F12.7°C 52.0°F11.1°C 90% Calm Calm -- 29.85 in1010.8 mb 0.00 in0.0 mm 0.00 in0.0 mm 0.90 in22.9 mm
11:51 AM 55.9°F13.3°C 52.4°F11.3°C 88% Calm Calm -- 29.84 in1010.5 mb 0.00 in0.0 mm 0.00 in0.0 mm 0.90 in22.9 mm
11:52 AM 56.1°F13.4°C 52.3°F11.3°C 87% Calm Calm -- 29.84 in1010.5 mb 0.00 in0.0 mm 0.00 in0.0 mm 0.90 in22.9 mm
11:53 AM 56.3°F13.5°C 50.5°F10.3°C 81% Calm Calm -- 29.83 in1010.2 mb 0.00 in0.0 mm 0.00 in0.0 mm 0.90 in22.9 mm
11:55 AM 56.3°F13.5°C 51.2°F10.7°C 83% 0.9 mph ESE1.4 kmh ESE 1.1 mph1.8 kmh 29.84 in1010.5 mb 0.00 in0.0 mm 0.00 in0.0 mm 0.90 in22.9 mm
11:56 AM 57.2°F14.0°C 51.1°F10.6°C 80% Calm Calm -- 29.85 in1010.8 mb 0.00 in0.0 mm 0.00 in0.0 mm 0.90 in22.9 mm
11:57 AM 57.6°F14.2°C 51.8°F11.0°C 81% 0.2 mph ESE0.3 kmh ESE 1.1 mph1.8 kmh 29.85 in1010.8 mb 0.00 in0.0 mm 0.00 in0.0 mm 0.90 in22.9 mm
11:58 AM 57.7°F14.3°C 51.9°F11.1°C 81% 1.1 mph SE1.8 kmh SE 1.1 mph1.8 kmh 29.85 in1010.8 mb 0.00 in0.0 mm 0.00 in0.0 mm 0.90 in22.9 mm
11:59 AM 57.7°F14.3°C 50.9°F10.5°C 78% Calm Calm -- 29.84 in1010.5 mb 0.00 in0.0 mm 0.00 in0.0 mm 0.90 in22.9 mm
12:00 PM 57.9°F14.4°C 51.8°F11.0°C 80% 0.2 mph SE0.3 kmh SE 1.1 mph1.8 kmh 29.85 in1010.8 mb 0.00 in0.0 mm 0.00 in0.0 mm 0.90 in22.9 mm
12:01 PM 58.1°F14.5°C 50.6°F10.3°C 76% 0.2 mph SE0.3 kmh SE 1.1 mph1.8 kmh 29.84 in1010.5 mb 0.00 in0.0 mm 0.00 in0.0 mm 0.90 in22.9 mm
12:02 PM 58.1°F14.5°C 49.9°F9.9°C 74% 0.9 mph SE1.4 kmh SE 1.1 mph1.8 kmh 29.84 in1010.5 mb 0.00 in0.0 mm 0.00 in0.0 mm 0.90 in22.9 mm
12:03 PM 58.1°F14.5°C 51.6°F10.9°C 79% 0.7 mph SE1.1 kmh SE 1.1 mph1.8 kmh 29.84 in1010.5 mb 0.00 in0.0 mm 0.00 in0.0 mm 0.90 in22.9 mm
12:04 PM 58.1°F14.5°C 50.6°F10.3°C 76% 0.2 mph SE0.3 kmh SE 1.1 mph1.8 kmh 29.84 in1010.5 mb 0.00 in0.0 mm 0.00 in0.0 mm 0.90 in22.9 mm
12:05 PM 58.3°F14.6°C 51.5°F10.8°C 78% Calm Calm -- 29.84 in1010.5 mb 0.00 in0.0 mm 0.00 in0.0 mm 0.90 in22.9 mm
12:06 PM 58.5°F14.7°C 52.0°F11.1°C 79% 1.1 mph SE1.8 kmh SE 1.1 mph1.8 kmh 29.84 in1010.5 mb 0.00 in0.0 mm 0.00 in0.0 mm 0.90 in22.9 mm
12:07 PM 58.6°F14.8°C 52.1°F11.2°C 79% 0.9 mph SE1.4 kmh SE 1.1 mph1.8 kmh 29.84 in1010.5 mb 0.00 in0.0 mm 0.00 in0.0 mm 0.90 in22.9 mm
12:08 PM 58.6°F14.8°C 52.4°F11.3°C 80% 0.2 mph SE0.3 kmh SE 1.1 mph1.8 kmh 29.83 in1010.2 mb 0.00 in0.0 mm 0.00 in0.0 mm 0.90 in22.9 mm
12:09 PM 58.8°F14.9°C 52.3°F11.3°C 79% Calm Calm -- 29.84 in1010.5 mb 0.00 in0.0 mm 0.00 in0.0 mm 0.90 in22.9 mm
12:10 PM 59.2°F15.1°C 52.3°F11.3°C 78% Calm Calm -- 29.83 in1010.2 mb 0.00 in0.0 mm 0.00 in0.0 mm 0.90 in22.9 mm
12:11 PM 59.0°F15.0°C 51.4°F10.8°C 76% 1.3 mph SE2.1 kmh SE 2.2 mph3.5 kmh 29.84 in1010.5 mb 0.00 in0.0 mm 0.00 in0.0 mm 0.90 in22.9 mm
12:12 PM 58.8°F14.9°C 50.5°F10.3°C 74% 1.3 mph SE2.1 kmh SE 2.2 mph3.5 kmh 29.84 in1010.5 mb 0.00 in0.0 mm 0.00 in0.0 mm 0.90 in22.9 mm
12:13 PM 58.6°F14.8°C 51.1°F10.6°C 76% 1.6 mph SSE2.6 kmh SSE 2.2 mph3.5 kmh 29.84 in1010.5 mb 0.00 in0.0 mm 0.00 in0.0 mm 0.90 in22.9 mm
12:14 PM 58.5°F14.7°C 51.3°F10.7°C 77% 0.2 mph SE0.3 kmh SE 1.1 mph1.8 kmh 29.83 in1010.2 mb 0.00 in0.0 mm 0.00 in0.0 mm 0.90 in22.9 mm
12:15 PM 58.1°F14.5°C 50.9°F10.5°C 77% 1.6 mph E2.6 kmh E 2.2 mph3.5 kmh 29.84 in1010.5 mb 0.00 in0.0 mm 0.00 in0.0 mm 0.90 in22.9 mm
12:17 PM 57.7°F14.3°C 51.6°F10.9°C 80% 1.8 mph SE2.9 kmh SE 2.2 mph3.5 kmh 29.83 in1010.2 mb 0.05 in1.3 mm 1.50 in38.1 mm 0.91 in23.1 mm
12:18 PM 57.6°F14.2°C 51.5°F10.8°C 80% 1.1 mph ESE1.8 kmh ESE 1.1 mph1.8 kmh 29.84 in1010.5 mb 0.05 in1.3 mm 0.00 in0.0 mm 0.91 in23.1 mm
12:19 PM 57.0°F13.9°C 50.9°F10.5°C 80% 0.9 mph ESE1.4 kmh ESE 1.1 mph1.8 kmh 29.83 in1010.2 mb 0.05 in1.3 mm 0.00 in0.0 mm 0.91 in23.1 mm
12:20 PM 56.8°F13.8°C 50.7°F10.4°C 80% 1.3 mph SSW2.1 kmh SSW 3.4 mph5.5 kmh 29.83 in1010.2 mb 0.12 in3.0 mm 4.20 in106.7 mm 0.92 in23.4 mm
12:21 PM 56.8°F13.8°C 52.0°F11.1°C 84% 0.2 mph ESE0.3 kmh ESE 1.1 mph1.8 kmh 29.84 in1010.5 mb 0.12 in3.0 mm 0.00 in0.0 mm 0.92 in23.4 mm
12:22 PM 56.8°F13.8°C 52.3°F11.3°C 85% Calm Calm -- 29.84 in1010.5 mb 0.12 in3.0 mm 0.00 in0.0 mm 0.92 in23.4 mm
12:23 PM 56.8°F13.8°C 51.4°F10.8°C 82% 2.2 mph SE3.5 kmh SE 2.2 mph3.5 kmh 29.84 in1010.5 mb 0.12 in3.0 mm 0.00 in0.0 mm 0.92 in23.4 mm
12:25 PM 56.3°F13.5°C 50.9°F10.5°C 82% 2.0 mph SE3.2 kmh SE 2.2 mph3.5 kmh 29.83 in1010.2 mb 0.12 in3.0 mm 0.00 in0.0 mm 0.92 in23.4 mm
12:27 PM 56.1°F13.4°C 51.0°F10.6°C 83% 1.8 mph SE2.9 kmh SE 2.2 mph3.5 kmh 29.84 in1010.5 mb 0.07 in1.8 mm 0.00 in0.0 mm 0.92 in23.4 mm
12:28 PM 55.8°F13.2°C 51.7°F10.9°C 86% 1.1 mph E1.8 kmh E 2.2 mph3.5 kmh 29.83 in1010.2 mb 0.07 in1.8 mm 0.00 in0.0 mm 0.92 in23.4 mm
12:29 PM 55.6°F13.1°C 51.2°F10.7°C 85% 0.9 mph E1.4 kmh E 1.1 mph1.8 kmh 29.84 in1010.5 mb 0.07 in1.8 mm 0.00 in0.0 mm 0.92 in23.4 mm
12:30 PM 55.6°F13.1°C 51.8°F11.0°C 87% Calm Calm -- 29.84 in1010.5 mb 0.00 in0.0 mm 0.00 in0.0 mm 0.92 in23.4 mm
12:31 PM 55.6°F13.1°C 51.8°F11.0°C 87% 1.1 mph ESE1.8 kmh ESE 2.2 mph3.5 kmh 29.84 in1010.5 mb 0.00 in0.0 mm 0.00 in0.0 mm 0.92 in23.4 mm
12:32 PM 55.6°F13.1°C 52.1°F11.2°C 88% Calm Calm -- 29.84 in1010.5 mb 0.00 in0.0 mm 0.00 in0.0 mm 0.92 in23.4 mm
12:33 PM 55.6°F13.1°C 51.8°F11.0°C 87% 1.1 mph ESE1.8 kmh ESE 1.1 mph1.8 kmh 29.84 in1010.5 mb 0.00 in0.0 mm 0.00 in0.0 mm 0.92 in23.4 mm
12:34 PM 55.4°F13.0°C 51.0°F10.6°C 85% 0.9 mph ESE1.4 kmh ESE 1.1 mph1.8 kmh 29.84 in1010.5 mb 0.05 in1.3 mm 3.00 in76.2 mm 0.93 in23.6 mm
12:36 PM 55.2°F12.9°C 51.4°F10.8°C 87% Calm Calm -- 29.84 in1010.5 mb 0.05 in1.3 mm 0.00 in0.0 mm 0.93 in23.6 mm
12:37 PM 55.2°F12.9°C 51.1°F10.6°C 86% Calm Calm -- 29.84 in1010.5 mb 0.05 in1.3 mm 0.00 in0.0 mm 0.93 in23.6 mm
12:38 PM 55.2°F12.9°C 51.1°F10.6°C 86% Calm Calm -- 29.84 in1010.5 mb 0.05 in1.3 mm 0.00 in0.0 mm 0.93 in23.6 mm
12:40 PM 55.2°F12.9°C 51.4°F10.8°C 87% 0.2 mph ESE0.3 kmh ESE 1.1 mph1.8 kmh 29.84 in1010.5 mb 0.05 in1.3 mm 0.00 in0.0 mm 0.93 in23.6 mm
12:41 PM 55.0°F12.8°C 51.5°F10.8°C 88% Calm Calm -- 29.84 in1010.5 mb 0.05 in1.3 mm 0.00 in0.0 mm 0.93 in23.6 mm
12:42 PM 54.9°F12.7°C 51.4°F10.8°C 88% Calm Calm -- 29.84 in1010.5 mb 0.05 in1.3 mm 0.00 in0.0 mm 0.93 in23.6 mm
12:43 PM 54.9°F12.7°C 51.7°F10.9°C 89% Calm Calm -- 29.84 in1010.5 mb 0.00 in0.0 mm 0.00 in0.0 mm 0.93 in23.6 mm
12:44 PM 54.9°F12.7°C 51.1°F10.6°C 87% Calm Calm -- 29.85 in1010.8 mb 0.00 in0.0 mm 0.00 in0.0 mm 0.93 in23.6 mm
12:45 PM 54.9°F12.7°C 51.4°F10.8°C 88% Calm Calm -- 29.85 in1010.8 mb 0.00 in0.0 mm 0.00 in0.0 mm 0.93 in23.6 mm
12:46 PM 54.7°F12.6°C 51.5°F10.8°C 89% 0.9 mph ESE1.4 kmh ESE 1.1 mph1.8 kmh 29.83 in1010.2 mb 0.00 in0.0 mm 0.00 in0.0 mm 0.93 in23.6 mm
12:47 PM 54.7°F12.6°C 50.9°F10.5°C 87% 0.7 mph ESE1.1 kmh ESE 1.1 mph1.8 kmh 29.84 in1010.5 mb 0.00 in0.0 mm 0.00 in0.0 mm 0.93 in23.6 mm
12:48 PM 54.5°F12.5°C 50.7°F10.4°C 87% 1.1 mph ESE1.8 kmh ESE 1.1 mph1.8 kmh 29.84 in1010.5 mb 0.00 in0.0 mm 0.00 in0.0 mm 0.93 in23.6 mm
12:49 PM 54.5°F12.5°C 50.7°F10.4°C 87% 0.9 mph ESE1.4 kmh ESE 1.1 mph1.8 kmh 29.84 in1010.5 mb 0.00 in0.0 mm 0.00 in0.0 mm 0.93 in23.6 mm
12:50 PM 54.5°F12.5°C 51.0°F10.6°C 88% Calm Calm -- 29.84 in1010.5 mb 0.00 in0.0 mm 0.00 in0.0 mm 0.93 in23.6 mm
12:51 PM 54.5°F12.5°C 50.7°F10.4°C 87% 0.7 mph E1.1 kmh E 1.1 mph1.8 kmh 29.83 in1010.2 mb 0.00 in0.0 mm 0.00 in0.0 mm 0.93 in23.6 mm
12:52 PM 54.5°F12.5°C 51.0°F10.6°C 88% 0.2 mph E0.3 kmh E 1.1 mph1.8 kmh 29.83 in1010.2 mb 0.00 in0.0 mm 0.00 in0.0 mm 0.93 in23.6 mm
12:54 PM 54.5°F12.5°C 50.4°F10.2°C 86% 1.3 mph E2.1 kmh E 2.2 mph3.5 kmh 29.83 in1010.2 mb 0.00 in0.0 mm 0.00 in0.0 mm 0.93 in23.6 mm
12:55 PM 54.3°F12.4°C 49.9°F9.9°C 85% 1.3 mph ENE2.1 kmh ENE 2.2 mph3.5 kmh 29.83 in1010.2 mb 0.00 in0.0 mm 0.00 in0.0 mm 0.93 in23.6 mm
12:56 PM 54.3°F12.4°C 49.9°F9.9°C 85% Calm Calm -- 29.83 in1010.2 mb 0.00 in0.0 mm 0.00 in0.0 mm 0.93 in23.6 mm
12:57 PM 54.3°F12.4°C 50.5°F10.3°C 87% Calm Calm -- 29.83 in1010.2 mb 0.00 in0.0 mm 0.00 in0.0 mm 0.93 in23.6 mm
12:58 PM 54.3°F12.4°C 50.5°F10.3°C 87% Calm Calm -- 29.83 in1010.2 mb 0.00 in0.0 mm 0.00 in0.0 mm 0.93 in23.6 mm
12:59 PM 54.5°F12.5°C 51.0°F10.6°C 88% Calm Calm -- 29.84 in1010.5 mb 0.00 in0.0 mm 0.00 in0.0 mm 0.93 in23.6 mm
01:00 PM 54.7°F12.6°C 50.6°F10.3°C 86% 0.9 mph E1.4 kmh E 1.1 mph1.8 kmh 29.83 in1010.2 mb 0.00 in0.0 mm 0.00 in0.0 mm 0.93 in23.6 mm
01:01 PM 54.9°F12.7°C 50.8°F10.4°C 86% 0.7 mph E1.1 kmh E 1.1 mph1.8 kmh 29.83 in1010.2 mb 0.00 in0.0 mm 0.00 in0.0 mm 0.93 in23.6 mm
01:03 PM 54.9°F12.7°C 51.4°F10.8°C 88% 0.7 mph E1.1 kmh E 1.1 mph1.8 kmh 29.83 in1010.2 mb 0.00 in0.0 mm 0.00 in0.0 mm 0.93 in23.6 mm
01:05 PM 54.7°F12.6°C 50.9°F10.5°C 87% Calm Calm -- 29.83 in1010.2 mb 0.00 in0.0 mm 0.00 in0.0 mm 0.93 in23.6 mm
01:06 PM 54.7°F12.6°C 50.6°F10.3°C 86% Calm Calm -- 29.83 in1010.2 mb 0.00 in0.0 mm 0.00 in0.0 mm 0.93 in23.6 mm
01:07 PM 54.7°F12.6°C 50.9°F10.5°C 87% Calm Calm -- 29.83 in1010.2 mb 0.00 in0.0 mm 0.00 in0.0 mm 0.93 in23.6 mm
01:08 PM 54.9°F12.7°C 51.4°F10.8°C 88% Calm Calm -- 29.83 in1010.2 mb 0.00 in0.0 mm 0.00 in0.0 mm 0.93 in23.6 mm
01:09 PM 54.9°F12.7°C 51.1°F10.6°C 87% Calm Calm -- 29.83 in1010.2 mb 0.00 in0.0 mm 0.00 in0.0 mm 0.93 in23.6 mm
01:10 PM 54.9°F12.7°C 51.1°F10.6°C 87% Calm Calm -- 29.83 in1010.2 mb 0.00 in0.0 mm 0.00 in0.0 mm 0.93 in23.6 mm
01:11 PM 54.9°F12.7°C 50.8°F10.4°C 86% Calm Calm -- 29.83 in1010.2 mb 0.00 in0.0 mm 0.00 in0.0 mm 0.93 in23.6 mm
01:12 PM 55.0°F12.8°C 50.6°F10.3°C 85% 0.2 mph E0.3 kmh E 1.1 mph1.8 kmh 29.83 in1010.2 mb 0.07 in1.8 mm 4.20 in106.7 mm 0.94 in23.9 mm
01:14 PM 54.9°F12.7°C 51.1°F10.6°C 87% Calm Calm -- 29.83 in1010.2 mb 0.07 in1.8 mm 0.00 in0.0 mm 0.94 in23.9 mm
01:15 PM 54.5°F12.5°C 51.3°F10.7°C 89% 0.4 mph E0.6 kmh E 1.1 mph1.8 kmh 29.84 in1010.5 mb 0.07 in1.8 mm 0.00 in0.0 mm 0.94 in23.9 mm
01:16 PM 54.3°F12.4°C 49.9°F9.9°C 85% 0.9 mph E1.4 kmh E 1.1 mph1.8 kmh 29.84 in1010.5 mb 0.07 in1.8 mm 0.00 in0.0 mm 0.94 in23.9 mm
01:18 PM 54.1°F12.3°C 50.6°F10.3°C 88% 0.2 mph E0.3 kmh E 1.1 mph1.8 kmh 29.84 in1010.5 mb 0.07 in1.8 mm 0.00 in0.0 mm 0.94 in23.9 mm
01:19 PM 54.1°F12.3°C 50.9°F10.5°C 89% Calm Calm -- 29.84 in1010.5 mb 0.12 in3.0 mm 3.00 in76.2 mm 0.95 in24.1 mm
01:20 PM 54.1°F12.3°C 51.2°F10.7°C 90% Calm Calm -- 29.83 in1010.2 mb 0.12 in3.0 mm 0.00 in0.0 mm 0.95 in24.1 mm
01:22 PM 54.0°F12.2°C 51.4°F10.8°C 91% 0.7 mph E1.1 kmh E 1.1 mph1.8 kmh 29.84 in1010.5 mb 0.05 in1.3 mm 0.00 in0.0 mm 0.95 in24.1 mm
01:23 PM 53.8°F12.1°C 51.5°F10.8°C 92% 0.2 mph E0.3 kmh E 1.1 mph1.8 kmh 29.83 in1010.2 mb 0.05 in1.3 mm 0.00 in0.0 mm 0.95 in24.1 mm
01:24 PM 53.8°F12.1°C 51.8°F11.0°C 93% 0.2 mph E0.3 kmh E 1.1 mph1.8 kmh 29.83 in1010.2 mb 0.05 in1.3 mm 0.00 in0.0 mm 0.95 in24.1 mm
01:25 PM 53.8°F12.1°C 51.8°F11.0°C 93% 0.2 mph E0.3 kmh E 1.1 mph1.8 kmh 29.83 in1010.2 mb 0.05 in1.3 mm 0.00 in0.0 mm 0.95 in24.1 mm
01:26 PM 53.8°F12.1°C 52.1°F11.2°C 94% Calm Calm -- 29.83 in1010.2 mb 0.05 in1.3 mm 0.00 in0.0 mm 0.95 in24.1 mm
01:27 PM 53.8°F12.1°C 52.1°F11.2°C 94% 0.2 mph E0.3 kmh E 1.1 mph1.8 kmh 29.83 in1010.2 mb 0.05 in1.3 mm 0.00 in0.0 mm 0.95 in24.1 mm
01:28 PM 53.8°F12.1°C 51.8°F11.0°C 93% 0.2 mph E0.3 kmh E 1.1 mph1.8 kmh 29.83 in1010.2 mb 0.05 in1.3 mm 0.00 in0.0 mm 0.95 in24.1 mm
01:29 PM 53.8°F12.1°C 51.5°F10.8°C 92% 0.7 mph E1.1 kmh E 1.1 mph1.8 kmh 29.84 in1010.5 mb 0.05 in1.3 mm 0.00 in0.0 mm 0.95 in24.1 mm
01:31 PM 53.4°F11.9°C 51.1°F10.6°C 92% 0.2 mph E0.3 kmh E 1.1 mph1.8 kmh 29.83 in1010.2 mb 0.00 in0.0 mm 0.00 in0.0 mm 0.95 in24.1 mm
01:35 PM 53.6°F12.0°C 51.3°F10.7°C 92% Calm Calm -- 29.84 in1010.5 mb 0.00 in0.0 mm 0.00 in0.0 mm 0.95 in24.1 mm
01:36 PM 53.4°F11.9°C 51.1°F10.6°C 92% Calm Calm -- 29.84 in1010.5 mb 0.07 in1.8 mm 4.20 in106.7 mm 0.96 in24.4 mm
01:37 PM 53.4°F11.9°C 51.1°F10.6°C 92% 0.9 mph E1.4 kmh E 1.1 mph1.8 kmh 29.84 in1010.5 mb 0.07 in1.8 mm 0.00 in0.0 mm 0.96 in24.4 mm
01:38 PM 53.4°F11.9°C 49.9°F9.9°C 88% 1.1 mph E1.8 kmh E 1.1 mph1.8 kmh 29.84 in1010.5 mb 0.07 in1.8 mm 0.00 in0.0 mm 0.96 in24.4 mm
01:39 PM 53.4°F11.9°C 50.5°F10.3°C 90% 1.6 mph E2.6 kmh E 2.2 mph3.5 kmh 29.84 in1010.5 mb 0.12 in3.0 mm 3.00 in76.2 mm 0.97 in24.6 mm
01:40 PM 53.8°F12.1°C 51.2°F10.7°C 91% 1.1 mph E1.8 kmh E 1.1 mph1.8 kmh 29.83 in1010.2 mb 0.12 in3.0 mm 0.00 in0.0 mm 0.97 in24.6 mm
01:41 PM 54.1°F12.3°C 51.5°F10.8°C 91% 2.2 mph E3.5 kmh E 2.2 mph3.5 kmh 29.83 in1010.2 mb 0.12 in3.0 mm 0.00 in0.0 mm 0.97 in24.6 mm
01:43 PM 54.5°F12.5°C 51.9°F11.1°C 91% 1.3 mph E2.1 kmh E 2.2 mph3.5 kmh 29.83 in1010.2 mb 0.12 in3.0 mm 0.00 in0.0 mm 0.97 in24.6 mm
01:44 PM 54.5°F12.5°C 51.9°F11.1°C 91% 0.2 mph E0.3 kmh E 1.1 mph1.8 kmh 29.83 in1010.2 mb 0.12 in3.0 mm 0.00 in0.0 mm 0.97 in24.6 mm
01:45 PM 54.5°F12.5°C 52.2°F11.2°C 92% 0.2 mph E0.3 kmh E 1.1 mph1.8 kmh 29.83 in1010.2 mb 0.12 in3.0 mm 0.00 in0.0 mm 0.97 in24.6 mm
01:46 PM 54.7°F12.6°C 51.8°F11.0°C 90% 0.9 mph E1.4 kmh E 1.1 mph1.8 kmh 29.83 in1010.2 mb 0.05 in1.3 mm 0.00 in0.0 mm 0.97 in24.6 mm
01:47 PM 55.0°F12.8°C 52.1°F11.2°C 90% 0.9 mph E1.4 kmh E 1.1 mph1.8 kmh 29.83 in1010.2 mb 0.05 in1.3 mm 0.00 in0.0 mm 0.97 in24.6 mm
01:49 PM 55.0°F12.8°C 51.2°F10.7°C 87% 1.8 mph E2.9 kmh E 2.2 mph3.5 kmh 29.83 in1010.2 mb 0.00 in0.0 mm 0.00 in0.0 mm 0.97 in24.6 mm
01:50 PM 54.9°F12.7°C 51.7°F10.9°C 89% 0.2 mph E0.3 kmh E 1.1 mph1.8 kmh 29.83 in1010.2 mb 0.00 in0.0 mm 0.00 in0.0 mm 0.97 in24.6 mm
01:52 PM 54.7°F12.6°C 51.8°F11.0°C 90% Calm Calm -- 29.83 in1010.2 mb 0.00 in0.0 mm 0.00 in0.0 mm 0.97 in24.6 mm
01:54 PM 55.0°F12.8°C 50.9°F10.5°C 86% 0.2 mph E0.3 kmh E 1.1 mph1.8 kmh 29.83 in1010.2 mb 0.00 in0.0 mm 0.00 in0.0 mm 0.97 in24.6 mm
01:55 PM 55.2°F12.9°C 52.0°F11.1°C 89% Calm Calm -- 29.83 in1010.2 mb 0.00 in0.0 mm 0.00 in0.0 mm 0.97 in24.6 mm
01:56 PM 55.2°F12.9°C 51.4°F10.8°C 87% 1.1 mph E1.8 kmh E 1.1 mph1.8 kmh 29.83 in1010.2 mb 0.00 in0.0 mm 0.00 in0.0 mm 0.97 in24.6 mm
01:57 PM 55.2°F12.9°C 51.7°F10.9°C 88% 1.1 mph E1.8 kmh E 1.1 mph1.8 kmh 29.83 in1010.2 mb 0.00 in0.0 mm 0.00 in0.0 mm 0.97 in24.6 mm
01:58 PM 55.2°F12.9°C 51.4°F10.8°C 87% 1.3 mph ESE2.1 kmh ESE 2.2 mph3.5 kmh 29.83 in1010.2 mb 0.00 in0.0 mm 0.00 in0.0 mm 0.97 in24.6 mm
01:59 PM 55.2°F12.9°C 51.4°F10.8°C 87% 0.7 mph ESE1.1 kmh ESE 1.1 mph1.8 kmh 29.83 in1010.2 mb 0.00 in0.0 mm 0.00 in0.0 mm 0.97 in24.6 mm
02:00 PM 55.2°F12.9°C 51.7°F10.9°C 88% 0.7 mph ESE1.1 kmh ESE 1.1 mph1.8 kmh 29.83 in1010.2 mb 0.00 in0.0 mm 0.00 in0.0 mm 0.97 in24.6 mm
02:01 PM 55.2°F12.9°C 52.0°F11.1°C 89% 0.2 mph ESE0.3 kmh ESE 1.1 mph1.8 kmh 29.83 in1010.2 mb 0.00 in0.0 mm 0.00 in0.0 mm 0.97 in24.6 mm
02:03 PM 55.2°F12.9°C 51.7°F10.9°C 88% 0.7 mph ESE1.1 kmh ESE 1.1 mph1.8 kmh 29.83 in1010.2 mb 0.00 in0.0 mm 0.00 in0.0 mm 0.97 in24.6 mm
02:05 PM 55.0°F12.8°C 51.5°F10.8°C 88% 1.3 mph E2.1 kmh E 2.2 mph3.5 kmh 29.82 in1009.8 mb 0.00 in0.0 mm 0.00 in0.0 mm 0.97 in24.6 mm
02:07 PM 54.7°F12.6°C 50.6°F10.3°C 86% 3.6 mph S5.8 kmh S 5.8 mph9.3 kmh 29.83 in1010.2 mb 0.00 in0.0 mm 0.00 in0.0 mm 0.97 in24.6 mm
02:08 PM 54.7°F12.6°C 50.9°F10.5°C 87% 1.8 mph E2.9 kmh E 2.2 mph3.5 kmh 29.83 in1010.2 mb 0.00 in0.0 mm 0.00 in0.0 mm 0.97 in24.6 mm
02:09 PM 54.7°F12.6°C 50.9°F10.5°C 87% 0.9 mph E1.4 kmh E 1.1 mph1.8 kmh 29.83 in1010.2 mb 0.00 in0.0 mm 0.00 in0.0 mm 0.97 in24.6 mm
02:10 PM 54.7°F12.6°C 51.2°F10.7°C 88% 1.6 mph ESE2.6 kmh ESE 2.2 mph3.5 kmh 29.83 in1010.2 mb 0.00 in0.0 mm 0.00 in0.0 mm 0.97 in24.6 mm
02:11 PM 54.9°F12.7°C 51.1°F10.6°C 87% 2.5 mph SSE4.0 kmh SSE 3.4 mph5.5 kmh 29.83 in1010.2 mb 0.00 in0.0 mm 0.00 in0.0 mm 0.97 in24.6 mm
02:12 PM 55.0°F12.8°C 50.9°F10.5°C 86% 3.8 mph SE6.1 kmh SE 4.5 mph7.2 kmh 29.83 in1010.2 mb 0.00 in0.0 mm 0.00 in0.0 mm 0.97 in24.6 mm
02:13 PM 55.0°F12.8°C 50.9°F10.5°C 86% 4.0 mph S6.4 kmh S 4.5 mph7.2 kmh 29.83 in1010.2 mb 0.00 in0.0 mm 0.00 in0.0 mm 0.97 in24.6 mm
02:14 PM 54.9°F12.7°C 51.4°F10.8°C 88% 1.6 mph SE2.6 kmh SE 2.2 mph3.5 kmh 29.83 in1010.2 mb 0.00 in0.0 mm 0.00 in0.0 mm 0.97 in24.6 mm
02:15 PM 54.7°F12.6°C 51.2°F10.7°C 88% 1.8 mph SE2.9 kmh SE 2.2 mph3.5 kmh 29.82 in1009.8 mb 0.00 in0.0 mm 0.00 in0.0 mm 0.97 in24.6 mm
02:16 PM 54.7°F12.6°C 50.9°F10.5°C 87% 2.5 mph SE4.0 kmh SE 3.4 mph5.5 kmh 29.83 in1010.2 mb 0.00 in0.0 mm 0.00 in0.0 mm 0.97 in24.6 mm
02:17 PM 54.3°F12.4°C 50.5°F10.3°C 87% 3.8 mph SE6.1 kmh SE 4.5 mph7.2 kmh 29.83 in1010.2 mb 0.00 in0.0 mm 0.00 in0.0 mm 0.97 in24.6 mm
02:18 PM 54.3°F12.4°C 50.5°F10.3°C 87% 2.9 mph SE4.7 kmh SE 5.8 mph9.3 kmh 29.83 in1010.2 mb 0.00 in0.0 mm 0.00 in0.0 mm 0.97 in24.6 mm
02:19 PM 54.3°F12.4°C 50.8°F10.4°C 88% 1.3 mph E2.1 kmh E 2.2 mph3.5 kmh 29.83 in1010.2 mb 0.00 in0.0 mm 0.00 in0.0 mm 0.97 in24.6 mm
02:20 PM 54.3°F12.4°C 50.8°F10.4°C 88% 1.1 mph E1.8 kmh E 2.2 mph3.5 kmh 29.83 in1010.2 mb 0.00 in0.0 mm 0.00 in0.0 mm 0.97 in24.6 mm
02:21 PM 54.3°F12.4°C 51.4°F10.8°C 90% 0.7 mph E1.1 kmh E 1.1 mph1.8 kmh 29.83 in1010.2 mb 0.00 in0.0 mm 0.00 in0.0 mm 0.97 in24.6 mm
02:22 PM 54.5°F12.5°C 51.6°F10.9°C 90% 0.7 mph E1.1 kmh E 1.1 mph1.8 kmh 29.83 in1010.2 mb 0.00 in0.0 mm 0.00 in0.0 mm 0.97 in24.6 mm
02:23 PM 54.5°F12.5°C 51.3°F10.7°C 89% 2.5 mph SE4.0 kmh SE 3.4 mph5.5 kmh 29.83 in1010.2 mb 0.00 in0.0 mm 0.00 in0.0 mm 0.97 in24.6 mm
02:24 PM 54.5°F12.5°C 51.6°F10.9°C 90% 1.1 mph E1.8 kmh E 2.2 mph3.5 kmh 29.82 in1009.8 mb 0.00 in0.0 mm 0.00 in0.0 mm 0.97 in24.6 mm
02:25 PM 54.7°F12.6°C 51.8°F11.0°C 90% 1.1 mph E1.8 kmh E 2.2 mph3.5 kmh 29.83 in1010.2 mb 0.00 in0.0 mm 0.00 in0.0 mm 0.97 in24.6 mm
02:27 PM 54.9°F12.7°C 52.3°F11.3°C 91% 0.7 mph E1.1 kmh E 1.1 mph1.8 kmh 29.82 in1009.8 mb 0.00 in0.0 mm 0.00 in0.0 mm 0.97 in24.6 mm
02:28 PM 55.0°F12.8°C 52.1°F11.2°C 90% 0.7 mph E1.1 kmh E 1.1 mph1.8 kmh 29.83 in1010.2 mb 0.00 in0.0 mm 0.00 in0.0 mm 0.97 in24.6 mm
02:29 PM 55.2°F12.9°C 52.6°F11.4°C 91% 0.9 mph E1.4 kmh E 1.1 mph1.8 kmh 29.83 in1010.2 mb 0.00 in0.0 mm 0.00 in0.0 mm 0.97 in24.6 mm
02:30 PM 55.2°F12.9°C 51.7°F10.9°C 88% 0.7 mph E1.1 kmh E 1.1 mph1.8 kmh 29.82 in1009.8 mb 0.00 in0.0 mm 0.00 in0.0 mm 0.97 in24.6 mm
02:31 PM 55.4°F13.0°C 52.2°F11.2°C 89% 0.9 mph E1.4 kmh E 1.1 mph1.8 kmh 29.83 in1010.2 mb 0.00 in0.0 mm 0.00 in0.0 mm 0.97 in24.6 mm
02:32 PM 55.6°F13.1°C 52.7°F11.5°C 90% Calm Calm -- 29.82 in1009.8 mb 0.00 in0.0 mm 0.00 in0.0 mm 0.97 in24.6 mm
02:33 PM 55.8°F13.2°C 52.0°F11.1°C 87% Calm Calm -- 29.82 in1009.8 mb 0.00 in0.0 mm 0.00 in0.0 mm 0.97 in24.6 mm
02:35 PM 55.9°F13.3°C 52.1°F11.2°C 87% 0.9 mph E1.4 kmh E 1.1 mph1.8 kmh 29.83 in1010.2 mb 0.00 in0.0 mm 0.00 in0.0 mm 0.97 in24.6 mm
02:36 PM 55.9°F13.3°C 51.5°F10.8°C 85% 0.7 mph ESE1.1 kmh ESE 1.1 mph1.8 kmh 29.82 in1009.8 mb 0.00 in0.0 mm 0.00 in0.0 mm 0.97 in24.6 mm
02:37 PM 56.1°F13.4°C 52.3°F11.3°C 87% 0.9 mph ESE1.4 kmh ESE 1.1 mph1.8 kmh 29.82 in1009.8 mb 0.00 in0.0 mm 0.00 in0.0 mm 0.97 in24.6 mm
02:38 PM 56.1°F13.4°C 51.7°F10.9°C 85% 0.7 mph ESE1.1 kmh ESE 1.1 mph1.8 kmh 29.82 in1009.8 mb 0.00 in0.0 mm 0.00 in0.0 mm 0.97 in24.6 mm
02:40 PM 56.5°F13.6°C 52.4°F11.3°C 86% 1.3 mph ESE2.1 kmh ESE 2.2 mph3.5 kmh 29.82 in1009.8 mb 0.00 in0.0 mm 0.00 in0.0 mm 0.97 in24.6 mm
02:41 PM 56.5°F13.6°C 51.7°F10.9°C 84% 2.2 mph SE3.5 kmh SE 2.2 mph3.5 kmh 29.83 in1010.2 mb 0.00 in0.0 mm 0.00 in0.0 mm 0.97 in24.6 mm
02:42 PM 56.3°F13.5°C 52.2°F11.2°C 86% 0.9 mph SE1.4 kmh SE 1.1 mph1.8 kmh 29.82 in1009.8 mb 0.00 in0.0 mm 0.00 in0.0 mm 0.97 in24.6 mm
02:43 PM 56.5°F13.6°C 53.0°F11.7°C 88% 0.9 mph SE1.4 kmh SE 1.1 mph1.8 kmh 29.82 in1009.8 mb 0.00 in0.0 mm 0.00 in0.0 mm 0.97 in24.6 mm
02:44 PM 56.5°F13.6°C 52.7°F11.5°C 87% 0.9 mph SE1.4 kmh SE 1.1 mph1.8 kmh 29.83 in1010.2 mb 0.00 in0.0 mm 0.00 in0.0 mm 0.97 in24.6 mm
02:45 PM 56.5°F13.6°C 52.0°F11.1°C 85% 1.3 mph SE2.1 kmh SE 2.2 mph3.5 kmh 29.82 in1009.8 mb 0.00 in0.0 mm 0.00 in0.0 mm 0.97 in24.6 mm
02:47 PM 56.5°F13.6°C 52.0°F11.1°C 85% 1.8 mph SE2.9 kmh SE 2.2 mph3.5 kmh 29.83 in1010.2 mb 0.00 in0.0 mm 0.00 in0.0 mm 0.97 in24.6 mm
02:49 PM 56.5°F13.6°C 52.7°F11.5°C 87% 1.3 mph ESE2.1 kmh ESE 2.2 mph3.5 kmh 29.82 in1009.8 mb 0.00 in0.0 mm 0.00 in0.0 mm 0.97 in24.6 mm
02:50 PM 56.5°F13.6°C 52.4°F11.3°C 86% 1.6 mph ESE2.6 kmh ESE 2.2 mph3.5 kmh 29.82 in1009.8 mb 0.00 in0.0 mm 0.00 in0.0 mm 0.97 in24.6 mm
02:51 PM 56.5°F13.6°C 52.4°F11.3°C 86% 1.3 mph ESE2.1 kmh ESE 2.2 mph3.5 kmh 29.81 in1009.5 mb 0.00 in0.0 mm 0.00 in0.0 mm 0.97 in24.6 mm
02:52 PM 56.5°F13.6°C 52.0°F11.1°C 85% 2.0 mph E3.2 kmh E 2.2 mph3.5 kmh 29.81 in1009.5 mb 0.00 in0.0 mm 0.00 in0.0 mm 0.97 in24.6 mm
02:53 PM 56.5°F13.6°C 52.4°F11.3°C 86% 1.1 mph E1.8 kmh E 2.2 mph3.5 kmh 29.81 in1009.5 mb 0.00 in0.0 mm 0.00 in0.0 mm 0.97 in24.6 mm
02:54 PM 56.7°F13.7°C 52.2°F11.2°C 85% 1.6 mph ESE2.6 kmh ESE 2.2 mph3.5 kmh 29.81 in1009.5 mb 0.00 in0.0 mm 0.00 in0.0 mm 0.97 in24.6 mm
02:55 PM 56.7°F13.7°C 52.9°F11.6°C 87% 0.9 mph ESE1.4 kmh ESE 1.1 mph1.8 kmh 29.81 in1009.5 mb 0.00 in0.0 mm 0.00 in0.0 mm 0.97 in24.6 mm
02:57 PM 56.7°F13.7°C 52.2°F11.2°C 85% 1.6 mph SE2.6 kmh SE 2.2 mph3.5 kmh 29.81 in1009.5 mb 0.00 in0.0 mm 0.00 in0.0 mm 0.97 in24.6 mm
02:58 PM 56.7°F13.7°C 52.6°F11.4°C 86% 1.3 mph SE2.1 kmh SE 2.2 mph3.5 kmh 29.81 in1009.5 mb 0.00 in0.0 mm 0.00 in0.0 mm 0.97 in24.6 mm
03:00 PM 56.8°F13.8°C 52.0°F11.1°C 84% 2.9 mph SE4.7 kmh SE 3.4 mph5.5 kmh 29.81 in1009.5 mb 0.00 in0.0 mm 0.00 in0.0 mm 0.97 in24.6 mm
03:01 PM 57.0°F13.9°C 52.2°F11.2°C 84% 3.6 mph SE5.8 kmh SE 4.5 mph7.2 kmh 29.82 in1009.8 mb 0.00 in0.0 mm 0.00 in0.0 mm 0.97 in24.6 mm
03:02 PM 57.0°F13.9°C 52.2°F11.2°C 84% 2.5 mph S4.0 kmh S 3.4 mph5.5 kmh 29.81 in1009.5 mb 0.00 in0.0 mm 0.00 in0.0 mm 0.97 in24.6 mm
03:03 PM 57.0°F13.9°C 52.2°F11.2°C 84% 1.8 mph SSE2.9 kmh SSE 2.2 mph3.5 kmh 29.82 in1009.8 mb 0.00 in0.0 mm 0.00 in0.0 mm 0.97 in24.6 mm
03:04 PM 57.2°F14.0°C 52.1°F11.2°C 83% 1.3 mph SE2.1 kmh SE 2.2 mph3.5 kmh 29.81 in1009.5 mb 0.00 in0.0 mm 0.00 in0.0 mm 0.97 in24.6 mm
03:05 PM 57.6°F14.2°C 52.8°F11.6°C 84% 1.3 mph SE2.1 kmh SE 2.2 mph3.5 kmh 29.82 in1009.8 mb 0.00 in0.0 mm 0.00 in0.0 mm 0.97 in24.6 mm
03:06 PM 57.7°F14.3°C 52.2°F11.2°C 82% 1.8 mph S2.9 kmh S 3.4 mph5.5 kmh 29.81 in1009.5 mb 0.00 in0.0 mm 0.00 in0.0 mm 0.97 in24.6 mm
03:07 PM 57.9°F14.4°C 52.8°F11.6°C 83% 1.3 mph SE2.1 kmh SE 2.2 mph3.5 kmh 29.81 in1009.5 mb 0.00 in0.0 mm 0.00 in0.0 mm 0.97 in24.6 mm
03:08 PM 57.9°F14.4°C 53.1°F11.7°C 84% 1.1 mph SE1.8 kmh SE 1.1 mph1.8 kmh 29.81 in1009.5 mb 0.00 in0.0 mm 0.00 in0.0 mm 0.97 in24.6 mm
03:09 PM 57.9°F14.4°C 52.8°F11.6°C 83% 1.8 mph E2.9 kmh E 2.2 mph3.5 kmh 29.82 in1009.8 mb 0.00 in0.0 mm 0.00 in0.0 mm 0.97 in24.6 mm
03:11 PM 57.6°F14.2°C 52.1°F11.2°C 82% 1.3 mph E2.1 kmh E 2.2 mph3.5 kmh 29.81 in1009.5 mb 0.00 in0.0 mm 0.00 in0.0 mm 0.97 in24.6 mm
03:12 PM 57.6°F14.2°C 51.8°F11.0°C 81% 2.5 mph SE4.0 kmh SE 3.4 mph5.5 kmh 29.81 in1009.5 mb 0.00 in0.0 mm 0.00 in0.0 mm 0.97 in24.6 mm
03:13 PM 57.4°F14.1°C 52.9°F11.6°C 85% 0.9 mph SE1.4 kmh SE 2.2 mph3.5 kmh 29.82 in1009.8 mb 0.00 in0.0 mm 0.00 in0.0 mm 0.97 in24.6 mm
03:14 PM 57.0°F13.9°C 52.2°F11.2°C 84% 1.1 mph SE1.8 kmh SE 1.1 mph1.8 kmh 29.81 in1009.5 mb 0.00 in0.0 mm 0.00 in0.0 mm 0.97 in24.6 mm
03:15 PM 57.0°F13.9°C 51.6°F10.9°C 82% 2.7 mph SE4.3 kmh SE 3.4 mph5.5 kmh 29.82 in1009.8 mb 0.00 in0.0 mm 0.00 in0.0 mm 0.97 in24.6 mm
03:16 PM 56.8°F13.8°C 52.0°F11.1°C 84% 1.6 mph SE2.6 kmh SE 2.2 mph3.5 kmh 29.82 in1009.8 mb 0.00 in0.0 mm 0.00 in0.0 mm 0.97 in24.6 mm
03:17 PM 56.7°F13.7°C 51.6°F10.9°C 83% 2.2 mph E3.5 kmh E 3.4 mph5.5 kmh 29.82 in1009.8 mb 0.00 in0.0 mm 0.00 in0.0 mm 0.97 in24.6 mm
03:19 PM 56.3°F13.5°C 51.2°F10.7°C 83% 2.0 mph ENE3.2 kmh ENE 2.2 mph3.5 kmh 29.82 in1009.8 mb 0.00 in0.0 mm 0.00 in0.0 mm 0.97 in24.6 mm
03:20 PM 56.1°F13.4°C 51.3°F10.7°C 84% 1.1 mph E1.8 kmh E 1.1 mph1.8 kmh 29.81 in1009.5 mb 0.00 in0.0 mm 0.00 in0.0 mm 0.97 in24.6 mm
03:21 PM 56.1°F13.4°C 51.7°F10.9°C 85% 0.2 mph E0.3 kmh E 1.1 mph1.8 kmh 29.81 in1009.5 mb 0.07 in1.8 mm 4.20 in106.7 mm 0.98 in24.9 mm
03:23 PM 56.1°F13.4°C 52.0°F11.1°C 86% 0.9 mph ENE1.4 kmh ENE 1.1 mph1.8 kmh 29.81 in1009.5 mb 0.07 in1.8 mm 0.00 in0.0 mm 0.98 in24.9 mm
03:24 PM 56.1°F13.4°C 51.7°F10.9°C 85% Calm Calm -- 29.82 in1009.8 mb 0.07 in1.8 mm 0.00 in0.0 mm 0.98 in24.9 mm
03:25 PM 56.1°F13.4°C 52.3°F11.3°C 87% 0.2 mph ENE0.3 kmh ENE 1.1 mph1.8 kmh 29.82 in1009.8 mb 0.07 in1.8 mm 0.00 in0.0 mm 0.98 in24.9 mm
03:26 PM 56.3°F13.5°C 52.5°F11.4°C 87% Calm Calm -- 29.82 in1009.8 mb 0.12 in3.0 mm 3.00 in76.2 mm 0.99 in25.1 mm
03:27 PM 56.3°F13.5°C 52.5°F11.4°C 87% 2.0 mph E3.2 kmh E 3.4 mph5.5 kmh 29.81 in1009.5 mb 0.12 in3.0 mm 0.00 in0.0 mm 0.99 in25.1 mm
03:29 PM 55.9°F13.3°C 52.1°F11.2°C 87% 2.0 mph E3.2 kmh E 3.4 mph5.5 kmh 29.81 in1009.5 mb 0.12 in3.0 mm 0.00 in0.0 mm 0.99 in25.1 mm
03:30 PM 55.6°F13.1°C 52.1°F11.2°C 88% 1.3 mph E2.1 kmh E 2.2 mph3.5 kmh 29.81 in1009.5 mb 0.12 in3.0 mm 0.00 in0.0 mm 0.99 in25.1 mm
03:31 PM 55.6°F13.1°C 51.8°F11.0°C 87% 1.8 mph E2.9 kmh E 2.2 mph3.5 kmh 29.81 in1009.5 mb 0.05 in1.3 mm 0.00 in0.0 mm 0.99 in25.1 mm
03:32 PM 55.6°F13.1°C 52.1°F11.2°C 88% 1.6 mph E2.6 kmh E 2.2 mph3.5 kmh 29.81 in1009.5 mb 0.05 in1.3 mm 0.00 in0.0 mm 0.99 in25.1 mm
03:33 PM 55.6°F13.1°C 52.4°F11.3°C 89% 1.8 mph E2.9 kmh E 2.2 mph3.5 kmh 29.81 in1009.5 mb 0.12 in3.0 mm 4.20 in106.7 mm 1.00 in25.4 mm
03:34 PM 55.6°F13.1°C 52.7°F11.5°C 90% 1.8 mph E2.9 kmh E 2.2 mph3.5 kmh 29.81 in1009.5 mb 0.12 in3.0 mm 0.00 in0.0 mm 1.00 in25.4 mm
03:35 PM 55.6°F13.1°C 52.7°F11.5°C 90% 1.1 mph E1.8 kmh E 1.1 mph1.8 kmh 29.81 in1009.5 mb 0.12 in3.0 mm 0.00 in0.0 mm 1.00 in25.4 mm
03:36 PM 55.6°F13.1°C 52.7°F11.5°C 90% 1.3 mph E2.1 kmh E 2.2 mph3.5 kmh 29.81 in1009.5 mb 0.07 in1.8 mm 0.00 in0.0 mm 1.00 in25.4 mm
03:37 PM 55.6°F13.1°C 53.0°F11.7°C 91% 0.2 mph E0.3 kmh E 1.1 mph1.8 kmh 29.81 in1009.5 mb 0.07 in1.8 mm 0.00 in0.0 mm 1.00 in25.4 mm
03:38 PM 55.6°F13.1°C 53.0°F11.7°C 91% Calm Calm -- 29.81 in1009.5 mb 0.07 in1.8 mm 0.00 in0.0 mm 1.00 in25.4 mm
03:39 PM 55.6°F13.1°C 53.3°F11.8°C 92% 0.9 mph E1.4 kmh E 2.2 mph3.5 kmh 29.81 in1009.5 mb 0.07 in1.8 mm 0.00 in0.0 mm 1.00 in25.4 mm
03:40 PM 55.6°F13.1°C 53.3°F11.8°C 92% Calm Calm -- 29.81 in1009.5 mb 0.07 in1.8 mm 0.00 in0.0 mm 1.00 in25.4 mm
03:42 PM 55.6°F13.1°C 53.3°F11.8°C 92% 0.2 mph E0.3 kmh E 1.1 mph1.8 kmh 29.81 in1009.5 mb 0.07 in1.8 mm 0.00 in0.0 mm 1.00 in25.4 mm
03:43 PM 55.6°F13.1°C 53.0°F11.7°C 91% 2.2 mph E3.5 kmh E 3.4 mph5.5 kmh 29.81 in1009.5 mb 0.00 in0.0 mm 0.00 in0.0 mm 1.00 in25.4 mm
03:45 PM 55.6°F13.1°C 53.0°F11.7°C 91% 0.7 mph E1.1 kmh E 1.1 mph1.8 kmh 29.82 in1009.8 mb 0.00 in0.0 mm 0.00 in0.0 mm 1.00 in25.4 mm
03:46 PM 55.6°F13.1°C 53.0°F11.7°C 91% 0.7 mph E1.1 kmh E 1.1 mph1.8 kmh 29.81 in1009.5 mb 0.00 in0.0 mm 0.00 in0.0 mm 1.00 in25.4 mm
03:47 PM 55.4°F13.0°C 52.5°F11.4°C 90% 1.3 mph ESE2.1 kmh ESE 2.2 mph3.5 kmh 29.81 in1009.5 mb 0.00 in0.0 mm 0.00 in0.0 mm 1.00 in25.4 mm
03:49 PM 55.4°F13.0°C 52.2°F11.2°C 89% 2.5 mph E4.0 kmh E 3.4 mph5.5 kmh 29.82 in1009.8 mb 0.00 in0.0 mm 0.00 in0.0 mm 1.00 in25.4 mm
03:51 PM 55.6°F13.1°C 52.7°F11.5°C 90% Calm Calm -- 29.81 in1009.5 mb 0.00 in0.0 mm 0.00 in0.0 mm 1.00 in25.4 mm
03:52 PM 55.9°F13.3°C 53.0°F11.7°C 90% 0.2 mph E0.3 kmh E 1.1 mph1.8 kmh 29.81 in1009.5 mb 0.07 in1.8 mm 4.20 in106.7 mm 1.01 in25.7 mm
03:53 PM 55.9°F13.3°C 53.0°F11.7°C 90% 0.9 mph E1.4 kmh E 1.1 mph1.8 kmh 29.81 in1009.5 mb 0.07 in1.8 mm 0.00 in0.0 mm 1.01 in25.7 mm
03:54 PM 55.9°F13.3°C 52.4°F11.3°C 88% 2.9 mph SE4.7 kmh SE 3.4 mph5.5 kmh 29.81 in1009.5 mb 0.07 in1.8 mm 0.00 in0.0 mm 1.01 in25.7 mm
03:55 PM 55.9°F13.3°C 53.0°F11.7°C 90% 1.3 mph ESE2.1 kmh ESE 2.2 mph3.5 kmh 29.81 in1009.5 mb 0.07 in1.8 mm 0.00 in0.0 mm 1.01 in25.7 mm
03:56 PM 55.9°F13.3°C 53.3°F11.8°C 91% 1.1 mph E1.8 kmh E 1.1 mph1.8 kmh 29.81 in1009.5 mb 0.07 in1.8 mm 0.00 in0.0 mm 1.01 in25.7 mm
03:57 PM 55.9°F13.3°C 53.3°F11.8°C 91% Calm Calm -- 29.81 in1009.5 mb 0.07 in1.8 mm 0.00 in0.0 mm 1.01 in25.7 mm
03:58 PM 55.9°F13.3°C 53.0°F11.7°C 90% Calm Calm -- 29.81 in1009.5 mb 0.07 in1.8 mm 0.00 in0.0 mm 1.01 in25.7 mm
03:59 PM 55.9°F13.3°C 53.0°F11.7°C 90% 0.4 mph E0.6 kmh E 1.1 mph1.8 kmh 29.81 in1009.5 mb 0.07 in1.8 mm 0.00 in0.0 mm 1.01 in25.7 mm
04:00 PM 56.1°F13.4°C 52.9°F11.6°C 89% Calm Calm -- 29.81 in1009.5 mb 0.07 in1.8 mm 0.00 in0.0 mm 1.01 in25.7 mm
04:01 PM 56.5°F13.6°C 53.3°F11.8°C 89% 0.2 mph E0.3 kmh E 1.1 mph1.8 kmh 29.81 in1009.5 mb 0.07 in1.8 mm 0.00 in0.0 mm 1.01 in25.7 mm
04:02 PM 56.7°F13.7°C 53.5°F11.9°C 89% Calm Calm -- 29.82 in1009.8 mb 0.00 in0.0 mm 0.00 in0.0 mm 1.01 in25.7 mm
04:03 PM 56.8°F13.8°C 53.6°F12.0°C 89% Calm Calm -- 29.82 in1009.8 mb 0.00 in0.0 mm 0.00 in0.0 mm 1.01 in25.7 mm
04:04 PM 57.2°F14.0°C 53.4°F11.9°C 87% 1.6 mph E2.6 kmh E 2.2 mph3.5 kmh 29.81 in1009.5 mb 0.00 in0.0 mm 0.00 in0.0 mm 1.01 in25.7 mm
04:05 PM 57.2°F14.0°C 52.7°F11.5°C 85% 0.7 mph E1.1 kmh E 1.1 mph1.8 kmh 29.81 in1009.5 mb 0.00 in0.0 mm 0.00 in0.0 mm 1.01 in25.7 mm
04:07 PM 57.2°F14.0°C 52.7°F11.5°C 85% 1.1 mph ENE1.8 kmh ENE 1.1 mph1.8 kmh 29.81 in1009.5 mb 0.00 in0.0 mm 0.00 in0.0 mm 1.01 in25.7 mm
04:08 PM 57.4°F14.1°C 53.6°F12.0°C 87% 1.8 mph ENE2.9 kmh ENE 2.2 mph3.5 kmh 29.81 in1009.5 mb 0.00 in0.0 mm 0.00 in0.0 mm 1.01 in25.7 mm
04:09 PM 57.4°F14.1°C 52.9°F11.6°C 85% 1.3 mph NE2.1 kmh NE 2.2 mph3.5 kmh 29.82 in1009.8 mb 0.00 in0.0 mm 0.00 in0.0 mm 1.01 in25.7 mm
04:10 PM 57.4°F14.1°C 53.9°F12.2°C 88% Calm Calm -- 29.82 in1009.8 mb 0.00 in0.0 mm 0.00 in0.0 mm 1.01 in25.7 mm
04:11 PM 57.4°F14.1°C 53.6°F12.0°C 87% Calm Calm -- 29.82 in1009.8 mb 0.00 in0.0 mm 0.00 in0.0 mm 1.01 in25.7 mm
04:12 PM 57.4°F14.1°C 53.9°F12.2°C 88% Calm Calm -- 29.82 in1009.8 mb 0.00 in0.0 mm 0.00 in0.0 mm 1.01 in25.7 mm
04:13 PM 57.4°F14.1°C 53.9°F12.2°C 88% 1.1 mph ENE1.8 kmh ENE 2.2 mph3.5 kmh 29.82 in1009.8 mb 0.00 in0.0 mm 0.00 in0.0 mm 1.01 in25.7 mm
04:14 PM 57.4°F14.1°C 53.9°F12.2°C 88% 2.2 mph N3.5 kmh N 2.2 mph3.5 kmh 29.83 in1010.2 mb 0.00 in0.0 mm 0.00 in0.0 mm 1.01 in25.7 mm
04:15 PM 57.4°F14.1°C 53.9°F12.2°C 88% 4.9 mph NW7.9 kmh NW 5.8 mph9.3 kmh 29.83 in1010.2 mb 0.00 in0.0 mm 0.00 in0.0 mm 1.01 in25.7 mm
04:16 PM 57.2°F14.0°C 54.0°F12.2°C 89% 4.9 mph NW7.9 kmh NW 5.8 mph9.3 kmh 29.83 in1010.2 mb 0.05 in1.3 mm 3.00 in76.2 mm 1.02 in25.9 mm
04:17 PM 57.0°F13.9°C 53.8°F12.1°C 89% 4.9 mph WNW7.9 kmh WNW 5.8 mph9.3 kmh 29.82 in1009.8 mb 0.05 in1.3 mm 0.00 in0.0 mm 1.02 in25.9 mm
04:18 PM 56.8°F13.8°C 53.6°F12.0°C 89% 3.8 mph NNW6.1 kmh NNW 4.5 mph7.2 kmh 29.83 in1010.2 mb 0.05 in1.3 mm 0.00 in0.0 mm 1.02 in25.9 mm
04:19 PM 56.7°F13.7°C 53.5°F11.9°C 89% 2.5 mph N4.0 kmh N 3.4 mph5.5 kmh 29.83 in1010.2 mb 0.05 in1.3 mm 0.00 in0.0 mm 1.02 in25.9 mm
04:20 PM 56.5°F13.6°C 53.9°F12.2°C 91% 3.4 mph NNW5.5 kmh NNW 4.5 mph7.2 kmh 29.82 in1009.8 mb 0.05 in1.3 mm 0.00 in0.0 mm 1.02 in25.9 mm
04:21 PM 56.3°F13.5°C 53.4°F11.9°C 90% 3.1 mph N5.0 kmh N 3.4 mph5.5 kmh 29.82 in1009.8 mb 0.05 in1.3 mm 0.00 in0.0 mm 1.02 in25.9 mm
04:22 PM 56.1°F13.4°C 52.9°F11.6°C 89% 6.0 mph NW9.7 kmh NW 8.1 mph13.0 kmh 29.82 in1009.8 mb 0.12 in3.0 mm 4.20 in106.7 mm 1.03 in26.2 mm
04:23 PM 55.9°F13.3°C 52.7°F11.5°C 89% 4.0 mph NE6.4 kmh NE 6.9 mph11.1 kmh 29.82 in1009.8 mb 0.12 in3.0 mm 0.00 in0.0 mm 1.03 in26.2 mm
04:24 PM 55.8°F13.2°C 52.6°F11.4°C 89% 5.4 mph NW8.7 kmh NW 5.8 mph9.3 kmh 29.82 in1009.8 mb 0.12 in3.0 mm 0.00 in0.0 mm 1.03 in26.2 mm
04:26 PM 54.9°F12.7°C 52.0°F11.1°C 90% 3.8 mph W6.1 kmh W 4.5 mph7.2 kmh 29.83 in1010.2 mb 0.12 in3.0 mm 0.00 in0.0 mm 1.04 in26.4 mm
04:27 PM 54.9°F12.7°C 52.6°F11.4°C 92% 3.6 mph NNW5.8 kmh NNW 4.5 mph7.2 kmh 29.83 in1010.2 mb 0.12 in3.0 mm 0.00 in0.0 mm 1.04 in26.4 mm
04:28 PM 54.7°F12.6°C 52.4°F11.3°C 92% 3.4 mph NW5.5 kmh NW 4.5 mph7.2 kmh 29.83 in1010.2 mb 0.19 in4.8 mm 4.20 in106.7 mm 1.05 in26.7 mm
04:29 PM 54.7°F12.6°C 52.4°F11.3°C 92% 3.4 mph WSW5.5 kmh WSW 3.4 mph5.5 kmh 29.83 in1010.2 mb 0.24 in6.1 mm 3.00 in76.2 mm 1.06 in26.9 mm
04:30 PM 54.5°F12.5°C 52.2°F11.2°C 92% 2.5 mph NW4.0 kmh NW 3.4 mph5.5 kmh 29.83 in1010.2 mb 0.24 in6.1 mm 0.00 in0.0 mm 1.06 in26.9 mm
04:31 PM 54.5°F12.5°C 51.9°F11.1°C 91% 3.4 mph NW5.5 kmh NW 5.8 mph9.3 kmh 29.83 in1010.2 mb 0.31 in7.9 mm 4.20 in106.7 mm 1.07 in27.2 mm
04:32 PM 54.0°F12.2°C 50.8°F10.4°C 89% 5.4 mph WNW8.7 kmh WNW 5.8 mph9.3 kmh 29.83 in1010.2 mb 0.28 in7.1 mm 0.00 in0.0 mm 1.08 in27.4 mm
04:33 PM 54.0°F12.2°C 51.1°F10.6°C 90% 5.6 mph WSW9.0 kmh WSW 6.9 mph11.1 kmh 29.83 in1010.2 mb 0.28 in7.1 mm 0.00 in0.0 mm 1.08 in27.4 mm
04:34 PM 53.8°F12.1°C 51.2°F10.7°C 91% 2.5 mph N4.0 kmh N 3.4 mph5.5 kmh 29.83 in1010.2 mb 0.35 in8.9 mm 4.20 in106.7 mm 1.09 in27.7 mm
04:35 PM 53.8°F12.1°C 51.5°F10.8°C 92% 1.3 mph NNE2.1 kmh NNE 2.2 mph3.5 kmh 29.83 in1010.2 mb 0.35 in8.9 mm 0.00 in0.0 mm 1.10 in27.9 mm
04:36 PM 53.6°F12.0°C 51.3°F10.7°C 92% 1.3 mph NE2.1 kmh NE 2.2 mph3.5 kmh 29.83 in1010.2 mb 0.43 in10.9 mm 4.80 in121.9 mm 1.11 in28.2 mm
04:37 PM 53.6°F12.0°C 51.3°F10.7°C 92% 0.7 mph NE1.1 kmh NE 1.1 mph1.8 kmh 29.83 in1010.2 mb 0.47 in11.9 mm 2.40 in61.0 mm 1.12 in28.4 mm
04:38 PM 53.4°F11.9°C 51.1°F10.6°C 92% 0.7 mph NE1.1 kmh NE 1.1 mph1.8 kmh 29.84 in1010.5 mb 0.47 in11.9 mm 0.00 in0.0 mm 1.12 in28.4 mm
04:39 PM 53.4°F11.9°C 51.4°F10.8°C 93% Calm Calm -- 29.84 in1010.5 mb 0.35 in8.9 mm 0.00 in0.0 mm 1.12 in28.4 mm
04:40 PM 53.2°F11.8°C 50.9°F10.5°C 92% 0.2 mph NE0.3 kmh NE 1.1 mph1.8 kmh 29.83 in1010.2 mb 0.28 in7.1 mm 0.00 in0.0 mm 1.12 in28.4 mm
04:41 PM 53.2°F11.8°C 50.9°F10.5°C 92% 0.4 mph NE0.6 kmh NE 1.1 mph1.8 kmh 29.83 in1010.2 mb 0.28 in7.1 mm 0.00 in0.0 mm 1.12 in28.4 mm
04:42 PM 53.2°F11.8°C 50.9°F10.5°C 92% 1.1 mph NE1.8 kmh NE 1.1 mph1.8 kmh 29.83 in1010.2 mb 0.24 in6.1 mm 0.00 in0.0 mm 1.12 in28.4 mm
04:43 PM 53.2°F11.8°C 50.9°F10.5°C 92% 1.1 mph NE1.8 kmh NE 1.1 mph1.8 kmh 29.82 in1009.8 mb 0.17 in4.3 mm 0.00 in0.0 mm 1.12 in28.4 mm
04:44 PM 53.2°F11.8°C 51.2°F10.7°C 93% Calm Calm -- 29.83 in1010.2 mb 0.19 in4.8 mm 1.20 in30.5 mm 1.13 in28.7 mm
04:45 PM 53.2°F11.8°C 51.2°F10.7°C 93% Calm Calm -- 29.83 in1010.2 mb 0.19 in4.8 mm 0.00 in0.0 mm 1.13 in28.7 mm
04:46 PM 53.2°F11.8°C 51.2°F10.7°C 93% Calm Calm -- 29.83 in1010.2 mb 0.12 in3.0 mm 0.00 in0.0 mm 1.13 in28.7 mm
04:47 PM 53.2°F11.8°C 51.2°F10.7°C 93% Calm Calm -- 29.83 in1010.2 mb 0.07 in1.8 mm 0.00 in0.0 mm 1.13 in28.7 mm
04:48 PM 53.2°F11.8°C 51.2°F10.7°C 93% Calm Calm -- 29.83 in1010.2 mb 0.07 in1.8 mm 0.00 in0.0 mm 1.13 in28.7 mm
04:49 PM 53.2°F11.8°C 51.2°F10.7°C 93% Calm Calm -- 29.83 in1010.2 mb 0.07 in1.8 mm 0.00 in0.0 mm 1.13 in28.7 mm
04:51 PM 53.4°F11.9°C 50.8°F10.4°C 91% 3.1 mph N5.0 kmh N 4.5 mph7.2 kmh 29.84 in1010.5 mb 0.07 in1.8 mm 0.00 in0.0 mm 1.13 in28.7 mm
04:52 PM 53.4°F11.9°C 50.8°F10.4°C 91% 1.8 mph NNW2.9 kmh NNW 2.2 mph3.5 kmh 29.83 in1010.2 mb 0.07 in1.8 mm 0.00 in0.0 mm 1.13 in28.7 mm
04:53 PM 53.4°F11.9°C 50.8°F10.4°C 91% 1.8 mph NNW2.9 kmh NNW 2.2 mph3.5 kmh 29.84 in1010.5 mb 0.07 in1.8 mm 0.00 in0.0 mm 1.13 in28.7 mm
04:54 PM 53.6°F12.0°C 51.3°F10.7°C 92% 1.8 mph NW2.9 kmh NW 2.2 mph3.5 kmh 29.84 in1010.5 mb 0.00 in0.0 mm 0.00 in0.0 mm 1.13 in28.7 mm
04:55 PM 53.6°F12.0°C 51.3°F10.7°C 92% 2.0 mph N3.2 kmh N 3.4 mph5.5 kmh 29.83 in1010.2 mb 0.12 in3.0 mm 7.20 in182.9 mm 1.15 in29.2 mm
04:56 PM 53.8°F12.1°C 51.2°F10.7°C 91% 2.2 mph N3.5 kmh N 2.2 mph3.5 kmh 29.83 in1010.2 mb 0.12 in3.0 mm 0.00 in0.0 mm 1.15 in29.2 mm
04:57 PM 53.8°F12.1°C 51.5°F10.8°C 92% 0.2 mph ENE0.3 kmh ENE 1.1 mph1.8 kmh 29.84 in1010.5 mb 0.12 in3.0 mm 0.00 in0.0 mm 1.15 in29.2 mm
04:58 PM 53.8°F12.1°C 50.9°F10.5°C 90% 2.5 mph SW4.0 kmh SW 3.4 mph5.5 kmh 29.83 in1010.2 mb 0.12 in3.0 mm 0.00 in0.0 mm 1.15 in29.2 mm
04:59 PM 53.8°F12.1°C 50.9°F10.5°C 90% 2.5 mph SW4.0 kmh SW 3.4 mph5.5 kmh 29.84 in1010.5 mb 0.12 in3.0 mm 0.00 in0.0 mm 1.15 in29.2 mm
05:00 PM 53.6°F12.0°C 50.4°F10.2°C 89% 2.9 mph SW4.7 kmh SW 3.4 mph5.5 kmh 29.84 in1010.5 mb 0.12 in3.0 mm 0.00 in0.0 mm 1.15 in29.2 mm
05:01 PM 53.6°F12.0°C 50.7°F10.4°C 90% 1.8 mph S2.9 kmh S 2.2 mph3.5 kmh 29.83 in1010.2 mb 0.12 in3.0 mm 0.00 in0.0 mm 1.15 in29.2 mm
05:02 PM 53.6°F12.0°C 50.4°F10.2°C 89% 1.1 mph S1.8 kmh S 1.1 mph1.8 kmh 29.83 in1010.2 mb 0.12 in3.0 mm 0.00 in0.0 mm 1.15 in29.2 mm
05:03 PM 53.6°F12.0°C 50.1°F10.1°C 88% 2.5 mph SW4.0 kmh SW 3.4 mph5.5 kmh 29.83 in1010.2 mb 0.12 in3.0 mm 0.00 in0.0 mm 1.15 in29.2 mm
05:04 PM 53.6°F12.0°C 50.4°F10.2°C 89% Calm Calm -- 29.84 in1010.5 mb 0.05 in1.3 mm 0.00 in0.0 mm 1.15 in29.2 mm
05:05 PM 53.6°F12.0°C 50.4°F10.2°C 89% 2.5 mph SW4.0 kmh SW 3.4 mph5.5 kmh 29.83 in1010.2 mb 0.05 in1.3 mm 0.00 in0.0 mm 1.15 in29.2 mm
05:06 PM 53.6°F12.0°C 50.1°F10.1°C 88% 3.1 mph WSW5.0 kmh WSW 3.4 mph5.5 kmh 29.83 in1010.2 mb 0.00 in0.0 mm 0.00 in0.0 mm 1.15 in29.2 mm
05:07 PM 53.6°F12.0°C 50.1°F10.1°C 88% 2.9 mph W4.7 kmh W 3.4 mph5.5 kmh 29.83 in1010.2 mb 0.00 in0.0 mm 0.00 in0.0 mm 1.15 in29.2 mm
05:09 PM 53.6°F12.0°C 50.1°F10.1°C 88% 1.1 mph S1.8 kmh S 1.1 mph1.8 kmh 29.84 in1010.5 mb 0.00 in0.0 mm 0.00 in0.0 mm 1.15 in29.2 mm
05:10 PM 53.4°F11.9°C 50.2°F10.1°C 89% 0.9 mph SSE1.4 kmh SSE 1.1 mph1.8 kmh 29.83 in1010.2 mb 0.00 in0.0 mm 0.00 in0.0 mm 1.15 in29.2 mm
05:11 PM 53.4°F11.9°C 50.2°F10.1°C 89% 2.9 mph N4.7 kmh N 3.4 mph5.5 kmh 29.83 in1010.2 mb 0.00 in0.0 mm 0.00 in0.0 mm 1.15 in29.2 mm
05:12 PM 53.6°F12.0°C 49.8°F9.9°C 87% 2.9 mph N4.7 kmh N 3.4 mph5.5 kmh 29.83 in1010.2 mb 0.00 in0.0 mm 0.00 in0.0 mm 1.15 in29.2 mm
05:13 PM 53.8°F12.1°C 50.0°F10.0°C 87% 2.9 mph NNE4.7 kmh NNE 3.4 mph5.5 kmh 29.83 in1010.2 mb 0.00 in0.0 mm 0.00 in0.0 mm 1.15 in29.2 mm
05:14 PM 53.8°F12.1°C 50.3°F10.2°C 88% 0.4 mph NE0.6 kmh NE 1.1 mph1.8 kmh 29.83 in1010.2 mb 0.00 in0.0 mm 0.00 in0.0 mm 1.15 in29.2 mm
05:15 PM 53.8°F12.1°C 50.9°F10.5°C 90% 0.7 mph NE1.1 kmh NE 1.1 mph1.8 kmh 29.83 in1010.2 mb 0.00 in0.0 mm 0.00 in0.0 mm 1.15 in29.2 mm
05:16 PM 53.8°F12.1°C 51.2°F10.7°C 91% 0.9 mph NE1.4 kmh NE 1.1 mph1.8 kmh 29.83 in1010.2 mb 0.00 in0.0 mm 0.00 in0.0 mm 1.15 in29.2 mm
05:18 PM 53.6°F12.0°C 50.7°F10.4°C 90% 0.2 mph NE0.3 kmh NE 1.1 mph1.8 kmh 29.84 in1010.5 mb 0.00 in0.0 mm 0.00 in0.0 mm 1.15 in29.2 mm
05:19 PM 53.4°F11.9°C 50.2°F10.1°C 89% Calm Calm -- 29.83 in1010.2 mb 0.00 in0.0 mm 0.00 in0.0 mm 1.15 in29.2 mm
05:20 PM 53.4°F11.9°C 50.5°F10.3°C 90% 0.2 mph NE0.3 kmh NE 1.1 mph1.8 kmh 29.83 in1010.2 mb 0.00 in0.0 mm 0.00 in0.0 mm 1.15 in29.2 mm
05:21 PM 53.2°F11.8°C 50.3°F10.2°C 90% 0.7 mph ENE1.1 kmh ENE 1.1 mph1.8 kmh 29.84 in1010.5 mb 0.00 in0.0 mm 0.00 in0.0 mm 1.15 in29.2 mm
05:22 PM 53.2°F11.8°C 50.3°F10.2°C 90% 1.1 mph ENE1.8 kmh ENE 1.1 mph1.8 kmh 29.83 in1010.2 mb 0.00 in0.0 mm 0.00 in0.0 mm 1.15 in29.2 mm
05:23 PM 53.2°F11.8°C 50.6°F10.3°C 91% 1.1 mph ENE1.8 kmh ENE 1.1 mph1.8 kmh 29.83 in1010.2 mb 0.00 in0.0 mm 0.00 in0.0 mm 1.15 in29.2 mm
05:24 PM 53.2°F11.8°C 50.6°F10.3°C 91% 1.8 mph NE2.9 kmh NE 2.2 mph3.5 kmh 29.84 in1010.5 mb 0.00 in0.0 mm 0.00 in0.0 mm 1.15 in29.2 mm
05:25 PM 53.2°F11.8°C 50.3°F10.2°C 90% 1.1 mph NE1.8 kmh NE 1.1 mph1.8 kmh 29.83 in1010.2 mb 0.00 in0.0 mm 0.00 in0.0 mm 1.15 in29.2 mm
05:26 PM 53.2°F11.8°C 50.3°F10.2°C 90% 0.7 mph ENE1.1 kmh ENE 1.1 mph1.8 kmh 29.83 in1010.2 mb 0.00 in0.0 mm 0.00 in0.0 mm 1.15 in29.2 mm
05:27 PM 53.4°F11.9°C 51.1°F10.6°C 92% Calm Calm -- 29.83 in1010.2 mb 0.00 in0.0 mm 0.00 in0.0 mm 1.15 in29.2 mm
05:28 PM 53.4°F11.9°C 50.2°F10.1°C 89% 0.7 mph S1.1 kmh S 1.1 mph1.8 kmh 29.83 in1010.2 mb 0.00 in0.0 mm 0.00 in0.0 mm 1.15 in29.2 mm
05:29 PM 53.6°F12.0°C 50.7°F10.4°C 90% 4.5 mph WNW7.2 kmh WNW 4.5 mph7.2 kmh 29.83 in1010.2 mb 0.00 in0.0 mm 0.00 in0.0 mm 1.15 in29.2 mm
05:30 PM 53.8°F12.1°C 50.9°F10.5°C 90% 1.1 mph N1.8 kmh N 1.1 mph1.8 kmh 29.84 in1010.5 mb 0.00 in0.0 mm 0.00 in0.0 mm 1.15 in29.2 mm
05:31 PM 53.8°F12.1°C 50.3°F10.2°C 88% 1.6 mph N2.6 kmh N 2.2 mph3.5 kmh 29.83 in1010.2 mb 0.00 in0.0 mm 0.00 in0.0 mm 1.15 in29.2 mm
05:32 PM 53.8°F12.1°C 50.6°F10.3°C 89% 3.1 mph N5.0 kmh N 4.5 mph7.2 kmh 29.83 in1010.2 mb 0.00 in0.0 mm 0.00 in0.0 mm 1.15 in29.2 mm
05:33 PM 53.8°F12.1°C 50.6°F10.3°C 89% 2.9 mph N4.7 kmh N 3.4 mph5.5 kmh 29.83 in1010.2 mb 0.00 in0.0 mm 0.00 in0.0 mm 1.15 in29.2 mm
05:36 PM 55.2°F12.9°C 47.1°F8.4°C 74% 2.9 mph NW4.7 kmh NW 4.5 mph7.2 kmh 29.83 in1010.2 mb 0.00 in0.0 mm 0.00 in0.0 mm 1.15 in29.2 mm
05:37 PM 55.8°F13.2°C 48.7°F9.3°C 77% 3.8 mph N6.1 kmh N 4.5 mph7.2 kmh 29.83 in1010.2 mb 0.00 in0.0 mm 0.00 in0.0 mm 1.15 in29.2 mm
05:38 PM 55.9°F13.3°C 49.8°F9.9°C 80% Calm Calm -- 29.83 in1010.2 mb 0.00 in0.0 mm 0.00 in0.0 mm 1.15 in29.2 mm
05:39 PM 55.8°F13.2°C 50.4°F10.2°C 82% 2.2 mph NNW3.5 kmh NNW 3.4 mph5.5 kmh 29.83 in1010.2 mb 0.00 in0.0 mm 0.00 in0.0 mm 1.15 in29.2 mm
05:40 PM 55.4°F13.0°C 50.0°F10.0°C 82% 3.8 mph NW6.1 kmh NW 6.9 mph11.1 kmh 29.83 in1010.2 mb 0.00 in0.0 mm 0.00 in0.0 mm 1.15 in29.2 mm
05:41 PM 55.0°F12.8°C 49.6°F9.8°C 82% 2.2 mph NE3.5 kmh NE 2.2 mph3.5 kmh 29.84 in1010.5 mb 0.00 in0.0 mm 0.00 in0.0 mm 1.15 in29.2 mm
05:42 PM 54.9°F12.7°C 48.8°F9.3°C 80% 1.8 mph NE2.9 kmh NE 3.4 mph5.5 kmh 29.83 in1010.2 mb 0.00 in0.0 mm 0.00 in0.0 mm 1.15 in29.2 mm
05:43 PM 54.9°F12.7°C 48.5°F9.2°C 79% 3.1 mph S5.0 kmh S 4.5 mph7.2 kmh 29.83 in1010.2 mb 0.00 in0.0 mm 0.00 in0.0 mm 1.15 in29.2 mm
05:44 PM 55.0°F12.8°C 50.3°F10.2°C 84% 2.2 mph SE3.5 kmh SE 2.2 mph3.5 kmh 29.83 in1010.2 mb 0.00 in0.0 mm 0.00 in0.0 mm 1.15 in29.2 mm
05:45 PM 55.0°F12.8°C 49.6°F9.8°C 82% 2.5 mph SE4.0 kmh SE 3.4 mph5.5 kmh 29.83 in1010.2 mb 0.00 in0.0 mm 0.00 in0.0 mm 1.15 in29.2 mm
05:46 PM 54.9°F12.7°C 49.8°F9.9°C 83% 0.7 mph ESE1.1 kmh ESE 1.1 mph1.8 kmh 29.83 in1010.2 mb 0.00 in0.0 mm 0.00 in0.0 mm 1.15 in29.2 mm
05:48 PM 54.7°F12.6°C 49.6°F9.8°C 83% 2.2 mph ENE3.5 kmh ENE 2.2 mph3.5 kmh 29.83 in1010.2 mb 0.00 in0.0 mm 0.00 in0.0 mm 1.15 in29.2 mm
05:49 PM 54.7°F12.6°C 50.0°F10.0°C 84% 2.0 mph E3.2 kmh E 3.4 mph5.5 kmh 29.84 in1010.5 mb 0.00 in0.0 mm 0.00 in0.0 mm 1.15 in29.2 mm
05:51 PM 54.5°F12.5°C 50.4°F10.2°C 86% 0.4 mph E0.6 kmh E 1.1 mph1.8 kmh 29.83 in1010.2 mb 0.00 in0.0 mm 0.00 in0.0 mm 1.15 in29.2 mm
05:52 PM 54.5°F12.5°C 50.7°F10.4°C 87% Calm Calm -- 29.84 in1010.5 mb 0.00 in0.0 mm 0.00 in0.0 mm 1.15 in29.2 mm
05:53 PM 54.3°F12.4°C 50.8°F10.4°C 88% Calm Calm -- 29.84 in1010.5 mb 0.00 in0.0 mm 0.00 in0.0 mm 1.15 in29.2 mm
05:54 PM 54.1°F12.3°C 50.6°F10.3°C 88% 0.9 mph E1.4 kmh E 1.1 mph1.8 kmh 29.84 in1010.5 mb 0.00 in0.0 mm 0.00 in0.0 mm 1.15 in29.2 mm
05:55 PM 54.0°F12.2°C 50.5°F10.3°C 88% Calm Calm -- 29.84 in1010.5 mb 0.00 in0.0 mm 0.00 in0.0 mm 1.15 in29.2 mm
05:56 PM 53.8°F12.1°C 50.0°F10.0°C 87% 0.7 mph E1.1 kmh E 1.1 mph1.8 kmh 29.84 in1010.5 mb 0.00 in0.0 mm 0.00 in0.0 mm 1.15 in29.2 mm
05:57 PM 53.8°F12.1°C 50.0°F10.0°C 87% 1.8 mph E2.9 kmh E 2.2 mph3.5 kmh 29.84 in1010.5 mb 0.00 in0.0 mm 0.00 in0.0 mm 1.15 in29.2 mm
05:58 PM 53.8°F12.1°C 50.9°F10.5°C 90% 0.2 mph E0.3 kmh E 1.1 mph1.8 kmh 29.84 in1010.5 mb 0.00 in0.0 mm 0.00 in0.0 mm 1.15 in29.2 mm
05:59 PM 53.8°F12.1°C 50.9°F10.5°C 90% 1.1 mph E1.8 kmh E 1.1 mph1.8 kmh 29.84 in1010.5 mb 0.00 in0.0 mm 0.00 in0.0 mm 1.15 in29.2 mm
06:00 PM 53.6°F12.0°C 51.0°F10.6°C 91% 0.2 mph E0.3 kmh E 1.1 mph1.8 kmh 29.84 in1010.5 mb 0.00 in0.0 mm 0.00 in0.0 mm 1.15 in29.2 mm
06:01 PM 53.4°F11.9°C 50.8°F10.4°C 91% Calm Calm -- 29.84 in1010.5 mb 0.00 in0.0 mm 0.00 in0.0 mm 1.15 in29.2 mm
06:02 PM 53.4°F11.9°C 51.1°F10.6°C 92% 1.3 mph E2.1 kmh E 2.2 mph3.5 kmh 29.84 in1010.5 mb 0.00 in0.0 mm 0.00 in0.0 mm 1.15 in29.2 mm
06:03 PM 53.4°F11.9°C 50.8°F10.4°C 91% 1.1 mph NE1.8 kmh NE 1.1 mph1.8 kmh 29.84 in1010.5 mb 0.00 in0.0 mm 0.00 in0.0 mm 1.15 in29.2 mm
06:04 PM 53.4°F11.9°C 50.5°F10.3°C 90% 1.1 mph ENE1.8 kmh ENE 1.1 mph1.8 kmh 29.84 in1010.5 mb 0.00 in0.0 mm 0.00 in0.0 mm 1.15 in29.2 mm
06:05 PM 53.4°F11.9°C 50.2°F10.1°C 89% 0.2 mph E0.3 kmh E 1.1 mph1.8 kmh 29.84 in1010.5 mb 0.00 in0.0 mm 0.00 in0.0 mm 1.15 in29.2 mm
06:06 PM 53.6°F12.0°C 50.4°F10.2°C 89% 0.9 mph E1.4 kmh E 2.2 mph3.5 kmh 29.84 in1010.5 mb 0.00 in0.0 mm 0.00 in0.0 mm 1.15 in29.2 mm
06:07 PM 53.6°F12.0°C 50.7°F10.4°C 90% 0.7 mph E1.1 kmh E 1.1 mph1.8 kmh 29.84 in1010.5 mb 0.00 in0.0 mm 0.00 in0.0 mm 1.15 in29.2 mm
06:08 PM 53.6°F12.0°C 50.7°F10.4°C 90% 1.3 mph ESE2.1 kmh ESE 2.2 mph3.5 kmh 29.84 in1010.5 mb 0.00 in0.0 mm 0.00 in0.0 mm 1.15 in29.2 mm
06:09 PM 53.6°F12.0°C 50.4°F10.2°C 89% 0.4 mph ESE0.6 kmh ESE 1.1 mph1.8 kmh 29.85 in1010.8 mb 0.00 in0.0 mm 0.00 in0.0 mm 1.15 in29.2 mm
06:10 PM 53.8°F12.1°C 50.0°F10.0°C 87% Calm Calm -- 29.85 in1010.8 mb 0.00 in0.0 mm 0.00 in0.0 mm 1.15 in29.2 mm
06:11 PM 53.8°F12.1°C 50.3°F10.2°C 88% Calm Calm -- 29.84 in1010.5 mb 0.00 in0.0 mm 0.00 in0.0 mm 1.15 in29.2 mm
06:12 PM 54.0°F12.2°C 50.5°F10.3°C 88% Calm Calm -- 29.85 in1010.8 mb 0.00 in0.0 mm 0.00 in0.0 mm 1.15 in29.2 mm
06:13 PM 54.0°F12.2°C 50.2°F10.1°C 87% Calm Calm -- 29.85 in1010.8 mb 0.00 in0.0 mm 0.00 in0.0 mm 1.15 in29.2 mm
06:14 PM 54.0°F12.2°C 50.5°F10.3°C 88% Calm Calm -- 29.84 in1010.5 mb 0.00 in0.0 mm 0.00 in0.0 mm 1.15 in29.2 mm
06:15 PM 54.0°F12.2°C 49.9°F9.9°C 86% Calm Calm -- 29.85 in1010.8 mb 0.00 in0.0 mm 0.00 in0.0 mm 1.15 in29.2 mm
06:16 PM 54.0°F12.2°C 50.2°F10.1°C 87% 0.7 mph ESE1.1 kmh ESE 1.1 mph1.8 kmh 29.85 in1010.8 mb 0.00 in0.0 mm 0.00 in0.0 mm 1.15 in29.2 mm
06:17 PM 54.0°F12.2°C 49.9°F9.9°C 86% Calm Calm -- 29.85 in1010.8 mb 0.00 in0.0 mm 0.00 in0.0 mm 1.15 in29.2 mm
06:18 PM 54.1°F12.3°C 50.0°F10.0°C 86% 0.9 mph ESE1.4 kmh ESE 1.1 mph1.8 kmh 29.85 in1010.8 mb 0.00 in0.0 mm 0.00 in0.0 mm 1.15 in29.2 mm
06:19 PM 54.1°F12.3°C 49.1°F9.5°C 83% 2.9 mph NNW4.7 kmh NNW 4.5 mph7.2 kmh 29.84 in1010.5 mb 0.00 in0.0 mm 0.00 in0.0 mm 1.15 in29.2 mm
06:20 PM 54.1°F12.3°C 48.4°F9.1°C 81% 2.9 mph W4.7 kmh W 3.4 mph5.5 kmh 29.84 in1010.5 mb 0.00 in0.0 mm 0.00 in0.0 mm 1.15 in29.2 mm
06:21 PM 54.5°F12.5°C 48.8°F9.3°C 81% 2.2 mph N3.5 kmh N 3.4 mph5.5 kmh 29.85 in1010.8 mb 0.00 in0.0 mm 0.00 in0.0 mm 1.15 in29.2 mm
06:22 PM 54.5°F12.5°C 48.8°F9.3°C 81% 3.8 mph NW6.1 kmh NW 4.5 mph7.2 kmh 29.85 in1010.8 mb 0.00 in0.0 mm 0.00 in0.0 mm 1.15 in29.2 mm
06:23 PM 54.5°F12.5°C 48.8°F9.3°C 81% 1.8 mph NNW2.9 kmh NNW 2.2 mph3.5 kmh 29.85 in1010.8 mb 0.00 in0.0 mm 0.00 in0.0 mm 1.15 in29.2 mm
06:24 PM 54.5°F12.5°C 49.4°F9.7°C 83% 1.1 mph NNE1.8 kmh NNE 1.1 mph1.8 kmh 29.85 in1010.8 mb 0.00 in0.0 mm 0.00 in0.0 mm 1.15 in29.2 mm
06:25 PM 54.5°F12.5°C 49.1°F9.5°C 82% 2.7 mph NW4.3 kmh NW 3.4 mph5.5 kmh 29.85 in1010.8 mb 0.00 in0.0 mm 0.00 in0.0 mm 1.15 in29.2 mm
06:26 PM 54.3°F12.4°C 49.2°F9.6°C 83% Calm Calm -- 29.85 in1010.8 mb 0.00 in0.0 mm 0.00 in0.0 mm 1.15 in29.2 mm
06:27 PM 54.3°F12.4°C 49.2°F9.6°C 83% 1.3 mph NNW2.1 kmh NNW 2.2 mph3.5 kmh 29.85 in1010.8 mb 0.00 in0.0 mm 0.00 in0.0 mm 1.15 in29.2 mm
06:28 PM 54.1°F12.3°C 49.4°F9.7°C 84% 0.9 mph E1.4 kmh E 1.1 mph1.8 kmh 29.85 in1010.8 mb 0.00 in0.0 mm 0.00 in0.0 mm 1.15 in29.2 mm
06:29 PM 54.0°F12.2°C 48.6°F9.2°C 82% 2.7 mph SW4.3 kmh SW 3.4 mph5.5 kmh 29.85 in1010.8 mb 0.00 in0.0 mm 0.00 in0.0 mm 1.15 in29.2 mm
06:30 PM 54.0°F12.2°C 48.6°F9.2°C 82% 2.9 mph SW4.7 kmh SW 4.5 mph7.2 kmh 29.86 in1011.2 mb 0.00 in0.0 mm 0.00 in0.0 mm 1.15 in29.2 mm
06:31 PM 54.0°F12.2°C 48.3°F9.1°C 81% 3.4 mph S5.5 kmh S 5.8 mph9.3 kmh 29.85 in1010.8 mb 0.00 in0.0 mm 0.00 in0.0 mm 1.15 in29.2 mm
06:33 PM 54.0°F12.2°C 48.6°F9.2°C 82% 3.8 mph SW6.1 kmh SW 4.5 mph7.2 kmh 29.86 in1011.2 mb 0.00 in0.0 mm 0.00 in0.0 mm 1.15 in29.2 mm
06:34 PM 53.8°F12.1°C 48.4°F9.1°C 82% 4.5 mph WSW7.2 kmh WSW 5.8 mph9.3 kmh 29.86 in1011.2 mb 0.00 in0.0 mm 0.00 in0.0 mm 1.15 in29.2 mm
06:35 PM 53.8°F12.1°C 48.4°F9.1°C 82% 2.9 mph WSW4.7 kmh WSW 4.5 mph7.2 kmh 29.86 in1011.2 mb 0.00 in0.0 mm 0.00 in0.0 mm 1.15 in29.2 mm
06:36 PM 53.6°F12.0°C 47.9°F8.8°C 81% 3.4 mph WSW5.5 kmh WSW 4.5 mph7.2 kmh 29.86 in1011.2 mb 0.00 in0.0 mm 0.00 in0.0 mm 1.15 in29.2 mm
06:37 PM 53.6°F12.0°C 48.6°F9.2°C 83% 2.5 mph WNW4.0 kmh WNW 3.4 mph5.5 kmh 29.85 in1010.8 mb 0.00 in0.0 mm 0.00 in0.0 mm 1.15 in29.2 mm
06:38 PM 53.6°F12.0°C 48.6°F9.2°C 83% 2.2 mph NNW3.5 kmh NNW 2.2 mph3.5 kmh 29.86 in1011.2 mb 0.00 in0.0 mm 0.00 in0.0 mm 1.15 in29.2 mm
06:39 PM 53.6°F12.0°C 48.9°F9.4°C 84% Calm Calm -- 29.86 in1011.2 mb 0.00 in0.0 mm 0.00 in0.0 mm 1.15 in29.2 mm
06:40 PM 53.6°F12.0°C 49.2°F9.6°C 85% 1.6 mph NNE2.6 kmh NNE 2.2 mph3.5 kmh 29.86 in1011.2 mb 0.00 in0.0 mm 0.00 in0.0 mm 1.15 in29.2 mm
06:42 PM 53.4°F11.9°C 49.3°F9.6°C 86% 2.2 mph N3.5 kmh N 2.2 mph3.5 kmh 29.86 in1011.2 mb 0.00 in0.0 mm 0.00 in0.0 mm 1.15 in29.2 mm
06:43 PM 53.1°F11.7°C 49.0°F9.4°C 86% Calm Calm -- 29.86 in1011.2 mb 0.00 in0.0 mm 0.00 in0.0 mm 1.15 in29.2 mm
06:44 PM 52.9°F11.6°C 48.8°F9.3°C 86% 1.3 mph N2.1 kmh N 2.2 mph3.5 kmh 29.86 in1011.2 mb 0.00 in0.0 mm 0.00 in0.0 mm 1.15 in29.2 mm
06:47 PM 52.7°F11.5°C 48.3°F9.1°C 85% 2.5 mph N4.0 kmh N 3.4 mph5.5 kmh 29.87 in1011.5 mb 0.00 in0.0 mm 0.00 in0.0 mm 1.15 in29.2 mm
06:48 PM 52.7°F11.5°C 48.3°F9.1°C 85% 2.0 mph SSE3.2 kmh SSE 2.2 mph3.5 kmh 29.86 in1011.2 mb 0.00 in0.0 mm 0.00 in0.0 mm 1.15 in29.2 mm
06:49 PM 52.5°F11.4°C 47.5°F8.6°C 83% 4.7 mph SW7.6 kmh SW 6.9 mph11.1 kmh 29.86 in1011.2 mb 0.00 in0.0 mm 0.00 in0.0 mm 1.15 in29.2 mm
06:50 PM 52.5°F11.4°C 47.5°F8.6°C 83% 4.0 mph WSW6.4 kmh WSW 4.5 mph7.2 kmh 29.86 in1011.2 mb 0.00 in0.0 mm 0.00 in0.0 mm 1.15 in29.2 mm
06:52 PM 52.7°F11.5°C 48.0°F8.9°C 84% 3.4 mph WSW5.5 kmh WSW 4.5 mph7.2 kmh 29.86 in1011.2 mb 0.00 in0.0 mm 0.00 in0.0 mm 1.15 in29.2 mm
06:53 PM 52.7°F11.5°C 48.0°F8.9°C 84% 1.6 mph N2.6 kmh N 2.2 mph3.5 kmh 29.86 in1011.2 mb 0.00 in0.0 mm 0.00 in0.0 mm 1.15 in29.2 mm
06:54 PM 52.9°F11.6°C 48.2°F9.0°C 84% 1.3 mph N2.1 kmh N 2.2 mph3.5 kmh 29.87 in1011.5 mb 0.07 in1.8 mm 4.20 in106.7 mm 1.16 in29.5 mm
06:55 PM 52.9°F11.6°C 48.2°F9.0°C 84% 1.3 mph N2.1 kmh N 2.2 mph3.5 kmh 29.86 in1011.2 mb 0.07 in1.8 mm 0.00 in0.0 mm 1.16 in29.5 mm
06:56 PM 52.9°F11.6°C 48.8°F9.3°C 86% 1.3 mph N2.1 kmh N 2.2 mph3.5 kmh 29.87 in1011.5 mb 0.07 in1.8 mm 0.00 in0.0 mm 1.16 in29.5 mm
06:57 PM 52.7°F11.5°C 48.3°F9.1°C 85% 1.3 mph N2.1 kmh N 2.2 mph3.5 kmh 29.87 in1011.5 mb 0.07 in1.8 mm 0.00 in0.0 mm 1.16 in29.5 mm
06:58 PM 52.7°F11.5°C 48.6°F9.2°C 86% 1.1 mph N1.8 kmh N 1.1 mph1.8 kmh 29.87 in1011.5 mb 0.07 in1.8 mm 0.00 in0.0 mm 1.16 in29.5 mm
06:59 PM 52.5°F11.4°C 48.7°F9.3°C 87% Calm Calm -- 29.86 in1011.2 mb 0.07 in1.8 mm 0.00 in0.0 mm 1.16 in29.5 mm
07:00 PM 52.5°F11.4°C 48.7°F9.3°C 87% Calm Calm -- 29.87 in1011.5 mb 0.07 in1.8 mm 0.00 in0.0 mm 1.16 in29.5 mm
07:01 PM 52.5°F11.4°C 48.7°F9.3°C 87% 0.4 mph N0.6 kmh N 1.1 mph1.8 kmh 29.87 in1011.5 mb 0.07 in1.8 mm 0.00 in0.0 mm 1.16 in29.5 mm
07:02 PM 52.3°F11.3°C 48.5°F9.2°C 87% 0.9 mph NE1.4 kmh NE 1.1 mph1.8 kmh 29.87 in1011.5 mb 0.07 in1.8 mm 0.00 in0.0 mm 1.16 in29.5 mm
07:03 PM 52.2°F11.2°C 48.4°F9.1°C 87% Calm Calm -- 29.87 in1011.5 mb 0.00 in0.0 mm 0.00 in0.0 mm 1.16 in29.5 mm
07:04 PM 52.2°F11.2°C 48.8°F9.3°C 88% Calm Calm -- 29.87 in1011.5 mb 0.00 in0.0 mm 0.00 in0.0 mm 1.16 in29.5 mm
07:06 PM 52.0°F11.1°C 48.9°F9.4°C 89% Calm Calm -- 29.87 in1011.5 mb 0.00 in0.0 mm 0.00 in0.0 mm 1.16 in29.5 mm
07:07 PM 52.0°F11.1°C 49.2°F9.6°C 90% 0.2 mph NE0.3 kmh NE 1.1 mph1.8 kmh 29.87 in1011.5 mb 0.00 in0.0 mm 0.00 in0.0 mm 1.16 in29.5 mm
07:09 PM 51.8°F11.0°C 48.7°F9.3°C 89% Calm Calm -- 29.87 in1011.5 mb 0.00 in0.0 mm 0.00 in0.0 mm 1.16 in29.5 mm
07:10 PM 51.6°F10.9°C 48.8°F9.3°C 90% Calm Calm -- 29.87 in1011.5 mb 0.00 in0.0 mm 0.00 in0.0 mm 1.16 in29.5 mm
07:11 PM 51.8°F11.0°C 49.0°F9.4°C 90% 0.9 mph NE1.4 kmh NE 2.2 mph3.5 kmh 29.87 in1011.5 mb 0.00 in0.0 mm 0.00 in0.0 mm 1.16 in29.5 mm
07:12 PM 51.8°F11.0°C 47.7°F8.7°C 86% 4.7 mph N7.6 kmh N 5.8 mph9.3 kmh 29.87 in1011.5 mb 0.00 in0.0 mm 0.00 in0.0 mm 1.16 in29.5 mm
07:13 PM 51.8°F11.0°C 47.4°F8.6°C 85% 2.9 mph N4.7 kmh N 4.5 mph7.2 kmh 29.87 in1011.5 mb 0.00 in0.0 mm 0.00 in0.0 mm 1.16 in29.5 mm
07:14 PM 52.0°F11.1°C 47.9°F8.8°C 86% 1.3 mph N2.1 kmh N 2.2 mph3.5 kmh 29.87 in1011.5 mb 0.00 in0.0 mm 0.00 in0.0 mm 1.16 in29.5 mm
07:15 PM 52.2°F11.2°C 48.1°F8.9°C 86% 2.2 mph NW3.5 kmh NW 2.2 mph3.5 kmh 29.88 in1011.9 mb 0.05 in1.3 mm 3.00 in76.2 mm 1.17 in29.7 mm
07:16 PM 52.2°F11.2°C 48.1°F8.9°C 86% 2.5 mph NNW4.0 kmh NNW 3.4 mph5.5 kmh 29.87 in1011.5 mb 0.05 in1.3 mm 0.00 in0.0 mm 1.17 in29.7 mm
07:17 PM 52.0°F11.1°C 48.3°F9.1°C 87% 2.2 mph N3.5 kmh N 2.2 mph3.5 kmh 29.88 in1011.9 mb 0.05 in1.3 mm 0.00 in0.0 mm 1.17 in29.7 mm
07:18 PM 52.0°F11.1°C 48.3°F9.1°C 87% 2.0 mph NNE3.2 kmh NNE 3.4 mph5.5 kmh 29.89 in1012.2 mb 0.05 in1.3 mm 0.00 in0.0 mm 1.17 in29.7 mm
07:19 PM 52.0°F11.1°C 48.6°F9.2°C 88% 0.7 mph NE1.1 kmh NE 1.1 mph1.8 kmh 29.88 in1011.9 mb 0.05 in1.3 mm 0.00 in0.0 mm 1.17 in29.7 mm
07:21 PM 52.0°F11.1°C 48.6°F9.2°C 88% Calm Calm -- 29.88 in1011.9 mb 0.05 in1.3 mm 0.00 in0.0 mm 1.17 in29.7 mm
07:23 PM 51.4°F10.8°C 48.9°F9.4°C 91% 0.2 mph NE0.3 kmh NE 1.1 mph1.8 kmh 29.88 in1011.9 mb 0.12 in3.0 mm 2.10 in53.3 mm 1.18 in30.0 mm
07:25 PM 51.3°F10.7°C 48.8°F9.3°C 91% 1.1 mph ESE1.8 kmh ESE 1.1 mph1.8 kmh 29.88 in1011.9 mb 0.12 in3.0 mm 0.00 in0.0 mm 1.18 in30.0 mm
07:26 PM 51.1°F10.6°C 48.6°F9.2°C 91% 1.3 mph NE2.1 kmh NE 2.2 mph3.5 kmh 29.88 in1011.9 mb 0.07 in1.8 mm 0.00 in0.0 mm 1.18 in30.0 mm
07:27 PM 51.1°F10.6°C 48.6°F9.2°C 91% 0.7 mph E1.1 kmh E 1.1 mph1.8 kmh 29.89 in1012.2 mb 0.07 in1.8 mm 0.00 in0.0 mm 1.18 in30.0 mm
07:28 PM 50.9°F10.5°C 48.4°F9.1°C 91% 1.3 mph SSE2.1 kmh SSE 2.2 mph3.5 kmh 29.88 in1011.9 mb 0.07 in1.8 mm 0.00 in0.0 mm 1.18 in30.0 mm
07:29 PM 50.9°F10.5°C 48.4°F9.1°C 91% 0.2 mph SE0.3 kmh SE 1.1 mph1.8 kmh 29.89 in1012.2 mb 0.07 in1.8 mm 0.00 in0.0 mm 1.18 in30.0 mm
07:30 PM 50.9°F10.5°C 48.1°F8.9°C 90% 1.8 mph N2.9 kmh N 2.2 mph3.5 kmh 29.89 in1012.2 mb 0.07 in1.8 mm 0.00 in0.0 mm 1.18 in30.0 mm
07:31 PM 50.9°F10.5°C 48.1°F8.9°C 90% Calm Calm -- 29.89 in1012.2 mb 0.07 in1.8 mm 0.00 in0.0 mm 1.18 in30.0 mm
07:32 PM 51.1°F10.6°C 48.0°F8.9°C 89% 0.4 mph E0.6 kmh E 1.1 mph1.8 kmh 29.89 in1012.2 mb 0.07 in1.8 mm 0.00 in0.0 mm 1.18 in30.0 mm
07:33 PM 51.1°F10.6°C 47.7°F8.7°C 88% 1.1 mph E1.8 kmh E 1.1 mph1.8 kmh 29.89 in1012.2 mb 0.00 in0.0 mm 0.00 in0.0 mm 1.18 in30.0 mm
07:34 PM 51.1°F10.6°C 47.7°F8.7°C 88% Calm Calm -- 29.89 in1012.2 mb 0.00 in0.0 mm 0.00 in0.0 mm 1.18 in30.0 mm
07:35 PM 51.1°F10.6°C 47.7°F8.7°C 88% Calm Calm -- 29.89 in1012.2 mb 0.00 in0.0 mm 0.00 in0.0 mm 1.18 in30.0 mm
07:36 PM 51.1°F10.6°C 47.1°F8.4°C 86% 1.1 mph E1.8 kmh E 1.1 mph1.8 kmh 29.89 in1012.2 mb 0.00 in0.0 mm 0.00 in0.0 mm 1.18 in30.0 mm
07:37 PM 51.3°F10.7°C 47.3°F8.5°C 86% 0.4 mph E0.6 kmh E 1.1 mph1.8 kmh 29.89 in1012.2 mb 0.00 in0.0 mm 0.00 in0.0 mm 1.18 in30.0 mm
07:38 PM 51.3°F10.7°C 47.3°F8.5°C 86% 0.4 mph E0.6 kmh E 1.1 mph1.8 kmh 29.89 in1012.2 mb 0.00 in0.0 mm 0.00 in0.0 mm 1.18 in30.0 mm
07:39 PM 51.6°F10.9°C 47.2°F8.4°C 85% 0.4 mph E0.6 kmh E 1.1 mph1.8 kmh 29.89 in1012.2 mb 0.00 in0.0 mm 0.00 in0.0 mm 1.18 in30.0 mm
07:40 PM 51.6°F10.9°C 46.9°F8.3°C 84% Calm Calm -- 29.89 in1012.2 mb 0.00 in0.0 mm 0.00 in0.0 mm 1.18 in30.0 mm
07:41 PM 51.8°F11.0°C 47.4°F8.6°C 85% Calm Calm -- 29.89 in1012.2 mb 0.00 in0.0 mm 0.00 in0.0 mm 1.18 in30.0 mm
07:42 PM 52.0°F11.1°C 47.6°F8.7°C 85% Calm Calm -- 29.89 in1012.2 mb 0.00 in0.0 mm 0.00 in0.0 mm 1.18 in30.0 mm
07:43 PM 52.0°F11.1°C 47.9°F8.8°C 86% 0.9 mph E1.4 kmh E 1.1 mph1.8 kmh 29.90 in1012.5 mb 0.00 in0.0 mm 0.00 in0.0 mm 1.18 in30.0 mm
07:46 PM 51.6°F10.9°C 48.5°F9.2°C 89% 0.2 mph E0.3 kmh E 1.1 mph1.8 kmh 29.89 in1012.2 mb 0.00 in0.0 mm 0.00 in0.0 mm 1.18 in30.0 mm
07:47 PM 51.4°F10.8°C 48.6°F9.2°C 90% 1.3 mph NE2.1 kmh NE 2.2 mph3.5 kmh 29.90 in1012.5 mb 0.00 in0.0 mm 0.00 in0.0 mm 1.18 in30.0 mm
07:48 PM 51.3°F10.7°C 48.5°F9.2°C 90% 1.1 mph NE1.8 kmh NE 1.1 mph1.8 kmh 29.90 in1012.5 mb 0.00 in0.0 mm 0.00 in0.0 mm 1.18 in30.0 mm
07:50 PM 51.1°F10.6°C 48.3°F9.1°C 90% 1.3 mph NE2.1 kmh NE 2.2 mph3.5 kmh 29.90 in1012.5 mb 0.00 in0.0 mm 0.00 in0.0 mm 1.18 in30.0 mm
07:51 PM 51.1°F10.6°C 48.6°F9.2°C 91% 1.1 mph NE1.8 kmh NE 1.1 mph1.8 kmh 29.90 in1012.5 mb 0.00 in0.0 mm 0.00 in0.0 mm 1.18 in30.0 mm
07:53 PM 51.1°F10.6°C 47.7°F8.7°C 88% 2.0 mph NE3.2 kmh NE 2.2 mph3.5 kmh 29.91 in1012.9 mb 0.00 in0.0 mm 0.00 in0.0 mm 1.18 in30.0 mm
07:54 PM 51.1°F10.6°C 48.3°F9.1°C 90% 1.3 mph NE2.1 kmh NE 2.2 mph3.5 kmh 29.90 in1012.5 mb 0.00 in0.0 mm 0.00 in0.0 mm 1.18 in30.0 mm
07:55 PM 51.3°F10.7°C 48.5°F9.2°C 90% 0.7 mph NE1.1 kmh NE 1.1 mph1.8 kmh 29.90 in1012.5 mb 0.05 in1.3 mm 3.00 in76.2 mm 1.19 in30.2 mm
07:56 PM 51.3°F10.7°C 48.8°F9.3°C 91% 1.1 mph NE1.8 kmh NE 1.1 mph1.8 kmh 29.90 in1012.5 mb 0.05 in1.3 mm 0.00 in0.0 mm 1.19 in30.2 mm
07:57 PM 51.3°F10.7°C 48.8°F9.3°C 91% Calm Calm -- 29.90 in1012.5 mb 0.05 in1.3 mm 0.00 in0.0 mm 1.19 in30.2 mm
07:58 PM 51.1°F10.6°C 48.6°F9.2°C 91% 0.9 mph NE1.4 kmh NE 1.1 mph1.8 kmh 29.90 in1012.5 mb 0.05 in1.3 mm 0.00 in0.0 mm 1.19 in30.2 mm
07:59 PM 51.1°F10.6°C 48.6°F9.2°C 91% 0.4 mph NE0.6 kmh NE 1.1 mph1.8 kmh 29.91 in1012.9 mb 0.05 in1.3 mm 0.00 in0.0 mm 1.19 in30.2 mm
08:00 PM 50.9°F10.5°C 48.4°F9.1°C 91% 1.3 mph ESE2.1 kmh ESE 2.2 mph3.5 kmh 29.90 in1012.5 mb 0.05 in1.3 mm 0.00 in0.0 mm 1.19 in30.2 mm
08:01 PM 50.7°F10.4°C 48.2°F9.0°C 91% 1.3 mph S2.1 kmh S 2.2 mph3.5 kmh 29.91 in1012.9 mb 0.05 in1.3 mm 0.00 in0.0 mm 1.19 in30.2 mm
08:02 PM 50.7°F10.4°C 48.2°F9.0°C 91% 0.7 mph SE1.1 kmh SE 1.1 mph1.8 kmh 29.91 in1012.9 mb 0.05 in1.3 mm 0.00 in0.0 mm 1.19 in30.2 mm
08:03 PM 50.7°F10.4°C 48.2°F9.0°C 91% Calm Calm -- 29.90 in1012.5 mb 0.05 in1.3 mm 0.00 in0.0 mm 1.19 in30.2 mm
08:04 PM 50.7°F10.4°C 48.5°F9.2°C 92% Calm Calm -- 29.90 in1012.5 mb 0.00 in0.0 mm 0.00 in0.0 mm 1.19 in30.2 mm
08:06 PM 50.5°F10.3°C 48.3°F9.1°C 92% Calm Calm -- 29.90 in1012.5 mb 0.00 in0.0 mm 0.00 in0.0 mm 1.19 in30.2 mm
08:07 PM 50.5°F10.3°C 48.3°F9.1°C 92% Calm Calm -- 29.91 in1012.9 mb 0.00 in0.0 mm 0.00 in0.0 mm 1.19 in30.2 mm
08:08 PM 50.5°F10.3°C 48.3°F9.1°C 92% Calm Calm -- 29.91 in1012.9 mb 0.00 in0.0 mm 0.00 in0.0 mm 1.19 in30.2 mm
08:09 PM 50.5°F10.3°C 48.6°F9.2°C 93% Calm Calm -- 29.91 in1012.9 mb 0.00 in0.0 mm 0.00 in0.0 mm 1.19 in30.2 mm
08:10 PM 50.5°F10.3°C 48.6°F9.2°C 93% Calm Calm -- 29.91 in1012.9 mb 0.00 in0.0 mm 0.00 in0.0 mm 1.19 in30.2 mm
08:11 PM 50.5°F10.3°C 48.6°F9.2°C 93% Calm Calm -- 29.91 in1012.9 mb 0.00 in0.0 mm 0.00 in0.0 mm 1.19 in30.2 mm
08:12 PM 50.4°F10.2°C 48.5°F9.2°C 93% Calm Calm -- 29.91 in1012.9 mb 0.00 in0.0 mm 0.00 in0.0 mm 1.19 in30.2 mm
08:13 PM 50.4°F10.2°C 48.7°F9.3°C 94% 0.4 mph ESE0.6 kmh ESE 1.1 mph1.8 kmh 29.91 in1012.9 mb 0.00 in0.0 mm 0.00 in0.0 mm 1.19 in30.2 mm
08:14 PM 50.4°F10.2°C 48.7°F9.3°C 94% Calm Calm -- 29.91 in1012.9 mb 0.00 in0.0 mm 0.00 in0.0 mm 1.19 in30.2 mm
08:15 PM 50.2°F10.1°C 48.5°F9.2°C 94% Calm Calm -- 29.92 in1013.2 mb 0.00 in0.0 mm 0.00 in0.0 mm 1.19 in30.2 mm
08:16 PM 50.0°F10.0°C 48.3°F9.1°C 94% Calm Calm -- 29.92 in1013.2 mb 0.00 in0.0 mm 0.00 in0.0 mm 1.19 in30.2 mm
08:17 PM 50.0°F10.0°C 48.3°F9.1°C 94% Calm Calm -- 29.92 in1013.2 mb 0.00 in0.0 mm 0.00 in0.0 mm 1.19 in30.2 mm
08:18 PM 50.0°F10.0°C 48.6°F9.2°C 95% Calm Calm -- 29.92 in1013.2 mb 0.00 in0.0 mm 0.00 in0.0 mm 1.19 in30.2 mm
08:19 PM 50.0°F10.0°C 48.6°F9.2°C 95% Calm Calm -- 29.92 in1013.2 mb 0.00 in0.0 mm 0.00 in0.0 mm 1.19 in30.2 mm
08:21 PM 49.8°F9.9°C 48.4°F9.1°C 95% Calm Calm -- 29.91 in1012.9 mb 0.00 in0.0 mm 0.00 in0.0 mm 1.19 in30.2 mm
08:22 PM 49.8°F9.9°C 48.4°F9.1°C 95% Calm Calm -- 29.91 in1012.9 mb 0.00 in0.0 mm 0.00 in0.0 mm 1.19 in30.2 mm
08:23 PM 50.0°F10.0°C 48.6°F9.2°C 95% Calm Calm -- 29.92 in1013.2 mb 0.00 in0.0 mm 0.00 in0.0 mm 1.19 in30.2 mm
08:24 PM 49.8°F9.9°C 48.4°F9.1°C 95% Calm Calm -- 29.91 in1012.9 mb 0.00 in0.0 mm 0.00 in0.0 mm 1.19 in30.2 mm
08:25 PM 49.8°F9.9°C 48.4°F9.1°C 95% Calm Calm -- 29.92 in1013.2 mb 0.00 in0.0 mm 0.00 in0.0 mm 1.19 in30.2 mm
08:26 PM 49.8°F9.9°C 48.4°F9.1°C 95% Calm Calm -- 29.92 in1013.2 mb 0.00 in0.0 mm 0.00 in0.0 mm 1.19 in30.2 mm
08:27 PM 49.8°F9.9°C 48.4°F9.1°C 95% Calm Calm -- 29.91 in1012.9 mb 0.00 in0.0 mm 0.00 in0.0 mm 1.19 in30.2 mm
08:28 PM 49.8°F9.9°C 48.4°F9.1°C 95% Calm Calm -- 29.91 in1012.9 mb 0.00 in0.0 mm 0.00 in0.0 mm 1.19 in30.2 mm
08:29 PM 49.8°F9.9°C 48.4°F9.1°C 95% Calm Calm -- 29.91 in1012.9 mb 0.00 in0.0 mm 0.00 in0.0 mm 1.19 in30.2 mm
08:30 PM 50.0°F10.0°C 48.6°F9.2°C 95% Calm Calm -- 29.92 in1013.2 mb 0.00 in0.0 mm 0.00 in0.0 mm 1.19 in30.2 mm
08:31 PM 50.0°F10.0°C 48.6°F9.2°C 95% Calm Calm -- 29.92 in1013.2 mb 0.00 in0.0 mm 0.00 in0.0 mm 1.19 in30.2 mm
08:32 PM 49.8°F9.9°C 48.4°F9.1°C 95% Calm Calm -- 29.92 in1013.2 mb 0.00 in0.0 mm 0.00 in0.0 mm 1.19 in30.2 mm
08:33 PM 49.8°F9.9°C 48.4°F9.1°C 95% Calm Calm -- 29.91 in1012.9 mb 0.00 in0.0 mm 0.00 in0.0 mm 1.19 in30.2 mm
08:34 PM 49.8°F9.9°C 48.7°F9.3°C 96% Calm Calm -- 29.91 in1012.9 mb 0.00 in0.0 mm 0.00 in0.0 mm 1.19 in30.2 mm
08:35 PM 49.8°F9.9°C 48.7°F9.3°C 96% 0.2 mph ESE0.3 kmh ESE 1.1 mph1.8 kmh 29.92 in1013.2 mb 0.00 in0.0 mm 0.00 in0.0 mm 1.19 in30.2 mm
08:36 PM 49.8°F9.9°C 48.7°F9.3°C 96% Calm Calm -- 29.92 in1013.2 mb 0.00 in0.0 mm 0.00 in0.0 mm 1.19 in30.2 mm
08:37 PM 49.6°F9.8°C 48.5°F9.2°C 96% Calm Calm -- 29.91 in1012.9 mb 0.00 in0.0 mm 0.00 in0.0 mm 1.19 in30.2 mm
08:38 PM 49.6°F9.8°C 48.5°F9.2°C 96% Calm Calm -- 29.92 in1013.2 mb 0.00 in0.0 mm 0.00 in0.0 mm 1.19 in30.2 mm
08:39 PM 49.6°F9.8°C 48.5°F9.2°C 96% Calm Calm -- 29.92 in1013.2 mb 0.00 in0.0 mm 0.00 in0.0 mm 1.19 in30.2 mm
08:40 PM 49.6°F9.8°C 48.5°F9.2°C 96% Calm Calm -- 29.92 in1013.2 mb 0.00 in0.0 mm 0.00 in0.0 mm 1.19 in30.2 mm
08:41 PM 49.6°F9.8°C 48.5°F9.2°C 96% 0.2 mph ESE0.3 kmh ESE 1.1 mph1.8 kmh 29.93 in1013.5 mb 0.00 in0.0 mm 0.00 in0.0 mm 1.19 in30.2 mm
08:42 PM 49.6°F9.8°C 48.5°F9.2°C 96% 1.1 mph ESE1.8 kmh ESE 1.1 mph1.8 kmh 29.92 in1013.2 mb 0.00 in0.0 mm 0.00 in0.0 mm 1.19 in30.2 mm
08:43 PM 49.8°F9.9°C 48.7°F9.3°C 96% 0.9 mph ESE1.4 kmh ESE 1.1 mph1.8 kmh 29.92 in1013.2 mb 0.00 in0.0 mm 0.00 in0.0 mm 1.19 in30.2 mm
08:44 PM 50.0°F10.0°C 48.9°F9.4°C 96% Calm Calm -- 29.93 in1013.5 mb 0.00 in0.0 mm 0.00 in0.0 mm 1.19 in30.2 mm
08:45 PM 50.0°F10.0°C 48.9°F9.4°C 96% Calm Calm -- 29.92 in1013.2 mb 0.00 in0.0 mm 0.00 in0.0 mm 1.19 in30.2 mm
08:46 PM 50.0°F10.0°C 48.9°F9.4°C 96% 2.2 mph E3.5 kmh E 2.2 mph3.5 kmh 29.93 in1013.5 mb 0.00 in0.0 mm 0.00 in0.0 mm 1.19 in30.2 mm
08:47 PM 50.2°F10.1°C 49.1°F9.5°C 96% 0.9 mph NE1.4 kmh NE 1.1 mph1.8 kmh 29.92 in1013.2 mb 0.00 in0.0 mm 0.00 in0.0 mm 1.19 in30.2 mm
08:48 PM 50.2°F10.1°C 49.1°F9.5°C 96% Calm Calm -- 29.93 in1013.5 mb 0.00 in0.0 mm 0.00 in0.0 mm 1.19 in30.2 mm
08:49 PM 50.2°F10.1°C 49.1°F9.5°C 96% Calm Calm -- 29.92 in1013.2 mb 0.00 in0.0 mm 0.00 in0.0 mm 1.19 in30.2 mm
08:50 PM 50.2°F10.1°C 49.1°F9.5°C 96% 0.2 mph NE0.3 kmh NE 1.1 mph1.8 kmh 29.93 in1013.5 mb 0.00 in0.0 mm 0.00 in0.0 mm 1.19 in30.2 mm
08:52 PM 50.2°F10.1°C 49.1°F9.5°C 96% 0.7 mph NE1.1 kmh NE 1.1 mph1.8 kmh 29.92 in1013.2 mb 0.07 in1.8 mm 2.10 in53.3 mm 1.20 in30.5 mm
08:53 PM 50.2°F10.1°C 49.1°F9.5°C 96% Calm Calm -- 29.92 in1013.2 mb 0.07 in1.8 mm 0.00 in0.0 mm 1.20 in30.5 mm
08:54 PM 50.2°F10.1°C 49.1°F9.5°C 96% Calm Calm -- 29.93 in1013.5 mb 0.07 in1.8 mm 0.00 in0.0 mm 1.20 in30.5 mm
08:55 PM 50.2°F10.1°C 49.1°F9.5°C 96% Calm Calm -- 29.92 in1013.2 mb 0.07 in1.8 mm 0.00 in0.0 mm 1.20 in30.5 mm
08:56 PM 50.0°F10.0°C 48.9°F9.4°C 96% Calm Calm -- 29.92 in1013.2 mb 0.07 in1.8 mm 0.00 in0.0 mm 1.20 in30.5 mm
08:57 PM 50.0°F10.0°C 48.9°F9.4°C 96% Calm Calm -- 29.92 in1013.2 mb 0.07 in1.8 mm 0.00 in0.0 mm 1.20 in30.5 mm
08:58 PM 50.0°F10.0°C 48.9°F9.4°C 96% Calm Calm -- 29.92 in1013.2 mb 0.07 in1.8 mm 0.00 in0.0 mm 1.20 in30.5 mm
08:59 PM 50.0°F10.0°C 48.9°F9.4°C 96% Calm Calm -- 29.93 in1013.5 mb 0.07 in1.8 mm 0.00 in0.0 mm 1.20 in30.5 mm
09:00 PM 50.0°F10.0°C 48.9°F9.4°C 96% Calm Calm -- 29.93 in1013.5 mb 0.00 in0.0 mm 0.00 in0.0 mm 1.20 in30.5 mm
09:01 PM 50.0°F10.0°C 48.9°F9.4°C 96% 0.2 mph NE0.3 kmh NE 1.1 mph1.8 kmh 29.93 in1013.5 mb 0.00 in0.0 mm 0.00 in0.0 mm 1.20 in30.5 mm
09:03 PM 49.8°F9.9°C 48.7°F9.3°C 96% 0.9 mph NE1.4 kmh NE 1.1 mph1.8 kmh 29.93 in1013.5 mb 0.00 in0.0 mm 0.00 in0.0 mm 1.20 in30.5 mm
09:04 PM 50.0°F10.0°C 48.9°F9.4°C 96% 0.7 mph NE1.1 kmh NE 1.1 mph1.8 kmh 29.93 in1013.5 mb 0.00 in0.0 mm 0.00 in0.0 mm 1.20 in30.5 mm
09:07 PM 50.0°F10.0°C 48.9°F9.4°C 96% 1.8 mph N2.9 kmh N 2.2 mph3.5 kmh 29.93 in1013.5 mb 0.00 in0.0 mm 0.00 in0.0 mm 1.20 in30.5 mm
09:08 PM 50.0°F10.0°C 48.6°F9.2°C 95% 1.8 mph NW2.9 kmh NW 2.2 mph3.5 kmh 29.93 in1013.5 mb 0.00 in0.0 mm 0.00 in0.0 mm 1.20 in30.5 mm
09:09 PM 50.0°F10.0°C 48.6°F9.2°C 95% 0.9 mph NW1.4 kmh NW 1.1 mph1.8 kmh 29.93 in1013.5 mb 0.00 in0.0 mm 0.00 in0.0 mm 1.20 in30.5 mm
09:10 PM 50.0°F10.0°C 48.3°F9.1°C 94% 0.2 mph NW0.3 kmh NW 1.1 mph1.8 kmh 29.93 in1013.5 mb 0.00 in0.0 mm 0.00 in0.0 mm 1.20 in30.5 mm
09:11 PM 50.2°F10.1°C 48.5°F9.2°C 94% Calm Calm -- 29.93 in1013.5 mb 0.00 in0.0 mm 0.00 in0.0 mm 1.20 in30.5 mm
09:12 PM 50.4°F10.2°C 48.7°F9.3°C 94% 0.2 mph NE0.3 kmh NE 1.1 mph1.8 kmh 29.93 in1013.5 mb 0.00 in0.0 mm 0.00 in0.0 mm 1.20 in30.5 mm
09:13 PM 50.4°F10.2°C 49.0°F9.4°C 95% 0.2 mph NE0.3 kmh NE 1.1 mph1.8 kmh 29.94 in1013.9 mb 0.00 in0.0 mm 0.00 in0.0 mm 1.20 in30.5 mm
09:14 PM 50.4°F10.2°C 49.0°F9.4°C 95% Calm Calm -- 29.93 in1013.5 mb 0.00 in0.0 mm 0.00 in0.0 mm 1.20 in30.5 mm
09:15 PM 50.4°F10.2°C 49.0°F9.4°C 95% Calm Calm -- 29.94 in1013.9 mb 0.00 in0.0 mm 0.00 in0.0 mm 1.20 in30.5 mm
09:17 PM 50.4°F10.2°C 49.0°F9.4°C 95% Calm Calm -- 29.93 in1013.5 mb 0.00 in0.0 mm 0.00 in0.0 mm 1.20 in30.5 mm
09:18 PM 50.4°F10.2°C 49.0°F9.4°C 95% 1.1 mph NNE1.8 kmh NNE 1.1 mph1.8 kmh 29.94 in1013.9 mb 0.00 in0.0 mm 0.00 in0.0 mm 1.20 in30.5 mm
09:19 PM 50.2°F10.1°C 49.1°F9.5°C 96% 1.3 mph NNE2.1 kmh NNE 2.2 mph3.5 kmh 29.94 in1013.9 mb 0.00 in0.0 mm 0.00 in0.0 mm 1.20 in30.5 mm
09:20 PM 50.2°F10.1°C 49.1°F9.5°C 96% 2.2 mph NNE3.5 kmh NNE 2.2 mph3.5 kmh 29.94 in1013.9 mb 0.00 in0.0 mm 0.00 in0.0 mm 1.20 in30.5 mm
09:21 PM 50.2°F10.1°C 49.1°F9.5°C 96% 2.2 mph NNE3.5 kmh NNE 2.2 mph3.5 kmh 29.94 in1013.9 mb 0.00 in0.0 mm 0.00 in0.0 mm 1.20 in30.5 mm
09:22 PM 50.2°F10.1°C 49.1°F9.5°C 96% 2.0 mph NNE3.2 kmh NNE 2.2 mph3.5 kmh 29.94 in1013.9 mb 0.00 in0.0 mm 0.00 in0.0 mm 1.20 in30.5 mm
09:23 PM 50.2°F10.1°C 49.1°F9.5°C 96% 2.5 mph N4.0 kmh N 3.4 mph5.5 kmh 29.94 in1013.9 mb 0.00 in0.0 mm 0.00 in0.0 mm 1.20 in30.5 mm
09:24 PM 50.2°F10.1°C 49.1°F9.5°C 96% 3.1 mph NNW5.0 kmh NNW 3.4 mph5.5 kmh 29.94 in1013.9 mb 0.00 in0.0 mm 0.00 in0.0 mm 1.20 in30.5 mm
09:25 PM 50.0°F10.0°C 48.9°F9.4°C 96% 2.2 mph NNW3.5 kmh NNW 2.2 mph3.5 kmh 29.94 in1013.9 mb 0.00 in0.0 mm 0.00 in0.0 mm 1.20 in30.5 mm
09:28 PM 50.0°F10.0°C 48.9°F9.4°C 96% 2.2 mph NNW3.5 kmh NNW 2.2 mph3.5 kmh 29.94 in1013.9 mb 0.00 in0.0 mm 0.00 in0.0 mm 1.20 in30.5 mm
09:29 PM 50.0°F10.0°C 48.9°F9.4°C 96% 1.1 mph NNW1.8 kmh NNW 1.1 mph1.8 kmh 29.94 in1013.9 mb 0.00 in0.0 mm 0.00 in0.0 mm 1.20 in30.5 mm
09:30 PM 50.0°F10.0°C 48.9°F9.4°C 96% Calm Calm -- 29.94 in1013.9 mb 0.00 in0.0 mm 0.00 in0.0 mm 1.20 in30.5 mm
09:31 PM 50.0°F10.0°C 48.9°F9.4°C 96% 0.7 mph NNW1.1 kmh NNW 1.1 mph1.8 kmh 29.95 in1014.2 mb 0.00 in0.0 mm 0.00 in0.0 mm 1.20 in30.5 mm
09:32 PM 50.0°F10.0°C 48.9°F9.4°C 96% 0.4 mph N0.6 kmh N 1.1 mph1.8 kmh 29.95 in1014.2 mb 0.00 in0.0 mm 0.00 in0.0 mm 1.20 in30.5 mm
09:33 PM 50.0°F10.0°C 48.9°F9.4°C 96% Calm Calm -- 29.95 in1014.2 mb 0.00 in0.0 mm 0.00 in0.0 mm 1.20 in30.5 mm
09:34 PM 50.0°F10.0°C 48.9°F9.4°C 96% 0.9 mph N1.4 kmh N 1.1 mph1.8 kmh 29.95 in1014.2 mb 0.00 in0.0 mm 0.00 in0.0 mm 1.20 in30.5 mm
09:35 PM 50.0°F10.0°C 48.9°F9.4°C 96% Calm Calm -- 29.94 in1013.9 mb 0.00 in0.0 mm 0.00 in0.0 mm 1.20 in30.5 mm
09:36 PM 50.0°F10.0°C 48.9°F9.4°C 96% Calm Calm -- 29.95 in1014.2 mb 0.00 in0.0 mm 0.00 in0.0 mm 1.20 in30.5 mm
09:38 PM 49.8°F9.9°C 48.7°F9.3°C 96% Calm Calm -- 29.95 in1014.2 mb 0.00 in0.0 mm 0.00 in0.0 mm 1.20 in30.5 mm
09:39 PM 49.8°F9.9°C 48.7°F9.3°C 96% Calm Calm -- 29.95 in1014.2 mb 0.00 in0.0 mm 0.00 in0.0 mm 1.20 in30.5 mm
09:40 PM 49.8°F9.9°C 48.7°F9.3°C 96% Calm Calm -- 29.95 in1014.2 mb 0.00 in0.0 mm 0.00 in0.0 mm 1.20 in30.5 mm
09:41 PM 49.8°F9.9°C 48.7°F9.3°C 96% Calm Calm -- 29.95 in1014.2 mb 0.00 in0.0 mm 0.00 in0.0 mm 1.20 in30.5 mm
09:42 PM 49.6°F9.8°C 48.5°F9.2°C 96% Calm Calm -- 29.95 in1014.2 mb 0.00 in0.0 mm 0.00 in0.0 mm 1.20 in30.5 mm
09:43 PM 49.6°F9.8°C 48.2°F9.0°C 95% Calm Calm -- 29.94 in1013.9 mb 0.00 in0.0 mm 0.00 in0.0 mm 1.20 in30.5 mm
09:44 PM 49.6°F9.8°C 48.2°F9.0°C 95% 0.7 mph NNW1.1 kmh NNW 1.1 mph1.8 kmh 29.95 in1014.2 mb 0.00 in0.0 mm 0.00 in0.0 mm 1.20 in30.5 mm
09:45 PM 49.6°F9.8°C 48.2°F9.0°C 95% Calm Calm -- 29.95 in1014.2 mb 0.00 in0.0 mm 0.00 in0.0 mm 1.20 in30.5 mm
09:47 PM 49.6°F9.8°C 47.9°F8.8°C 94% Calm Calm -- 29.95 in1014.2 mb 0.00 in0.0 mm 0.00 in0.0 mm 1.20 in30.5 mm
09:48 PM 49.8°F9.9°C 48.1°F8.9°C 94% 0.2 mph NNW0.3 kmh NNW 1.1 mph1.8 kmh 29.95 in1014.2 mb 0.00 in0.0 mm 0.00 in0.0 mm 1.20 in30.5 mm
09:49 PM 49.8°F9.9°C 48.1°F8.9°C 94% Calm Calm -- 29.95 in1014.2 mb 0.00 in0.0 mm 0.00 in0.0 mm 1.20 in30.5 mm
09:50 PM 49.8°F9.9°C 48.1°F8.9°C 94% Calm Calm -- 29.95 in1014.2 mb 0.00 in0.0 mm 0.00 in0.0 mm 1.20 in30.5 mm
09:51 PM 50.0°F10.0°C 48.3°F9.1°C 94% Calm Calm -- 29.95 in1014.2 mb 0.00 in0.0 mm 0.00 in0.0 mm 1.20 in30.5 mm
09:52 PM 49.8°F9.9°C 48.1°F8.9°C 94% 0.2 mph N0.3 kmh N 1.1 mph1.8 kmh 29.95 in1014.2 mb 0.00 in0.0 mm 0.00 in0.0 mm 1.20 in30.5 mm
09:53 PM 49.8°F9.9°C 48.1°F8.9°C 94% 0.2 mph N0.3 kmh N 1.1 mph1.8 kmh 29.96 in1014.6 mb 0.00 in0.0 mm 0.00 in0.0 mm 1.20 in30.5 mm
09:54 PM 49.8°F9.9°C 48.1°F8.9°C 94% Calm Calm -- 29.95 in1014.2 mb 0.00 in0.0 mm 0.00 in0.0 mm 1.20 in30.5 mm
09:55 PM 49.8°F9.9°C 48.1°F8.9°C 94% 0.7 mph N1.1 kmh N 1.1 mph1.8 kmh 29.96 in1014.6 mb 0.00 in0.0 mm 0.00 in0.0 mm 1.20 in30.5 mm
09:56 PM 49.8°F9.9°C 48.1°F8.9°C 94% Calm Calm -- 29.95 in1014.2 mb 0.00 in0.0 mm 0.00 in0.0 mm 1.20 in30.5 mm
09:58 PM 49.8°F9.9°C 48.1°F8.9°C 94% Calm Calm -- 29.95 in1014.2 mb 0.00 in0.0 mm 0.00 in0.0 mm 1.20 in30.5 mm
09:59 PM 49.8°F9.9°C 48.1°F8.9°C 94% Calm Calm -- 29.95 in1014.2 mb 0.00 in0.0 mm 0.00 in0.0 mm 1.20 in30.5 mm
10:00 PM 49.8°F9.9°C 48.1°F8.9°C 94% Calm Calm -- 29.95 in1014.2 mb 0.00 in0.0 mm 0.00 in0.0 mm 1.20 in30.5 mm
10:01 PM 49.8°F9.9°C 48.1°F8.9°C 94% Calm Calm -- 29.95 in1014.2 mb 0.00 in0.0 mm 0.00 in0.0 mm 1.20 in30.5 mm
10:02 PM 49.8°F9.9°C 48.1°F8.9°C 94% Calm Calm -- 29.95 in1014.2 mb 0.00 in0.0 mm 0.00 in0.0 mm 1.20 in30.5 mm
10:03 PM 49.6°F9.8°C 47.9°F8.8°C 94% 0.9 mph N1.4 kmh N 1.1 mph1.8 kmh 29.95 in1014.2 mb 0.00 in0.0 mm 0.00 in0.0 mm 1.20 in30.5 mm
10:04 PM 49.6°F9.8°C 47.9°F8.8°C 94% Calm Calm -- 29.95 in1014.2 mb 0.00 in0.0 mm 0.00 in0.0 mm 1.20 in30.5 mm
10:05 PM 49.6°F9.8°C 47.9°F8.8°C 94% Calm Calm -- 29.95 in1014.2 mb 0.00 in0.0 mm 0.00 in0.0 mm 1.20 in30.5 mm
10:06 PM 49.6°F9.8°C 47.9°F8.8°C 94% 0.4 mph N0.6 kmh N 1.1 mph1.8 kmh 29.95 in1014.2 mb 0.00 in0.0 mm 0.00 in0.0 mm 1.20 in30.5 mm
10:07 PM 49.6°F9.8°C 47.9°F8.8°C 94% 0.7 mph N1.1 kmh N 1.1 mph1.8 kmh 29.95 in1014.2 mb 0.00 in0.0 mm 0.00 in0.0 mm 1.20 in30.5 mm
10:08 PM 49.6°F9.8°C 47.9°F8.8°C 94% Calm Calm -- 29.95 in1014.2 mb 0.00 in0.0 mm 0.00 in0.0 mm 1.20 in30.5 mm
10:09 PM 49.6°F9.8°C 48.2°F9.0°C 95% Calm Calm -- 29.95 in1014.2 mb 0.00 in0.0 mm 0.00 in0.0 mm 1.20 in30.5 mm
10:10 PM 49.6°F9.8°C 48.2°F9.0°C 95% Calm Calm -- 29.95 in1014.2 mb 0.00 in0.0 mm 0.00 in0.0 mm 1.20 in30.5 mm
10:11 PM 49.6°F9.8°C 48.2°F9.0°C 95% Calm Calm -- 29.95 in1014.2 mb 0.00 in0.0 mm 0.00 in0.0 mm 1.20 in30.5 mm
10:12 PM 49.6°F9.8°C 48.2°F9.0°C 95% Calm Calm -- 29.95 in1014.2 mb 0.00 in0.0 mm 0.00 in0.0 mm 1.20 in30.5 mm
10:13 PM 49.6°F9.8°C 48.2°F9.0°C 95% Calm Calm -- 29.96 in1014.6 mb 0.00 in0.0 mm 0.00 in0.0 mm 1.20 in30.5 mm
10:14 PM 49.5°F9.7°C 48.1°F8.9°C 95% 0.2 mph N0.3 kmh N 1.1 mph1.8 kmh 29.95 in1014.2 mb 0.00 in0.0 mm 0.00 in0.0 mm 1.20 in30.5 mm
10:15 PM 49.5°F9.7°C 48.1°F8.9°C 95% Calm Calm -- 29.96 in1014.6 mb 0.00 in0.0 mm 0.00 in0.0 mm 1.20 in30.5 mm
10:16 PM 49.5°F9.7°C 48.1°F8.9°C 95% Calm Calm -- 29.95 in1014.2 mb 0.00 in0.0 mm 0.00 in0.0 mm 1.20 in30.5 mm
10:17 PM 49.5°F9.7°C 48.1°F8.9°C 95% Calm Calm -- 29.94 in1013.9 mb 0.00 in0.0 mm 0.00 in0.0 mm 1.20 in30.5 mm
10:18 PM 49.3°F9.6°C 47.9°F8.8°C 95% Calm Calm -- 29.95 in1014.2 mb 0.00 in0.0 mm 0.00 in0.0 mm 1.20 in30.5 mm
10:19 PM 49.3°F9.6°C 47.9°F8.8°C 95% Calm Calm -- 29.96 in1014.6 mb 0.00 in0.0 mm 0.00 in0.0 mm 1.20 in30.5 mm
10:20 PM 49.3°F9.6°C 47.9°F8.8°C 95% Calm Calm -- 29.95 in1014.2 mb 0.00 in0.0 mm 0.00 in0.0 mm 1.20 in30.5 mm
10:21 PM 49.3°F9.6°C 47.9°F8.8°C 95% Calm Calm -- 29.95 in1014.2 mb 0.00 in0.0 mm 0.00 in0.0 mm 1.20 in30.5 mm
10:22 PM 49.1°F9.5°C 47.7°F8.7°C 95% Calm Calm -- 29.95 in1014.2 mb 0.00 in0.0 mm 0.00 in0.0 mm 1.20 in30.5 mm
10:24 PM 49.1°F9.5°C 47.7°F8.7°C 95% Calm Calm -- 29.95 in1014.2 mb 0.00 in0.0 mm 0.00 in0.0 mm 1.20 in30.5 mm
10:25 PM 49.1°F9.5°C 47.7°F8.7°C 95% Calm Calm -- 29.95 in1014.2 mb 0.00 in0.0 mm 0.00 in0.0 mm 1.20 in30.5 mm
10:27 PM 48.9°F9.4°C 47.8°F8.8°C 96% 1.1 mph N1.8 kmh N 1.1 mph1.8 kmh 29.95 in1014.2 mb 0.00 in0.0 mm 0.00 in0.0 mm 1.20 in30.5 mm
10:28 PM 48.9°F9.4°C 47.8°F8.8°C 96% Calm Calm -- 29.95 in1014.2 mb 0.00 in0.0 mm 0.00 in0.0 mm 1.20 in30.5 mm
10:29 PM 48.9°F9.4°C 47.8°F8.8°C 96% Calm Calm -- 29.95 in1014.2 mb 0.00 in0.0 mm 0.00 in0.0 mm 1.20 in30.5 mm
10:31 PM 48.9°F9.4°C 47.8°F8.8°C 96% Calm Calm -- 29.95 in1014.2 mb 0.00 in0.0 mm 0.00 in0.0 mm 1.20 in30.5 mm
10:32 PM 48.9°F9.4°C 47.8°F8.8°C 96% 1.1 mph N1.8 kmh N 1.1 mph1.8 kmh 29.95 in1014.2 mb 0.00 in0.0 mm 0.00 in0.0 mm 1.20 in30.5 mm
10:33 PM 48.9°F9.4°C 47.8°F8.8°C 96% Calm Calm -- 29.95 in1014.2 mb 0.00 in0.0 mm 0.00 in0.0 mm 1.20 in30.5 mm
10:34 PM 48.7°F9.3°C 47.6°F8.7°C 96% Calm Calm -- 29.95 in1014.2 mb 0.00 in0.0 mm 0.00 in0.0 mm 1.20 in30.5 mm